
Distance (Route):
Temperature : -27.6°C
Humidity : 28.9%
Pressure : 420.6hPa| Receiver | Frames | First received | Last received |
|---|---|---|---|
| DL1XH-west | 384 | 2026-09-02 11:46:06 | 2026-09-02 12:57:58 |
| BIOWL1-15 | 171 | 2026-09-02 12:10:53 | 2026-09-02 12:48:48 |
| DM0DOS-11 | 119 | 2026-09-02 12:02:46 | 2026-09-02 12:51:25 |
| DJ2DS-15 | 67 | 2026-09-02 11:42:04 | 2026-09-02 12:59:04 |
| GOEST3-10 | 50 | 2026-09-02 12:25:43 | 2026-09-02 12:46:16 |
| BIOWL9-15 | 11 | 2026-09-02 12:19:13 | 2026-09-02 12:48:11 |
| BIOWL7-15 | 1 | 2026-09-02 12:33:38 | 2026-09-02 12:33:38 |
| Receiver | Date | Latitude | Longitude | Direction | Speed | Altitude | Climb | Temperature | Humidity | Pressure | Voltage | Killtimer | Uptime | BKT | XDATA |
|---|---|---|---|---|---|---|---|---|---|---|---|---|---|---|---|
| DJ2DS-15 | 2026-09-02 12:59:04 | 56.33358 | 5.15643 | 104° | 75km/h | 6924m | -13.9m/s | -27.6°C | 28.9% | 420.6hPa | 2.6V | 00:00:00 | 02:12:35 | 00:00:00 | |
| DJ2DS-15 | 2026-09-02 12:58:44 | 56.33443 | 5.14985 | 104° | 86km/h | 7167m | -12.2m/s | -29.2°C | 29.9% | 406.7hPa | 2.6V | 00:00:00 | 02:12:15 | 00:00:00 | |
| DJ2DS-15 | 2026-09-02 12:58:42 | 56.33454 | 5.14912 | 105° | 84km/h | 7192m | -13.3m/s | -29.4°C | 29.3% | 405.2hPa | 2.6V | 00:00:00 | 00:00:00 | 00:00:00 | |
| DJ2DS-15 | 2026-09-02 12:58:24 | 56.33560 | 5.14234 | 109° | 95km/h | 7416m | -12.4m/s | -30.7°C | 47.4% | 392.5hPa | 2.6V | 00:00:00 | 02:11:55 | 00:00:00 | |
| DL1XH-west | 2026-09-02 12:57:58 | 56.33771 | 5.13045 | 107° | 108km/h | 7764m | -13.7m/s | -32.9°C | 87.4% | 373.6hPa | 2.6V | 08:15:17 | 02:11:27 | 00:00:00 | |
| DL1XH-west | 2026-09-02 12:57:47 | 56.33850 | 5.12573 | 108° | 110km/h | 7891m | -12.3m/s | -33.7°C | 79.1% | 367hPa | 2.6V | 08:15:17 | 02:11:17 | 00:00:00 | |
| DL1XH-west | 2026-09-02 12:57:35 | 56.33957 | 5.11996 | 109° | 111km/h | 8046m | -13.9m/s | -34.8°C | 74% | 359hPa | 2.6V | 08:15:17 | 02:11:05 | 00:00:00 | |
| DL1XH-west | 2026-09-02 12:57:25 | 56.34039 | 5.11566 | 110° | 108km/h | 8166m | -12.9m/s | -35.9°C | 69.2% | 352.9hPa | 2.5V | 08:15:17 | 02:10:56 | 00:00:00 | |
| DL1XH-west | 2026-09-02 12:57:15 | 56.34143 | 5.11005 | 109° | 108km/h | 8317m | -14.4m/s | -37.4°C | 71.5% | 345.1hPa | 2.5V | 08:16:08 | 02:10:44 | 00:00:00 | |
| DL1XH-west | 2026-09-02 12:57:05 | 56.34233 | 5.10541 | 109° | 110km/h | 8451m | -13.5m/s | -38.4°C | 73.8% | 338.6hPa | 2.6V | 08:16:08 | 02:10:34 | 00:00:00 | |
| DL1XH-west | 2026-09-02 12:56:53 | 56.34325 | 5.10074 | 109° | 108km/h | 8589m | -13.8m/s | -39.6°C | 74.2% | 331.9hPa | 2.5V | 08:16:08 | 02:10:24 | 00:00:00 | |
| DL1XH-west | 2026-09-02 12:56:43 | 56.34415 | 5.09608 | 109° | 108km/h | 8722m | -13.9m/s | -40.8°C | 76.2% | 325.4hPa | 2.6V | 08:16:08 | 02:10:14 | 00:00:00 | |
| DL1XH-west | 2026-09-02 12:56:33 | 56.34536 | 5.08964 | 108° | 106km/h | 8915m | -13.7m/s | -42.7°C | 77.9% | 316.1hPa | 2.6V | 08:16:59 | 02:10:00 | 00:00:00 | |
| DL1XH-west | 2026-09-02 12:56:19 | 56.34626 | 5.08465 | 108° | 104km/h | 9075m | -15m/s | -44°C | 69.5% | 308.8hPa | 2.5V | 08:16:59 | 02:09:49 | 00:00:00 | |
| DL1XH-west | 2026-09-02 12:56:08 | 56.34713 | 5.07986 | 108° | 100km/h | 9237m | -15.5m/s | -45.4°C | 68% | 301.5hPa | 2.5V | 08:16:59 | 02:09:38 | 00:00:00 | |
| DL1XH-west | 2026-09-02 12:55:56 | 56.34799 | 5.07509 | 108° | 100km/h | 9399m | -15m/s | -47°C | 72.7% | 294.1hPa | 2.5V | 08:16:59 | 02:09:27 | 00:00:00 | |
| DL1XH-west | 2026-09-02 12:55:46 | 56.34881 | 5.07032 | 107° | 99km/h | 9561m | -16.4m/s | -48.4°C | 63.7% | 287hPa | 2.5V | 08:16:59 | 02:09:16 | 00:00:00 | |
| DL1XH-west | 2026-09-02 12:55:35 | 56.34954 | 5.06581 | 107° | 106km/h | 9722m | -17m/s | -49.6°C | 66.2% | 280hPa | 2.5V | 08:17:50 | 02:09:06 | 00:00:00 | |
| DL1XH-west | 2026-09-02 12:55:24 | 56.35046 | 5.06056 | 108° | 113km/h | 9903m | -17.5m/s | -51.2°C | 68.1% | 272.5hPa | 2.5V | 08:17:50 | 02:08:55 | 00:00:00 | |
| DL1XH-west | 2026-09-02 12:55:13 | 56.35151 | 5.05498 | 110° | 122km/h | 10083m | -15.9m/s | -52.7°C | 58.5% | 264.9hPa | 2.5V | 08:17:50 | 02:08:44 | 00:00:00 | |
| DL1XH-west | 2026-09-02 12:55:03 | 56.35268 | 5.04930 | 111° | 122km/h | 10257m | -15.5m/s | -53.6°C | 41.7% | 257.6hPa | 2.5V | 08:17:50 | 02:08:33 | 00:00:00 | |
| DL1XH-west | 2026-09-02 12:54:52 | 56.35371 | 5.04403 | 110° | 124km/h | 10421m | -17.9m/s | -53.9°C | 33.4% | 251.2hPa | 2.5V | 08:17:50 | 02:08:23 | 00:00:00 | |
| DL1XH-west | 2026-09-02 12:54:42 | 56.35483 | 5.03862 | 113° | 131km/h | 10587m | -16.8m/s | -54.3°C | 28.2% | 244.8hPa | 2.5V | 08:18:41 | 02:08:13 | 00:00:00 | |
| DL1XH-west | 2026-09-02 12:54:31 | 56.35626 | 5.03280 | 113° | 122km/h | 10772m | -17.2m/s | -53°C | 21.8% | 238hPa | 2.5V | 08:18:41 | 02:08:02 | 00:00:00 | |
| DL1XH-west | 2026-09-02 12:54:20 | 56.35759 | 5.02728 | 115° | 119km/h | 10953m | -17.7m/s | -53.2°C | 18.8% | 231.4hPa | 2.5V | 08:18:41 | 02:07:51 | 00:00:00 | |
| DL1XH-west | 2026-09-02 12:54:09 | 56.35899 | 5.02202 | 114° | 113km/h | 11137m | -16.6m/s | -53.7°C | 14% | 224.9hPa | 2.5V | 08:18:41 | 02:07:40 | 00:00:00 | |
| DL1XH-west | 2026-09-02 12:53:59 | 56.36020 | 5.01688 | 112° | 110km/h | 11309m | -14.7m/s | -53.4°C | 7.9% | 219hPa | 2.6V | 08:19:32 | 02:07:29 | 00:00:00 | |
| DL1XH-west | 2026-09-02 12:53:47 | 56.36128 | 5.01202 | 110° | 102km/h | 11483m | -16.1m/s | -51.5°C | 4.1% | 213.1hPa | 2.6V | 08:19:32 | 02:07:18 | 00:00:00 | |
| DL1XH-west | 2026-09-02 12:53:37 | 56.36206 | 5.00755 | 108° | 102km/h | 11646m | -16.6m/s | -50°C | 2.6% | 207.8hPa | 2.6V | 08:19:32 | 02:07:08 | 00:00:00 | |
| DL1XH-west | 2026-09-02 12:53:26 | 56.36303 | 5.00282 | 114° | 95km/h | 11820m | -16.4m/s | -48.6°C | 1.6% | 202.3hPa | 2.5V | 08:19:32 | 02:06:57 | 00:00:00 | |
| DL1XH-west | 2026-09-02 12:53:16 | 56.36396 | 4.99912 | 113° | 82km/h | 11979m | -17.3m/s | -49.7°C | 1.9% | 197.6hPa | 2.5V | 08:19:32 | 02:06:47 | 00:00:00 | |
| DL1XH-west | 2026-09-02 12:53:05 | 56.36466 | 4.99516 | 104° | 88km/h | 12151m | -13.3m/s | -50.1°C | 1.4% | 192.4hPa | 2.6V | 08:20:23 | 02:06:36 | 00:00:00 | |
| DL1XH-west | 2026-09-02 12:52:55 | 56.36515 | 4.99102 | 101° | 95km/h | 12308m | -16.5m/s | -49.3°C | 1% | 187.8hPa | 2.6V | 08:20:23 | 02:06:26 | 00:00:00 | |
| DL1XH-west | 2026-09-02 12:52:45 | 56.36579 | 4.98671 | 109° | 100km/h | 12467m | -17.1m/s | -48.7°C | 0.7% | 183.4hPa | 2.5V | 08:20:23 | 02:06:16 | 00:00:00 | |
| DL1XH-west | 2026-09-02 12:52:35 | 56.36665 | 4.98245 | 111° | 95km/h | 12623m | -16.3m/s | -48.4°C | 0.7% | 179hPa | 2.6V | 08:20:23 | 02:06:06 | 00:00:00 | |
| DL1XH-west | 2026-09-02 12:52:24 | 56.36748 | 4.97804 | 107° | 89km/h | 12809m | -17m/s | -47.7°C | 0.3% | 174.1hPa | 2.6V | 08:20:23 | 02:05:55 | 00:00:00 | |
| DL1XH-west | 2026-09-02 12:52:14 | 56.36821 | 4.97419 | 111° | 88km/h | 12970m | -16.7m/s | -48°C | 0.3% | 169.8hPa | 2.5V | 08:21:14 | 02:05:45 | 00:00:00 | |
| DL1XH-west | 2026-09-02 12:52:04 | 56.36892 | 4.97062 | 109° | 80km/h | 13138m | -16m/s | -48.2°C | 0.1% | 165.6hPa | 2.5V | 08:21:14 | 02:05:35 | 00:00:00 | |
| DL1XH-west | 2026-09-02 12:51:54 | 56.36952 | 4.96681 | 104° | 84km/h | 13316m | -17.3m/s | -48.7°C | 0.2% | 161.1hPa | 2.6V | 08:21:14 | 02:05:24 | 00:00:00 | |
| DL1XH-west | 2026-09-02 12:51:43 | 56.37005 | 4.96294 | 102° | 89km/h | 13484m | -15.1m/s | -48.6°C | 0.1% | 157.1hPa | 2.6V | 08:21:14 | 02:05:14 | 00:00:00 | |
| DL1XH-west | 2026-09-02 12:51:32 | 56.37069 | 4.95861 | 107° | 88km/h | 13668m | -17.4m/s | -49.3°C | 0.1% | 152.7hPa | 2.5V | 08:21:14 | 02:05:03 | 00:00:00 | |
| DJ2DS-15 | 2026-09-02 12:51:29 | 56.37096 | 4.95711 | 108° | 82km/h | 13735m | -15.9m/s | -49.6°C | 1.2% | 151.2hPa | 2.6V | 00:00:00 | 00:00:00 | 00:00:00 | |
| DM0DOS-11 | 2026-09-02 12:51:25 | 56.37162 | 4.95404 | 113° | 78km/h | 13890m | -16.8m/s | -50°C | 3.6% | 147.6hPa | 2.6V | 08:21:21 | 02:04:50 | 00:00:00 | |
| DL1XH-west | 2026-09-02 12:51:22 | 56.37147 | 4.95469 | 113° | 78km/h | 13855m | -18.1m/s | -50°C | 0.3% | 148.4hPa | 2.5V | 08:22:05 | 02:04:52 | 00:00:00 | |
| DM0DOS-11 | 2026-09-02 12:51:14 | 56.37230 | 4.95093 | 108° | 71km/h | 14056m | -19.1m/s | -49.5°C | 3.6% | 143.8hPa | 2.5V | 08:21:31 | 02:04:40 | 00:00:00 | |
| DL1XH-west | 2026-09-02 12:51:11 | 56.37218 | 4.95154 | 109° | 71km/h | 14020m | -17.4m/s | -49.7°C | 0.2% | 144.6hPa | 2.6V | 08:22:05 | 02:04:42 | 00:00:00 | |
| DM0DOS-11 | 2026-09-02 12:51:04 | 56.37276 | 4.94780 | 102° | 66km/h | 14228m | -16.6m/s | -48°C | 3.1% | 140.1hPa | 2.6V | 08:21:41 | 02:04:30 | 00:00:00 | |
| DL1XH-west | 2026-09-02 12:51:01 | 56.37268 | 4.94842 | 103° | 71km/h | 14196m | -17.5m/s | -48.1°C | 0% | 140.8hPa | 2.6V | 08:22:05 | 02:04:32 | 00:00:00 | |
| DM0DOS-11 | 2026-09-02 12:50:54 | 56.37315 | 4.94517 | 106° | 53km/h | 14402m | -19.3m/s | -48°C | 3.1% | 136.5hPa | 2.6V | 08:21:51 | 02:04:20 | 00:00:00 | |
| DL1XH-west | 2026-09-02 12:50:51 | 56.37307 | 4.94564 | 106° | 55km/h | 14364m | -18.5m/s | -47.9°C | 0% | 137.2hPa | 2.5V | 08:22:05 | 02:04:22 | 00:00:00 | |
| DM0DOS-11 | 2026-09-02 12:50:44 | 56.37353 | 4.94282 | 105° | 57km/h | 14572m | -16.9m/s | -47.7°C | 3% | 133hPa | 2.5V | 08:22:01 | 02:04:10 | 00:00:00 | |
| DL1XH-west | 2026-09-02 12:50:40 | 56.37349 | 4.94307 | 107° | 57km/h | 14555m | -17.2m/s | -47.7°C | 0% | 133.3hPa | 2.5V | 08:22:05 | 02:04:11 | 00:00:00 | |
| DM0DOS-11 | 2026-09-02 12:50:34 | 56.37389 | 4.93990 | 97° | 64km/h | 14770m | -19.6m/s | -48.3°C | 3% | 129.1hPa | 2.5V | 08:22:12 | 02:03:59 | 00:00:00 | |
| DL1XH-west | 2026-09-02 12:50:29 | 56.37387 | 4.94019 | 99° | 62km/h | 14751m | -18.6m/s | -48.4°C | 0% | 129.4hPa | 2.6V | 08:22:56 | 02:04:00 | 00:00:00 | |
| DL1XH-west | 2026-09-02 12:50:18 | 56.37417 | 4.93693 | 101° | 68km/h | 14946m | -18.2m/s | -48.9°C | 0% | 125.6hPa | 2.6V | 08:22:56 | 02:03:49 | 00:00:00 | |
| DM0DOS-11 | 2026-09-02 12:50:18 | 56.37423 | 4.93634 | 102° | 66km/h | 14982m | -18.9m/s | -48.7°C | 3.1% | 124.9hPa | 2.5V | 08:22:24 | 02:03:47 | 00:00:00 | |
| DJ2DS-15 | 2026-09-02 12:50:17 | 56.37420 | 4.93664 | 100° | 66km/h | 14964m | -18.0m/s | -48.7°C | 1.0% | 125.2hPa | 2.6V | 00:00:00 | 00:00:00 | 00:00:00 | |
| DM0DOS-11 | 2026-09-02 12:50:10 | 56.37452 | 4.93363 | 94° | 55km/h | 15158m | -18.1m/s | -49.4°C | 3.2% | 121.6hPa | 2.6V | 08:22:34 | 02:03:37 | 00:00:00 | |
| DL1XH-west | 2026-09-02 12:50:08 | 56.37448 | 4.93414 | 97° | 58km/h | 15123m | -18m/s | -49.4°C | 0% | 122.2hPa | 2.5V | 08:22:56 | 02:03:39 | 00:00:00 | |
| DJ2DS-15 | 2026-09-02 12:50:04 | 56.37452 | 4.93313 | 91° | 60km/h | 15194m | -18.1m/s | -49.6°C | 3.3% | 120.9hPa | 2.5V | 00:00:00 | 02:03:35 | 00:00:00 | |
| DM0DOS-11 | 2026-09-02 12:49:59 | 56.37444 | 4.93108 | 84° | 58km/h | 15337m | -18.5m/s | -49.9°C | 3.3% | 118.3hPa | 2.5V | 08:22:44 | 02:03:27 | 00:00:00 | |
| DL1XH-west | 2026-09-02 12:49:58 | 56.37445 | 4.93135 | 85° | 58km/h | 15319m | -18m/s | -50°C | 0% | 118.7hPa | 2.5V | 08:22:56 | 02:03:28 | 00:00:00 | |
| DM0DOS-11 | 2026-09-02 12:49:48 | 56.37440 | 4.92820 | 90° | 71km/h | 15530m | -18.6m/s | -50°C | 3.3% | 114.9hPa | 2.5V | 08:22:54 | 02:03:17 | 00:00:00 | |
| DL1XH-west | 2026-09-02 12:49:47 | 56.37440 | 4.92788 | 90° | 71km/h | 15549m | -20.7m/s | -50.1°C | 0.1% | 114.5hPa | 2.5V | 08:22:56 | 02:03:16 | 00:00:00 | |
| DL1XH-west | 2026-09-02 12:49:37 | 56.37445 | 4.92528 | 94° | 69km/h | 15705m | -17.8m/s | -51°C | 0.2% | 111.8hPa | 2.6V | 08:23:47 | 02:03:08 | 00:00:00 | |
| DL1XH-west | 2026-09-02 12:49:27 | 56.37471 | 4.92175 | 102° | 62km/h | 15931m | -21.9m/s | -50.4°C | 0.2% | 108hPa | 2.5V | 08:23:47 | 02:02:56 | 00:00:00 | |
| DL1XH-west | 2026-09-02 12:49:16 | 56.37505 | 4.91938 | 106° | 57km/h | 16115m | -20.2m/s | -50.4°C | 0.2% | 105hPa | 2.6V | 08:23:47 | 02:02:47 | 00:00:00 | |
| DL1XH-west | 2026-09-02 12:49:06 | 56.37537 | 4.91719 | 101° | 44km/h | 16311m | -21.3m/s | -50.5°C | 0.2% | 101.8hPa | 2.6V | 08:23:47 | 02:02:37 | 00:00:00 | |
| DL1XH-west | 2026-09-02 12:48:56 | 56.37559 | 4.91466 | 93° | 47km/h | 16555m | -20.8m/s | -49.8°C | 0.1% | 98.1hPa | 2.5V | 08:23:47 | 02:02:25 | 00:00:00 | |
| BIOWL1-15 | 2026-09-02 12:48:48 | 56.37566 | 4.91187 | 91° | 49km/h | 16791m | -18.3m/s | -49.4°C | 0% | 94.6hPa | 2.5V | 08:24:38 | 02:02:13 | 00:00:00 | |
| DL1XH-west | 2026-09-02 12:48:46 | 56.37565 | 4.91258 | 92° | 53km/h | 16736m | -19m/s | -49.8°C | 0% | 95.4hPa | 2.6V | 08:24:38 | 02:02:16 | 00:00:00 | |
| DL1XH-west | 2026-09-02 12:48:35 | 56.37573 | 4.91035 | 99° | 44km/h | 16921m | -20m/s | -49.1°C | 0% | 92.8hPa | 2.5V | 08:24:38 | 02:02:06 | 00:00:00 | |
| BIOWL1-15 | 2026-09-02 12:48:30 | 56.37591 | 4.90799 | 95° | 38km/h | 17182m | -18.7m/s | -49.6°C | 0% | 89.2hPa | 2.6V | 08:24:38 | 02:01:53 | 00:00:00 | |
| DL1XH-west | 2026-09-02 12:48:25 | 56.37590 | 4.90850 | 94° | 38km/h | 17126m | -19.9m/s | -49.6°C | 0% | 89.9hPa | 2.5V | 08:24:38 | 02:01:56 | 00:00:00 | |
| DJ2DS-15 | 2026-09-02 12:48:24 | 56.37590 | 4.90833 | 94° | 37km/h | 17145m | -18.5m/s | -49.6°C | 3.2% | 89.6hPa | 2.5V | 00:00:00 | 02:01:55 | 00:00:00 | |
| BIOWL1-15 | 2026-09-02 12:48:17 | 56.37608 | 4.90493 | 103° | 40km/h | 17531m | -19.4m/s | -50.4°C | 0.1% | 84.5hPa | 2.5V | 08:24:38 | 02:01:35 | 00:00:00 | |
| DL1XH-west | 2026-09-02 12:48:14 | 56.37596 | 4.90667 | 93° | 37km/h | 17335m | -20.4m/s | -49.9°C | 0% | 87hPa | 2.5V | 08:24:38 | 02:01:45 | 00:00:00 | |
| BIOWL9-15 | 2026-09-02 12:48:11 | 56.37597 | 4.90616 | 91° | 37km/h | 17394m | -19.4m/s | -50.2°C | 0.9% | 86.3hPa | 2.6V | 00:00:00 | 00:00:00 | 00:00:00 | |
| DM0DOS-11 | 2026-09-02 12:48:07 | 56.37613 | 4.90458 | 106° | 40km/h | 17568m | -19.7m/s | -50.6°C | 3.5% | 84hPa | 2.6V | 08:24:38 | 02:01:33 | 00:00:00 | |
| DL1XH-west | 2026-09-02 12:48:03 | 56.37610 | 4.90475 | 105° | 38km/h | 17549m | -18.8m/s | -50.5°C | 0.2% | 84.2hPa | 2.6V | 08:24:38 | 02:01:34 | 00:00:00 | |
| BIOWL1-15 | 2026-09-02 12:47:59 | 56.37625 | 4.90350 | 89° | 31km/h | 17704m | -20.6m/s | -51.1°C | 0.2% | 82.3hPa | 2.6V | 08:25:29 | 02:01:26 | 00:00:00 | |
| DL1XH-west | 2026-09-02 12:47:53 | 56.37624 | 4.90293 | 80° | 33km/h | 17783m | -18.8m/s | -51.3°C | 0.3% | 81.3hPa | 2.6V | 08:25:29 | 02:01:22 | 00:00:00 | |
| DM0DOS-11 | 2026-09-02 12:47:52 | 56.37617 | 4.90232 | 80° | 35km/h | 17859m | -21.3m/s | -51.2°C | 3.7% | 80.3hPa | 2.6V | 08:24:53 | 02:01:18 | 00:00:00 | |
| BIOWL1-15 | 2026-09-02 12:47:45 | 56.37619 | 4.90059 | 99° | 42km/h | 18052m | -21m/s | -50.8°C | 0.3% | 78hPa | 2.5V | 08:25:29 | 02:01:08 | 00:00:00 | |
| DJ2DS-15 | 2026-09-02 12:47:44 | 56.37614 | 4.90184 | 86° | 40km/h | 17921m | -19.6m/s | -50.8°C | 3.6% | 79.5hPa | 2.5V | 08:24:00 | 02:01:15 | 00:00:00 | |
| DM0DOS-11 | 2026-09-02 12:47:41 | 56.37622 | 4.90022 | 98° | 42km/h | 18095m | -22.8m/s | -50.9°C | 3.7% | 77.5hPa | 2.6V | 08:25:05 | 02:01:06 | 00:00:00 | |
| DL1XH-west | 2026-09-02 12:47:41 | 56.37615 | 4.90097 | 98° | 40km/h | 18014m | -18.9m/s | -50.7°C | 0.3% | 78.4hPa | 2.5V | 08:25:29 | 02:01:10 | 00:00:00 | |
| BIOWL9-15 | 2026-09-02 12:47:40 | 56.37615 | 4.90115 | 91° | 40km/h | 17996m | -17.6m/s | -50.7°C | 1.0% | 78.6hPa | 2.5V | 00:00:00 | 00:00:00 | 00:00:00 | |
| DM0DOS-11 | 2026-09-02 12:47:30 | 56.37635 | 4.89857 | 94° | 42km/h | 18282m | -21.5m/s | -50.2°C | 3.5% | 75.2hPa | 2.5V | 08:25:14 | 02:00:57 | 00:00:00 | |
| DL1XH-west | 2026-09-02 12:47:29 | 56.37633 | 4.89893 | 96° | 38km/h | 18238m | -22.1m/s | -50.5°C | 0.2% | 75.8hPa | 2.6V | 08:25:29 | 02:00:59 | 00:00:00 | |
| BIOWL1-15 | 2026-09-02 12:47:26 | 56.37636 | 4.89821 | 92° | 40km/h | 18326m | -22.8m/s | -50.4°C | 0.2% | 74.7hPa | 2.5V | 08:25:29 | 02:00:55 | 00:00:00 | |
| DJ2DS-15 | 2026-09-02 12:47:24 | 56.37636 | 4.89821 | 92° | 42km/h | 18326m | -22.7m/s | -50.3°C | 3.6% | 74.7hPa | 2.5V | 00:00:00 | 02:00:55 | 00:00:00 | |
| DM0DOS-11 | 2026-09-02 12:47:19 | 56.37630 | 4.89686 | 72° | 35km/h | 18489m | -18.4m/s | -48.6°C | 3.2% | 72.9hPa | 2.5V | 08:25:24 | 02:00:47 | 00:00:00 | |
| DL1XH-west | 2026-09-02 12:47:18 | 56.37634 | 4.89718 | 82° | 35km/h | 18449m | -22.5m/s | -49.2°C | 0.2% | 73.4hPa | 2.6V | 08:25:29 | 02:00:49 | 00:00:00 | |
| BIOWL1-15 | 2026-09-02 12:47:15 | 56.37627 | 4.89670 | 68° | 38km/h | 18508m | -18.1m/s | -48.7°C | 0% | 72.7hPa | 2.5V | 08:25:29 | 02:00:46 | 00:00:00 | |
| DL1XH-west | 2026-09-02 12:47:08 | 56.37595 | 4.89526 | 68° | 51km/h | 18667m | -21.1m/s | -49.4°C | 0.1% | 70.9hPa | 2.6V | 08:26:20 | 02:00:38 | 00:00:00 | |
| BIOWL1-15 | 2026-09-02 12:47:05 | 56.37577 | 4.89414 | 79° | 51km/h | 18774m | -21m/s | -49.3°C | 0% | 69.8hPa | 2.6V | 08:26:20 | 02:00:33 | 00:00:00 | |
| DL1XH-west | 2026-09-02 12:46:58 | 56.37572 | 4.89322 | 87° | 51km/h | 18858m | -20.8m/s | -49.6°C | 0.1% | 68.9hPa | 2.6V | 08:26:20 | 02:00:29 | 00:00:00 | |
| BIOWL1-15 | 2026-09-02 12:46:53 | 56.37577 | 4.89205 | 100° | 53km/h | 18964m | -21.6m/s | -49.5°C | 0.1% | 67.8hPa | 2.6V | 08:26:20 | 02:00:24 | 00:00:00 | |
| DM0DOS-11 | 2026-09-02 12:46:49 | 56.37611 | 4.89015 | 115° | 44km/h | 19148m | -20.5m/s | -50.1°C | 3.5% | 65.9hPa | 2.6V | 08:25:56 | 02:00:15 | 00:00:00 | |
| DL1XH-west | 2026-09-02 12:46:48 | 56.37593 | 4.89093 | 109° | 49km/h | 19065m | -20.2m/s | -49.9°C | 0.2% | 66.7hPa | 2.6V | 08:26:20 | 02:00:19 | 00:00:00 | |
| BIOWL1-15 | 2026-09-02 12:46:44 | 56.37620 | 4.88980 | 113° | 38km/h | 19191m | -21.6m/s | -50.2°C | 0.3% | 65.5hPa | 2.6V | 08:26:20 | 02:00:13 | 00:00:00 | |
| DL1XH-west | 2026-09-02 12:46:38 | 56.37636 | 4.88881 | 98° | 38km/h | 19312m | -20.1m/s | -50.3°C | 0.3% | 64.2hPa | 2.6V | 08:26:20 | 02:00:07 | 00:00:00 | |
| BIOWL1-15 | 2026-09-02 12:46:30 | 56.37649 | 4.88769 | 104° | 31km/h | 19453m | -22.7m/s | -49.8°C | 0.3% | 62.9hPa | 2.6V | 08:26:20 | 02:00:00 | 00:00:00 | |
| DL1XH-west | 2026-09-02 12:46:28 | 56.37653 | 4.88743 | 99° | 27km/h | 19496m | -21.2m/s | -48.9°C | 0.1% | 62.4hPa | 2.6V | 08:26:20 | 01:59:58 | 00:00:00 | |
| BIOWL1-15 | 2026-09-02 12:46:18 | 56.37639 | 4.88649 | 59° | 26km/h | 19696m | -21.5m/s | -48.9°C | 0% | 60.6hPa | 2.6V | 08:27:11 | 01:59:49 | 00:00:00 | |
| DL1XH-west | 2026-09-02 12:46:17 | 56.37636 | 4.88639 | 55° | 26km/h | 19718m | -21.5m/s | -49°C | 0% | 60.4hPa | 2.6V | 08:27:11 | 01:59:48 | 00:00:00 | |
| GOEST3-10 | 2026-09-02 12:46:16 | 56.37633 | 4.88628 | 64° | 27km/h | 19740m | -23.4m/s | -49.0°C | 3.2% | 60.1hPa | 2.6V | 00:00:00 | 01:59:47 | 00:00:00 | |
| DM0DOS-11 | 2026-09-02 12:46:11 | 56.37619 | 4.88485 | 89° | 33km/h | 19977m | -22.8m/s | -49.4°C | 3.3% | 58hPa | 2.5V | 08:26:35 | 01:59:36 | 00:00:00 | |
| BIOWL1-15 | 2026-09-02 12:46:08 | 56.37620 | 4.88397 | 91° | 33km/h | 20107m | -21.3m/s | -49.2°C | 0% | 56.9hPa | 2.5V | 08:27:11 | 01:59:30 | 00:00:00 | |
| DL1XH-west | 2026-09-02 12:46:07 | 56.37619 | 4.88442 | 90° | 31km/h | 20044m | -21.9m/s | -49°C | 0% | 57.4hPa | 2.6V | 08:27:11 | 01:59:33 | 00:00:00 | |
| GOEST3-10 | 2026-09-02 12:46:06 | 56.37619 | 4.88500 | 87° | 33km/h | 19955m | -21.7m/s | -49.5°C | 3.3% | 58.2hPa | 2.6V | 00:00:00 | 01:59:37 | 00:00:00 | |
| DJ2DS-15 | 2026-09-02 12:46:04 | 56.37619 | 4.88471 | 90° | 29km/h | 20000m | -23.4m/s | -49.2°C | 3.3% | 57.8hPa | 2.6V | 00:00:00 | 01:59:35 | 00:00:00 | |
| GOEST3-10 | 2026-09-02 12:46:01 | 56.37619 | 4.88427 | 92° | 33km/h | 20065m | -21.2m/s | -48.9°C | 3.2% | 57.2hPa | 2.6V | 00:00:00 | 00:00:00 | 00:00:00 | |
| DM0DOS-11 | 2026-09-02 12:45:57 | 56.37621 | 4.88338 | 94° | 31km/h | 20200m | -23.7m/s | -49.5°C | 3.2% | 56hPa | 2.6V | 08:26:45 | 01:59:26 | 00:00:00 | |
| DL1XH-west | 2026-09-02 12:45:55 | 56.37621 | 4.88338 | 94° | 31km/h | 20201m | -23.7m/s | -49.5°C | 0% | 56hPa | 2.6V | 08:27:11 | 01:59:26 | 00:00:00 | |
| GOEST3-10 | 2026-09-02 12:45:52 | 56.37622 | 4.88285 | 91° | 26km/h | 20289m | -21.2m/s | -49.7°C | 3.4% | 55.2hPa | 2.6V | 00:00:00 | 00:00:00 | 00:00:00 | |
| DM0DOS-11 | 2026-09-02 12:45:51 | 56.37620 | 4.88209 | 78° | 20km/h | 20434m | -20.7m/s | -49.6°C | 3.4% | 54.1hPa | 2.6V | 08:26:56 | 01:59:15 | 00:00:00 | |
| BIOWL1-15 | 2026-09-02 12:45:49 | 56.37623 | 4.88250 | 88° | 24km/h | 20353m | -22.5m/s | -49.6°C | 0.2% | 54.8hPa | 2.5V | 08:27:11 | 01:59:19 | 00:00:00 | |
| DL1XH-west | 2026-09-02 12:45:45 | 56.37621 | 4.88219 | 81° | 22km/h | 20414m | -19.4m/s | -49.7°C | 0.1% | 54.2hPa | 2.6V | 08:27:11 | 01:59:16 | 00:00:00 | |
| DJ2DS-15 | 2026-09-02 12:45:44 | 56.37620 | 4.88209 | 79° | 29km/h | 20434m | -20.7m/s | -49.6°C | 3.4% | 54.0hPa | 2.6V | 00:00:00 | 01:59:15 | 00:00:00 | |
| GOEST3-10 | 2026-09-02 12:45:41 | 56.37615 | 4.88182 | 63° | 22km/h | 20496m | -21.2m/s | -49.8°C | 3.4% | 53.5hPa | 2.6V | 00:00:00 | 00:00:00 | 00:00:00 | |
| DM0DOS-11 | 2026-09-02 12:45:39 | 56.37597 | 4.88113 | 62° | 31km/h | 20645m | -21m/s | -50.1°C | 3.5% | 52.4hPa | 2.6V | 08:27:06 | 01:59:05 | 00:00:00 | |
| BIOWL1-15 | 2026-09-02 12:45:38 | 56.37605 | 4.88147 | 60° | 26km/h | 20579m | -22m/s | -50.2°C | 0.2% | 52.9hPa | 2.5V | 08:27:11 | 01:59:08 | 00:00:00 | |
| DL1XH-west | 2026-09-02 12:45:35 | 56.37600 | 4.88125 | 68° | 27km/h | 20623m | -22m/s | -50.2°C | 0.2% | 52.6hPa | 2.6V | 08:27:11 | 01:59:06 | 00:00:00 | |
| GOEST3-10 | 2026-09-02 12:45:31 | 56.37590 | 4.88071 | 77° | 35km/h | 20712m | -22.8m/s | -49.9°C | 3.4% | 51.8hPa | 2.5V | 00:00:00 | 00:00:00 | 00:00:00 | |
| BIOWL1-15 | 2026-09-02 12:45:28 | 56.37607 | 4.87856 | 28° | 13km/h | 21232m | -23.8m/s | -49.6°C | 0.1% | 47.8hPa | 2.6V | 08:28:02 | 01:58:39 | 00:00:00 | |
| DL1XH-west | 2026-09-02 12:45:25 | 56.37590 | 4.87962 | 105° | 33km/h | 20868m | -24m/s | -49.6°C | 0.1% | 50.6hPa | 2.6V | 08:28:02 | 01:58:55 | 00:00:00 | |
| DM0DOS-11 | 2026-09-02 12:45:24 | 56.37592 | 4.87948 | 103° | 33km/h | 20891m | -22.7m/s | -49.7°C | 3.3% | 50.4hPa | 2.6V | 08:30:00 | 01:58:54 | 00:00:00 | |
| DJ2DS-15 | 2026-09-02 12:45:24 | 56.37590 | 4.87962 | 106° | 16km/h | 20868m | -23.9m/s | -49.6°C | 3.3% | 50.6hPa | 2.6V | 00:00:00 | 01:58:55 | 00:00:00 | |
| GOEST3-10 | 2026-09-02 12:45:21 | 56.37597 | 4.87921 | 111° | 24km/h | 20935m | -22.5m/s | -49.8°C | 3.4% | 50.0hPa | 2.6V | 00:00:00 | 00:00:00 | 00:00:00 | |
| DM0DOS-11 | 2026-09-02 12:45:19 | 56.37613 | 4.87866 | 100° | 5km/h | 21116m | -22.1m/s | -49.7°C | 3.3% | 48.7hPa | 2.6V | 08:30:00 | 01:58:44 | 00:00:00 | |
| BIOWL1-15 | 2026-09-02 12:45:16 | 56.37601 | 4.87849 | 30° | 15km/h | 21279m | -22.8m/s | -49.8°C | 0.1% | 47.5hPa | 2.6V | 08:28:02 | 01:58:37 | 00:00:00 | |
| DL1XH-west | 2026-09-02 12:45:14 | 56.37613 | 4.87869 | 114° | 9km/h | 21095m | -22m/s | -49.6°C | 0.1% | 48.9hPa | 2.5V | 08:28:02 | 01:58:45 | 00:00:00 | |
| GOEST3-10 | 2026-09-02 12:45:11 | 56.37612 | 4.87861 | 36° | 11km/h | 21163m | -22.9m/s | -49.6°C | 3.3% | 48.3hPa | 2.5V | 00:00:00 | 00:00:00 | 00:00:00 | |
| DM0DOS-11 | 2026-09-02 12:45:07 | 56.37590 | 4.87834 | 38° | 22km/h | 21349m | -23.6m/s | -50.2°C | 3.4% | 47hPa | 2.5V | 08:30:00 | 01:58:34 | 00:00:00 | |
| BIOWL1-15 | 2026-09-02 12:45:06 | 56.37586 | 4.87828 | 46° | 24km/h | 21373m | -23.8m/s | -50.3°C | 0.2% | 46.8hPa | 2.6V | 08:28:02 | 01:58:33 | 00:00:00 | |
| DL1XH-west | 2026-09-02 12:45:04 | 56.37582 | 4.87820 | 43° | 24km/h | 21397m | -24.1m/s | -50.4°C | 0.3% | 46.6hPa | 2.6V | 08:28:02 | 01:58:32 | 00:00:00 | |
| GOEST3-10 | 2026-09-02 12:45:01 | 56.37582 | 4.87820 | 43° | 24km/h | 21398m | -24.0m/s | -50.4°C | 3.5% | 46.6hPa | 2.6V | 08:27:00 | 00:00:00 | 00:00:00 | |
| GOEST3-10 | 2026-09-02 12:44:56 | 56.37566 | 4.87774 | 65° | 22km/h | 21516m | -23.6m/s | -50.5°C | 3.5% | 45.8hPa | 2.5V | 00:00:00 | 01:58:27 | 00:00:00 | |
| DM0DOS-11 | 2026-09-02 12:44:55 | 56.37559 | 4.87738 | 73° | 20km/h | 21607m | -23.7m/s | -50.2°C | 3.5% | 45.1hPa | 2.5V | 08:30:00 | 01:58:23 | 00:00:00 | |
| BIOWL1-15 | 2026-09-02 12:44:55 | 56.37560 | 4.87746 | 70° | 22km/h | 21583m | -22.8m/s | -50.5°C | 0.3% | 45.3hPa | 2.5V | 08:28:02 | 01:58:24 | 00:00:00 | |
| DL1XH-west | 2026-09-02 12:44:52 | 56.37556 | 4.87723 | 71° | 16km/h | 21652m | -23.1m/s | -50°C | 0.1% | 44.8hPa | 2.6V | 08:28:02 | 01:58:21 | 00:00:00 | |
| BIOWL1-15 | 2026-09-02 12:44:46 | 56.37537 | 4.87679 | 42° | 27km/h | 21799m | -26.3m/s | -50°C | 0.2% | 43.8hPa | 2.6V | 08:28:02 | 01:58:15 | 00:00:00 | |
| DL1XH-west | 2026-09-02 12:44:40 | 56.37513 | 4.87641 | 41° | 35km/h | 21898m | -23.7m/s | -50.4°C | 0.2% | 43.2hPa | 2.6V | 08:28:02 | 01:58:11 | 00:00:00 | |
| GOEST3-10 | 2026-09-02 12:44:36 | 56.37489 | 4.87592 | 57° | 37km/h | 21994m | -26.9m/s | -50.4°C | 3.5% | 42.5hPa | 2.5V | 00:00:00 | 01:58:07 | 00:00:00 | |
| DM0DOS-11 | 2026-09-02 12:44:35 | 56.37471 | 4.87496 | 76° | 37km/h | 22150m | -22.7m/s | -50.5°C | 3.6% | 41.5hPa | 2.5V | 08:30:00 | 01:58:01 | 00:00:00 | |
| BIOWL1-15 | 2026-09-02 12:44:33 | 56.37478 | 4.87546 | 72° | 37km/h | 22075m | -26.2m/s | -50.6°C | 0.2% | 42hPa | 2.6V | 08:28:53 | 01:58:04 | 00:00:00 | |
| DL1XH-west | 2026-09-02 12:44:30 | 56.37469 | 4.87407 | 93° | 26km/h | 22296m | -23.1m/s | -50.1°C | 0.2% | 40.6hPa | 2.5V | 08:28:53 | 01:57:55 | 00:00:00 | |
| GOEST3-10 | 2026-09-02 12:44:26 | 56.37468 | 4.87432 | 90° | 24km/h | 22247m | -25.3m/s | -50.2°C | 3.4% | 40.8hPa | 2.6V | 00:00:00 | 01:57:57 | 00:00:00 | |
| DJ2DS-15 | 2026-09-02 12:44:24 | 56.37469 | 4.87406 | 94° | 18km/h | 22296m | -23.0m/s | -50.0°C | 3.5% | 40.5hPa | 2.6V | 00:00:00 | 01:57:55 | 00:00:00 | |
| GOEST3-10 | 2026-09-02 12:44:21 | 56.37470 | 4.87379 | 89° | 11km/h | 22365m | -25.0m/s | -50.0°C | 3.4% | 40.1hPa | 2.6V | 00:00:00 | 00:00:00 | 00:00:00 | |
| DM0DOS-11 | 2026-09-02 12:44:18 | 56.37462 | 4.87354 | 29° | 13km/h | 22506m | -25.6m/s | -50°C | 3.4% | 39.3hPa | 2.6V | 08:30:00 | 01:57:46 | 00:00:00 | |
| DL1XH-west | 2026-09-02 12:44:14 | 56.37456 | 4.87347 | 35° | 16km/h | 22554m | -23.4m/s | -49.9°C | 0.2% | 39hPa | 2.5V | 08:28:53 | 01:57:44 | 00:00:00 | |
| BIOWL1-15 | 2026-09-02 12:44:04 | 56.37426 | 4.87274 | 66° | 27km/h | 22758m | -25.3m/s | -50.5°C | 0.3% | 37.8hPa | 2.6V | 08:28:53 | 01:57:35 | 00:00:00 | |
| DL1XH-west | 2026-09-02 12:44:03 | 56.37419 | 4.87238 | 79° | 27km/h | 22830m | -24.8m/s | -50.4°C | 0.3% | 37.4hPa | 2.5V | 08:28:53 | 01:57:32 | 00:00:00 | |
| BIOWL1-15 | 2026-09-02 12:43:54 | 56.37418 | 4.87131 | 79° | 22km/h | 23084m | -23.6m/s | -50.1°C | 0.2% | 35.9hPa | 2.6V | 08:28:53 | 01:57:22 | 00:00:00 | |
| DL1XH-west | 2026-09-02 12:43:53 | 56.37418 | 4.87140 | 84° | 22km/h | 23060m | -24.9m/s | -50.2°C | 0.3% | 36hPa | 2.6V | 08:28:53 | 01:57:23 | 00:00:00 | |
| DL1XH-west | 2026-09-02 12:43:42 | 56.37408 | 4.87056 | 92° | 20km/h | 23313m | -29.3m/s | -49.9°C | 0.1% | 34.7hPa | 2.6V | 08:29:44 | 01:57:13 | 00:00:00 | |
| BIOWL1-15 | 2026-09-02 12:43:40 | 56.37408 | 4.87038 | 85° | 20km/h | 23372m | -31.2m/s | -50°C | 0.2% | 34.4hPa | 2.6V | 08:29:44 | 01:57:11 | 00:00:00 | |
| DL1XH-west | 2026-09-02 12:43:31 | 56.37397 | 4.86966 | 65° | 22km/h | 23635m | -24.8m/s | -50.2°C | 0.3% | 33hPa | 2.5V | 08:29:44 | 01:57:02 | 00:00:00 | |
| BIOWL1-15 | 2026-09-02 12:43:30 | 56.37387 | 4.86915 | 77° | 27km/h | 23767m | -31.4m/s | -49.7°C | 0.2% | 32.3hPa | 2.5V | 08:29:44 | 01:56:57 | 00:00:00 | |
| GOEST3-10 | 2026-09-02 12:43:30 | 56.37394 | 4.86957 | 65° | 26km/h | 23658m | -21.4m/s | -50.1°C | 3.6% | 32.8hPa | 2.6V | 08:29:00 | 00:00:00 | 00:00:00 | |
| DM0DOS-11 | 2026-09-02 12:43:26 | 56.37383 | 4.86856 | 90° | 24km/h | 23913m | -28.1m/s | -49.3°C | 3.4% | 31.6hPa | 2.6V | 08:30:00 | 01:56:52 | 00:00:00 | |
| DL1XH-west | 2026-09-02 12:43:20 | 56.37383 | 4.86845 | 91° | 24km/h | 23940m | -26.5m/s | -49.2°C | 0.1% | 31.5hPa | 2.5V | 08:29:44 | 01:56:51 | 00:00:00 | |
| BIOWL1-15 | 2026-09-02 12:43:19 | 56.37391 | 4.86784 | 114° | 24km/h | 24098m | -27.1m/s | -49.2°C | 0.1% | 30.7hPa | 2.5V | 08:29:44 | 01:56:45 | 00:00:00 | |
| DL1XH-west | 2026-09-02 12:43:10 | 56.37403 | 4.86737 | 113° | 22km/h | 24228m | -27.7m/s | -49.2°C | 0.1% | 30.1hPa | 2.5V | 08:29:44 | 01:56:40 | 00:00:00 | |
| BIOWL1-15 | 2026-09-02 12:43:00 | 56.37420 | 4.86662 | 124° | 16km/h | 24451m | -22.1m/s | -49.3°C | 0.1% | 29.1hPa | 2.5V | 08:29:44 | 01:56:31 | 00:00:00 | |
| DL1XH-west | 2026-09-02 12:42:59 | 56.37423 | 4.86657 | 136° | 15km/h | 24472m | -21.4m/s | -49.2°C | 0% | 29hPa | 2.6V | 08:29:44 | 01:56:30 | 00:00:00 | |
| BIOWL1-15 | 2026-09-02 12:42:50 | 56.37463 | 4.86660 | 219° | 7km/h | 24770m | -24.3m/s | -49.7°C | 0% | 27.6hPa | 2.6V | 18:12:15 | 01:56:17 | 00:00:00 | |
| DL1XH-west | 2026-09-02 12:42:49 | 56.37456 | 4.86653 | 204° | 11km/h | 24702m | -22.8m/s | -49.5°C | 0.1% | 27.9hPa | 2.5V | 18:12:15 | 01:56:20 | 00:00:00 | |
| BIOWL1-15 | 2026-09-02 12:42:39 | 56.37463 | 4.86681 | 317° | 7km/h | 24964m | -29.1m/s | -50.2°C | 0.2% | 26.8hPa | 2.6V | 18:12:15 | 01:56:10 | 00:00:00 | |
| DL1XH-west | 2026-09-02 12:42:39 | 56.37460 | 4.86686 | 329° | 7km/h | 25019m | -26m/s | -50.5°C | 0.3% | 26.6hPa | 2.5V | 18:12:15 | 01:56:08 | 00:00:00 | |
| DM0DOS-11 | 2026-09-02 12:42:38 | 56.37454 | 4.86685 | 39° | 7km/h | 25119m | -24.8m/s | -50.7°C | 3.6% | 26.2hPa | 2.5V | 08:30:00 | 01:56:04 | 00:00:00 | |
| BIOWL1-15 | 2026-09-02 12:42:29 | 56.37430 | 4.86640 | 52° | 16km/h | 25368m | -24.9m/s | -50.6°C | 0.3% | 25.2hPa | 2.6V | 18:12:15 | 01:55:54 | 00:00:00 | |
| DL1XH-west | 2026-09-02 12:42:28 | 56.37435 | 4.86651 | 51° | 16km/h | 25317m | -25.1m/s | -50.5°C | 0.3% | 25.4hPa | 2.5V | 18:12:15 | 01:55:56 | 00:00:00 | |
| GOEST3-10 | 2026-09-02 12:42:26 | 56.37435 | 4.86651 | 51° | 16km/h | 25317m | -25.0m/s | -50.5°C | 3.6% | 25.3hPa | 2.5V | 00:00:00 | 01:55:56 | 00:00:00 | |
| DJ2DS-15 | 2026-09-02 12:42:24 | 56.37432 | 4.86645 | 53° | 18km/h | 25343m | -26.5m/s | -50.6°C | 3.7% | 25.3hPa | 2.5V | 00:00:00 | 01:55:55 | 00:00:00 | |
| GOEST3-10 | 2026-09-02 12:42:20 | 56.37423 | 4.86620 | 72° | 20km/h | 25433m | -19.3m/s | -50.3°C | 3.6% | 24.9hPa | 2.5V | 00:00:00 | 00:00:00 | 00:00:00 | |
| DM0DOS-11 | 2026-09-02 12:42:16 | 56.37425 | 4.86548 | 105° | 15km/h | 25582m | -25.8m/s | -49.9°C | 3.3% | 24.3hPa | 2.5V | 08:30:00 | 01:55:44 | 00:00:00 | |
| BIOWL1-15 | 2026-09-02 12:42:16 | 56.37427 | 4.86536 | 110° | 15km/h | 25618m | -9.4m/s | -49.9°C | 0.1% | 24.2hPa | 2.6V | 18:12:15 | 01:55:42 | 00:00:00 | |
| DL1XH-west | 2026-09-02 12:42:14 | 56.37429 | 4.86530 | 109° | 13km/h | 25623m | -0.1m/s | -49.9°C | 0.2% | 24.2hPa | 2.6V | 18:12:15 | 01:55:41 | 00:00:00 | |
| DL1XH-west | 2026-09-02 12:42:04 | 56.37436 | 4.86467 | 103° | 24km/h | 25585m | 3.8m/s | -49.9°C | 0.2% | 24.3hPa | 2.5V | 18:12:15 | 01:55:33 | 00:00:00 | |
| DM0DOS-11 | 2026-09-02 12:42:04 | 56.37434 | 4.86478 | 98° | 24km/h | 25589m | 5.2m/s | -49.9°C | 3.4% | 24.3hPa | 2.5V | 08:30:00 | 01:55:34 | 00:00:00 | |
| BIOWL1-15 | 2026-09-02 12:42:04 | 56.37434 | 4.86478 | 98° | 24km/h | 25589m | 5.2m/s | -49.9°C | 0.2% | 24.3hPa | 2.5V | 18:12:15 | 01:55:34 | 00:00:00 | |
| BIOWL9-15 | 2026-09-02 12:41:58 | 56.37439 | 4.86407 | 92° | 15km/h | 25547m | 4.5m/s | -50.3°C | 0.8% | 24.5hPa | 2.6V | 00:00:00 | 00:00:00 | 00:00:00 | |
| DM0DOS-11 | 2026-09-02 12:41:54 | 56.37432 | 4.86364 | 71° | 22km/h | 25521m | 4.4m/s | -50.2°C | 3.4% | 24.6hPa | 2.6V | 08:30:00 | 01:55:20 | 00:00:00 | |
| DL1XH-west | 2026-09-02 12:41:54 | 56.37439 | 4.86400 | 79° | 18km/h | 25541m | 5.8m/s | -50.2°C | 0.2% | 24.5hPa | 2.6V | 18:12:15 | 01:55:24 | 00:00:00 | |
| BIOWL1-15 | 2026-09-02 12:41:50 | 56.37423 | 4.86329 | 70° | 18km/h | 25502m | 4.8m/s | -50.3°C | 0.2% | 24.6hPa | 2.5V | 18:12:15 | 01:55:16 | 00:00:00 | |
| GOEST3-10 | 2026-09-02 12:41:49 | 56.37432 | 4.86364 | 72° | 20km/h | 25521m | 4.3m/s | -50.1°C | 3.4% | 24.5hPa | 2.5V | 00:00:00 | 00:00:00 | 00:00:00 | |
| DM0DOS-11 | 2026-09-02 12:41:44 | 56.37420 | 4.86291 | 59° | 18km/h | 25472m | 4.3m/s | -50.2°C | 3.5% | 24.8hPa | 2.5V | 08:30:00 | 01:55:10 | 00:00:00 | |
| DL1XH-west | 2026-09-02 12:41:42 | 56.37422 | 4.86298 | 66° | 15km/h | 25476m | 4.7m/s | -50.3°C | 0.3% | 24.8hPa | 2.6V | 18:12:15 | 01:55:11 | 00:00:00 | |
| BIOWL1-15 | 2026-09-02 12:41:39 | 56.37415 | 4.86274 | 66° | 24km/h | 25461m | 5.3m/s | -50.4°C | 0.2% | 24.8hPa | 2.5V | 18:12:15 | 01:55:08 | 00:00:00 | |
| GOEST3-10 | 2026-09-02 12:41:39 | 56.37420 | 4.86291 | 60° | 22km/h | 25472m | 4.3m/s | -50.1°C | 3.5% | 24.7hPa | 2.6V | 00:00:00 | 00:00:00 | 00:00:00 | |
| DM0DOS-11 | 2026-09-02 12:41:34 | 56.37396 | 4.86203 | 74° | 18km/h | 25421m | 4.8m/s | -50.4°C | 3.5% | 25hPa | 2.6V | 08:30:00 | 01:55:00 | 00:00:00 | |
| DL1XH-west | 2026-09-02 12:41:31 | 56.37398 | 4.86211 | 76° | 18km/h | 25426m | 4.4m/s | -50.3°C | 0.2% | 24.9hPa | 2.6V | 18:12:15 | 01:55:01 | 00:00:00 | |
| BIOWL1-15 | 2026-09-02 12:41:30 | 56.37395 | 4.86195 | 67° | 18km/h | 25416m | 5.6m/s | -50.5°C | 0.3% | 25hPa | 2.5V | 18:12:15 | 01:54:59 | 00:00:00 | |
| DL1XH-west | 2026-09-02 12:41:20 | 56.37371 | 4.86122 | 47° | 22km/h | 25372m | 5.2m/s | -50.6°C | 0.3% | 25.1hPa | 2.6V | 18:12:15 | 01:54:50 | 00:00:00 | |
| BIOWL1-15 | 2026-09-02 12:41:19 | 56.37364 | 4.86107 | 55° | 20km/h | 25361m | 4.5m/s | -50.5°C | 0.3% | 25.2hPa | 2.5V | 18:12:15 | 01:54:48 | 00:00:00 | |
| GOEST3-10 | 2026-09-02 12:41:19 | 56.37371 | 4.86122 | 47° | 18km/h | 25372m | 5.1m/s | -50.6°C | 3.6% | 25.1hPa | 2.5V | 00:00:00 | 00:00:00 | 00:00:00 | |
| DM0DOS-11 | 2026-09-02 12:41:18 | 56.37362 | 4.86101 | 53° | 18km/h | 25357m | 5.1m/s | -50.5°C | 3.5% | 25.2hPa | 2.5V | 08:30:00 | 01:54:47 | 00:00:00 | |
| DL1XH-west | 2026-09-02 12:41:10 | 56.37353 | 4.86075 | 65° | 7km/h | 25321m | 5.4m/s | -50.3°C | 0.3% | 25.3hPa | 2.5V | 18:12:15 | 01:54:40 | 00:00:00 | |
| BIOWL1-15 | 2026-09-02 12:41:07 | 56.37349 | 4.86067 | 44° | 16km/h | 25312m | 4.2m/s | -50.4°C | 0.2% | 25.4hPa | 2.6V | 18:12:15 | 01:54:38 | 00:00:00 | |
| DM0DOS-11 | 2026-09-02 12:41:06 | 56.37339 | 4.86042 | 58° | 16km/h | 25292m | 4.2m/s | -50.4°C | 3.5% | 25.4hPa | 2.5V | 08:30:00 | 01:54:34 | 00:00:00 | |
| DL1XH-west | 2026-09-02 12:40:59 | 56.37331 | 4.86020 | 86° | 5km/h | 25267m | 3.7m/s | -50.3°C | 0.2% | 25.6hPa | 2.5V | 18:12:15 | 01:54:29 | 00:00:00 | |
| BIOWL1-15 | 2026-09-02 12:40:58 | 56.37330 | 4.86016 | 37° | 5km/h | 25258m | 4.7m/s | -50.4°C | 0.2% | 25.6hPa | 2.6V | 18:12:15 | 01:54:27 | 00:00:00 | |
| DL1XH-west | 2026-09-02 12:40:48 | 56.37315 | 4.85969 | 48° | 11km/h | 25212m | 4m/s | -50.5°C | 0.4% | 25.8hPa | 2.5V | 18:12:15 | 01:54:17 | 00:00:00 | |
| DM0DOS-11 | 2026-09-02 12:40:48 | 56.37312 | 4.85957 | 70° | 11km/h | 25198m | 4m/s | -50.6°C | 3.6% | 25.8hPa | 2.6V | 08:30:00 | 01:54:14 | 00:00:00 | |
| BIOWL1-15 | 2026-09-02 12:40:46 | 56.37314 | 4.85966 | 55° | 9km/h | 25207m | 4.9m/s | -50.6°C | 0.3% | 25.8hPa | 2.5V | 18:12:15 | 01:54:16 | 00:00:00 | |
| DL1XH-west | 2026-09-02 12:40:37 | 56.37292 | 4.85933 | 12° | 15km/h | 25170m | 5.2m/s | -50.8°C | 0.2% | 26hPa | 2.6V | 18:12:15 | 01:54:08 | 00:00:00 | |
| DM0DOS-11 | 2026-09-02 12:40:36 | 56.37285 | 4.85928 | 43° | 7km/h | 25149m | 4.9m/s | -50.9°C | 3.6% | 26hPa | 2.6V | 08:30:00 | 01:54:04 | 00:00:00 | |
| BIOWL1-15 | 2026-09-02 12:40:34 | 56.37282 | 4.85919 | 69° | 5km/h | 25134m | 4.9m/s | -50.8°C | 0.4% | 26.1hPa | 2.5V | 18:12:15 | 01:54:01 | 00:00:00 | |
| DL1XH-west | 2026-09-02 12:40:27 | 56.37274 | 4.85917 | 346° | 16km/h | 25114m | 4.3m/s | -50.7°C | 0.3% | 26.2hPa | 2.6V | 18:12:15 | 01:53:57 | 00:00:00 | |
| DM0DOS-11 | 2026-09-02 12:40:25 | 56.37265 | 4.85927 | 309° | 11km/h | 25099m | 4.5m/s | -50.6°C | 3.7% | 26.2hPa | 2.5V | 08:30:00 | 01:53:54 | 00:00:00 | |
| BIOWL1-15 | 2026-09-02 12:40:23 | 56.37262 | 4.85933 | 320° | 7km/h | 25089m | 5.7m/s | -50.6°C | 0.3% | 26.3hPa | 2.5V | 18:12:15 | 01:53:52 | 00:00:00 | |
| DL1XH-west | 2026-09-02 12:40:16 | 56.37259 | 4.85938 | 296° | 5km/h | 25064m | 3.8m/s | -50.4°C | 0.3% | 26.4hPa | 2.5V | 18:12:15 | 01:53:47 | 00:00:00 | |
| DM0DOS-11 | 2026-09-02 12:40:15 | 56.37252 | 4.85946 | 335° | 15km/h | 25049m | 5m/s | -50.4°C | 3.5% | 26.4hPa | 2.6V | 08:30:00 | 01:53:44 | 00:00:00 | |
| BIOWL1-15 | 2026-09-02 12:40:11 | 56.37240 | 4.85983 | 271° | 7km/h | 24998m | 5.8m/s | -50.2°C | 0.2% | 26.7hPa | 2.6V | 18:12:15 | 01:53:34 | 00:00:00 | |
| DM0DOS-11 | 2026-09-02 12:40:08 | 56.37240 | 4.85983 | 270° | 7km/h | 24998m | 5.8m/s | -50.2°C | 3.5% | 26.7hPa | 2.6V | 08:30:00 | 01:53:34 | 00:00:00 | |
| DL1XH-west | 2026-09-02 12:40:06 | 56.37239 | 4.85975 | 251° | 9km/h | 25007m | 4.4m/s | -50.2°C | 0.2% | 26.6hPa | 2.5V | 18:12:15 | 01:53:36 | 00:00:00 | |
| BIOWL1-15 | 2026-09-02 12:39:59 | 56.37234 | 4.85998 | 319° | 11km/h | 24972m | 4.2m/s | -50.1°C | 0.1% | 26.8hPa | 2.6V | 18:12:15 | 01:53:29 | 00:00:00 | |
| DM0DOS-11 | 2026-09-02 12:39:58 | 56.37223 | 4.86023 | 262° | 13km/h | 24942m | 3.8m/s | -49.9°C | 3.5% | 26.9hPa | 2.5V | 08:30:00 | 01:53:23 | 00:00:00 | |
| DL1XH-west | 2026-09-02 12:39:55 | 56.37223 | 4.86023 | 262° | 13km/h | 24942m | 3.8m/s | -49.9°C | 0.2% | 26.9hPa | 2.5V | 18:12:15 | 01:53:23 | 00:00:00 | |
| BIOWL1-15 | 2026-09-02 12:39:49 | 56.37225 | 4.86038 | 261° | 9km/h | 24927m | 5m/s | -49.9°C | 0.2% | 27hPa | 2.6V | 18:12:15 | 01:53:20 | 00:00:00 | |
| DM0DOS-11 | 2026-09-02 12:39:47 | 56.37225 | 4.86054 | 304° | 4km/h | 24891m | 5.6m/s | -49.7°C | 3.4% | 27.1hPa | 2.5V | 08:30:00 | 01:53:13 | 00:00:00 | |
| DL1XH-west | 2026-09-02 12:39:44 | 56.37226 | 4.86053 | 334° | 4km/h | 24900m | 5.3m/s | -49.8°C | 0.2% | 27hPa | 2.6V | 18:12:15 | 01:53:15 | 00:00:00 | |
| BIOWL1-15 | 2026-09-02 12:39:39 | 56.37235 | 4.86087 | 237° | 5km/h | 24819m | 4.6m/s | -49.7°C | 0.1% | 27.4hPa | 2.6V | 18:12:15 | 01:52:59 | 00:00:00 | |
| GOEST3-10 | 2026-09-02 12:39:37 | 56.37225 | 4.86071 | 251° | 11km/h | 24864m | 5.3m/s | -49.7°C | 3.5% | 27.2hPa | 2.5V | 00:00:00 | 00:00:00 | 00:00:00 | |
| DM0DOS-11 | 2026-09-02 12:39:36 | 56.37233 | 4.86087 | 148° | 4km/h | 24838m | 4.5m/s | -49.8°C | 3.5% | 27.3hPa | 2.5V | 08:30:00 | 01:53:03 | 00:00:00 | |
| DL1XH-west | 2026-09-02 12:39:34 | 56.37231 | 4.86087 | 202° | 5km/h | 24843m | 5.4m/s | -49.7°C | 0.2% | 27.3hPa | 2.6V | 18:12:15 | 01:53:04 | 00:00:00 | |
| DL1XH-west | 2026-09-02 12:39:24 | 56.37248 | 4.86114 | 199° | 9km/h | 24769m | 5.2m/s | -49.5°C | 0.2% | 27.6hPa | 2.6V | 18:12:15 | 01:52:49 | 00:00:00 | |
| DJ2DS-15 | 2026-09-02 12:39:24 | 56.37238 | 4.86096 | 231° | 11km/h | 24799m | 5.6m/s | -49.6°C | 3.4% | 27.4hPa | 2.6V | 00:00:00 | 01:52:55 | 00:00:00 | |
| DM0DOS-11 | 2026-09-02 12:39:23 | 56.37241 | 4.86104 | 232° | 11km/h | 24788m | 4.6m/s | -49.5°C | 3.5% | 27.6hPa | 2.6V | 08:30:00 | 01:52:53 | 00:00:00 | |
| BIOWL1-15 | 2026-09-02 12:39:23 | 56.37257 | 4.86119 | 192° | 15km/h | 24754m | 4.6m/s | -49.3°C | 0.2% | 27.7hPa | 2.5V | 18:12:15 | 01:52:46 | 00:00:00 | |
| GOEST3-10 | 2026-09-02 12:39:22 | 56.37242 | 4.86104 | 233° | 9km/h | 24788m | 4.5m/s | -49.5°C | 3.5% | 27.5hPa | 2.6V | 00:00:00 | 01:52:53 | 00:00:00 | |
| DM0DOS-11 | 2026-09-02 12:39:17 | 56.37268 | 4.86122 | 198° | 15km/h | 24738m | 5.5m/s | -49.3°C | 3.4% | 27.7hPa | 2.6V | 08:30:00 | 01:52:43 | 00:00:00 | |
| BIOWL1-15 | 2026-09-02 12:39:10 | 56.37279 | 4.86137 | 218° | 11km/h | 24717m | 5.3m/s | -49.2°C | 0.2% | 27.9hPa | 2.5V | 18:12:15 | 01:52:39 | 00:00:00 | |
| DL1XH-west | 2026-09-02 12:39:09 | 56.37277 | 4.86133 | 221° | 15km/h | 24723m | 5.2m/s | -49.2°C | 0.2% | 27.8hPa | 2.5V | 18:12:15 | 01:52:40 | 00:00:00 | |
| GOEST3-10 | 2026-09-02 12:39:07 | 56.37281 | 4.86140 | 213° | 13km/h | 24713m | 4.6m/s | -49.3°C | 3.3% | 27.8hPa | 2.5V | 00:00:00 | 00:00:00 | 00:00:00 | |
| DM0DOS-11 | 2026-09-02 12:39:06 | 56.37296 | 4.86149 | 179° | 15km/h | 24686m | 5.2m/s | -49.1°C | 3.4% | 28hPa | 2.5V | 08:30:00 | 01:52:33 | 00:00:00 | |
| DL1XH-west | 2026-09-02 12:38:59 | 56.37320 | 4.86154 | 180° | 11km/h | 24650m | 4.6m/s | -49°C | 0.1% | 28.1hPa | 2.6V | 18:12:15 | 01:52:26 | 00:00:00 | |
| BIOWL1-15 | 2026-09-02 12:38:57 | 56.37365 | 4.86135 | 170° | 11km/h | 24577m | 4.5m/s | -48.7°C | 0.1% | 28.4hPa | 2.5V | 18:12:15 | 01:52:12 | 00:00:00 | |
| GOEST3-10 | 2026-09-02 12:38:57 | 56.37314 | 4.86153 | 189° | 11km/h | 24660m | 5.8m/s | -48.9°C | 3.3% | 28.0hPa | 2.5V | 00:00:00 | 00:00:00 | 08:30:00 | |
| DM0DOS-11 | 2026-09-02 12:38:55 | 56.37328 | 4.86156 | 185° | 13km/h | 24634m | 4.3m/s | -48.9°C | 3.3% | 28.2hPa | 2.5V | 08:30:00 | 01:52:23 | 00:00:00 | |
| DL1XH-west | 2026-09-02 12:38:48 | 56.37357 | 4.86142 | 143° | 15km/h | 24592m | 4.5m/s | -48.8°C | 0.1% | 28.4hPa | 2.6V | 18:12:15 | 01:52:15 | 00:00:00 | |
| DM0DOS-11 | 2026-09-02 12:38:47 | 56.37362 | 4.86136 | 161° | 11km/h | 24582m | 5.4m/s | -48.8°C | 3.3% | 28.4hPa | 2.6V | 08:30:00 | 01:52:13 | 00:00:00 | |
| DL1XH-west | 2026-09-02 12:38:37 | 56.37372 | 4.86128 | 134° | 9km/h | 24557m | 4.8m/s | -48.7°C | 0.1% | 28.6hPa | 2.6V | 18:12:15 | 01:52:08 | 00:00:00 | |
| DL1XH-west | 2026-09-02 12:38:27 | 56.37404 | 4.86078 | 146° | 9km/h | 24489m | 4.8m/s | -48.8°C | 0.1% | 28.9hPa | 2.5V | 18:12:15 | 01:51:55 | 00:00:00 | |
| DM0DOS-11 | 2026-09-02 12:38:26 | 56.37409 | 4.86069 | 126° | 20km/h | 24480m | 5.2m/s | -48.9°C | 3.3% | 28.9hPa | 2.6V | 08:30:00 | 01:51:53 | 00:00:00 | |
| BIOWL1-15 | 2026-09-02 12:38:26 | 56.37415 | 4.86051 | 117° | 26km/h | 24469m | 5.1m/s | -49°C | 0.1% | 28.9hPa | 2.6V | 18:12:15 | 01:51:51 | 00:00:00 | |
| DL1XH-west | 2026-09-02 12:38:17 | 56.37429 | 4.86008 | 122° | 24km/h | 24450m | 4.8m/s | -49.1°C | 0.1% | 29hPa | 2.6V | 18:12:15 | 01:51:47 | 00:00:00 | |
| DM0DOS-11 | 2026-09-02 12:38:16 | 56.37432 | 4.85981 | 85° | 9km/h | 24429m | 5.8m/s | -49.2°C | 3.3% | 29.1hPa | 2.5V | 08:30:00 | 01:51:43 | 00:00:00 | |
| BIOWL1-15 | 2026-09-02 12:38:15 | 56.37431 | 4.85999 | 111° | 20km/h | 24444m | 5.7m/s | -49.2°C | 0.1% | 29hPa | 2.6V | 18:12:15 | 01:51:46 | 00:00:00 | |
| GOEST3-10 | 2026-09-02 12:38:11 | 56.37432 | 4.85977 | 90° | 16km/h | 24424m | 4.2m/s | -49.2°C | 3.4% | 29.1hPa | 2.6V | 00:00:00 | 01:51:42 | 08:30:00 | |
| DM0DOS-11 | 2026-09-02 12:38:06 | 56.37441 | 4.85884 | 98° | 26km/h | 24379m | 4.2m/s | -49°C | 3.4% | 29.4hPa | 2.5V | 08:30:00 | 01:51:33 | 00:00:00 | |
| DL1XH-west | 2026-09-02 12:38:05 | 56.37436 | 4.85923 | 105° | 31km/h | 24393m | 4.6m/s | -49°C | 0.1% | 29.3hPa | 2.6V | 18:12:15 | 01:51:36 | 00:00:00 | |
| BIOWL1-15 | 2026-09-02 12:38:04 | 56.37438 | 4.85909 | 104° | 31km/h | 24388m | 5.2m/s | -49.1°C | 0.1% | 29.3hPa | 2.6V | 18:12:15 | 01:51:35 | 00:00:00 | |
| BIOWL1-15 | 2026-09-02 12:37:56 | 56.37453 | 4.85791 | 106° | 31km/h | 24323m | 5.8m/s | -48.9°C | 0.2% | 29.6hPa | 2.5V | 18:12:15 | 01:51:22 | 00:00:00 | |
| DL1XH-west | 2026-09-02 12:37:55 | 56.37449 | 4.85816 | 105° | 27km/h | 24334m | 5.4m/s | -49°C | 0.1% | 29.5hPa | 2.6V | 18:12:15 | 01:51:24 | 00:00:00 | |
| DM0DOS-11 | 2026-09-02 12:37:54 | 56.37451 | 4.85804 | 107° | 29km/h | 24329m | 5m/s | -49°C | 3.4% | 29.5hPa | 2.6V | 08:30:00 | 01:51:23 | 00:00:00 | |
| BIOWL9-15 | 2026-09-02 12:37:50 | 56.37455 | 4.85777 | 105° | 29km/h | 24318m | 4.5m/s | -49.0°C | 0.8% | 29.6hPa | 2.6V | 00:00:00 | 00:00:00 | 00:00:00 | |
| DM0DOS-11 | 2026-09-02 12:37:47 | 56.37473 | 4.85701 | 101° | 20km/h | 24277m | 5.7m/s | -48.9°C | 3.3% | 29.8hPa | 2.6V | 08:30:00 | 01:51:13 | 00:00:00 | |
| BIOWL1-15 | 2026-09-02 12:37:44 | 56.37471 | 4.85719 | 108° | 18km/h | 24287m | 5.2m/s | -49°C | 0.2% | 29.8hPa | 2.5V | 18:12:15 | 01:51:15 | 00:00:00 | |
| DL1XH-west | 2026-09-02 12:37:43 | 56.37473 | 4.85701 | 102° | 20km/h | 24277m | 5.7m/s | -48.9°C | 0.2% | 29.8hPa | 2.6V | 18:12:15 | 01:51:13 | 00:00:00 | |
| BIOWL1-15 | 2026-09-02 12:37:34 | 56.37494 | 4.85615 | 133° | 26km/h | 24236m | 3.9m/s | -48.9°C | 0.1% | 30hPa | 2.5V | 18:12:15 | 01:51:05 | 00:00:00 | |
| DM0DOS-11 | 2026-09-02 12:37:34 | 56.37501 | 4.85600 | 119° | 20km/h | 24226m | 5.5m/s | -48.9°C | 3.3% | 30hPa | 2.6V | 08:30:00 | 01:51:03 | 00:00:00 | |
| DL1XH-west | 2026-09-02 12:37:33 | 56.37501 | 4.85600 | 120° | 20km/h | 24226m | 5.5m/s | -48.9°C | 0.1% | 30hPa | 2.6V | 18:12:15 | 01:51:03 | 00:00:00 | |
| GOEST3-10 | 2026-09-02 12:37:31 | 56.37503 | 4.85592 | 107° | 20km/h | 24221m | 5.0m/s | -48.9°C | 3.3% | 30.0hPa | 2.5V | 00:00:00 | 01:51:02 | 00:00:00 | |
| DM0DOS-11 | 2026-09-02 12:37:26 | 56.37517 | 4.85498 | 117° | 29km/h | 24174m | 3.9m/s | -49.1°C | 3.4% | 30.3hPa | 2.5V | 08:30:00 | 01:50:53 | 00:00:00 | |
| BIOWL1-15 | 2026-09-02 12:37:23 | 56.37514 | 4.85510 | 112° | 31km/h | 24179m | 5.5m/s | -49.1°C | 0.2% | 30.2hPa | 2.5V | 18:12:15 | 01:50:54 | 00:00:00 | |
| DL1XH-west | 2026-09-02 12:37:22 | 56.37523 | 4.85475 | 113° | 26km/h | 24165m | 5.6m/s | -49.1°C | 0.1% | 30.3hPa | 2.6V | 18:12:15 | 01:50:51 | 00:00:00 | |
| GOEST3-10 | 2026-09-02 12:37:21 | 56.37520 | 4.85486 | 117° | 24km/h | 24170m | 4.5m/s | -49.0°C | 3.3% | 30.3hPa | 2.5V | 00:00:00 | 01:50:52 | 00:00:00 | |
| BIOWL9-15 | 2026-09-02 12:37:20 | 56.37525 | 4.85464 | 106° | 22km/h | 24159m | 4.8m/s | -49.1°C | 0.8% | 30.4hPa | 2.5V | 00:00:00 | 00:00:00 | 00:00:00 | |
| GOEST3-10 | 2026-09-02 12:37:16 | 56.37529 | 4.85437 | 102° | 20km/h | 24144m | 4.3m/s | -48.9°C | 3.3% | 30.4hPa | 2.5V | 00:00:00 | 00:00:00 | 00:00:00 | |
| DM0DOS-11 | 2026-09-02 12:37:13 | 56.37528 | 4.85403 | 81° | 20km/h | 24125m | 4.7m/s | -49°C | 3.3% | 30.5hPa | 2.5V | 08:30:00 | 01:50:43 | 00:00:00 | |
| BIOWL1-15 | 2026-09-02 12:37:13 | 56.37529 | 4.85412 | 78° | 20km/h | 24129m | 4m/s | -48.9°C | 0.2% | 30.5hPa | 2.5V | 18:12:15 | 01:50:44 | 00:00:00 | |
| DL1XH-west | 2026-09-02 12:37:12 | 56.37528 | 4.85403 | 81° | 20km/h | 24125m | 4.7m/s | -49°C | 0.1% | 30.5hPa | 2.5V | 18:12:15 | 01:50:43 | 00:00:00 | |
| GOEST3-10 | 2026-09-02 12:37:11 | 56.37528 | 4.85394 | 89° | 18km/h | 24120m | 5.2m/s | -49.0°C | 3.4% | 30.5hPa | 2.5V | 00:00:00 | 01:50:42 | 00:00:00 | |
| DM0DOS-11 | 2026-09-02 12:37:06 | 56.37535 | 4.85311 | 96° | 24km/h | 24074m | 5.7m/s | -48.9°C | 3.3% | 30.8hPa | 2.5V | 08:30:00 | 01:50:33 | 00:00:00 | |
| BIOWL1-15 | 2026-09-02 12:37:05 | 56.37536 | 4.85311 | 96° | 24km/h | 24074m | 5.7m/s | -48.9°C | 0.1% | 30.8hPa | 2.5V | 18:12:15 | 01:50:33 | 00:00:00 | |
| DL1XH-west | 2026-09-02 12:37:02 | 56.37536 | 4.85300 | 91° | 26km/h | 24069m | 4.2m/s | -49°C | 0.1% | 30.8hPa | 2.5V | 18:12:15 | 01:50:32 | 00:00:00 | |
| GOEST3-10 | 2026-09-02 12:37:01 | 56.37536 | 4.85300 | 91° | 26km/h | 24069m | 4.2m/s | -48.9°C | 3.3% | 30.8hPa | 2.6V | 00:00:00 | 01:50:32 | 00:00:00 | |
| DM0DOS-11 | 2026-09-02 12:36:56 | 56.37547 | 4.85199 | 102° | 26km/h | 24025m | 5.1m/s | -49°C | 3.3% | 31hPa | 2.6V | 08:30:00 | 01:50:23 | 00:00:00 | |
| BIOWL1-15 | 2026-09-02 12:36:52 | 56.37555 | 4.85078 | 86° | 22km/h | 23970m | 5.7m/s | -49°C | 0.1% | 31.2hPa | 2.6V | 18:12:15 | 01:50:12 | 00:00:00 | |
| DL1XH-west | 2026-09-02 12:36:51 | 56.37549 | 4.85176 | 99° | 26km/h | 24015m | 5.6m/s | -49°C | 0.1% | 31hPa | 2.5V | 18:12:15 | 01:50:21 | 00:00:00 | |
| BIOWL9-15 | 2026-09-02 12:36:48 | 56.37551 | 4.85142 | 96° | 24km/h | 24000m | 5.7m/s | -49.0°C | 0.8% | 31.1hPa | 2.6V | 00:00:00 | 00:00:00 | 00:00:00 | |
| GOEST3-10 | 2026-09-02 12:36:46 | 56.37552 | 4.85131 | 103° | 24km/h | 23995m | 4.7m/s | -49.0°C | 3.3% | 31.1hPa | 2.6V | 00:00:00 | 00:00:00 | 00:00:00 | |
| DM0DOS-11 | 2026-09-02 12:36:45 | 56.37555 | 4.85088 | 87° | 22km/h | 23976m | 4.7m/s | -48.9°C | 3.2% | 31.2hPa | 2.6V | 08:30:00 | 01:50:13 | 00:00:00 | |
| DL1XH-west | 2026-09-02 12:36:41 | 56.37555 | 4.85058 | 90° | 22km/h | 23961m | 4.3m/s | -48.9°C | 0.1% | 31.3hPa | 2.5V | 18:12:15 | 01:50:10 | 00:00:00 | |
| BIOWL1-15 | 2026-09-02 12:36:32 | 56.37551 | 4.84967 | 83° | 27km/h | 23920m | 4.7m/s | -49.2°C | 0.1% | 31.5hPa | 2.6V | 18:12:15 | 01:50:02 | 00:00:00 | |
| DL1XH-west | 2026-09-02 12:36:30 | 56.37549 | 4.84942 | 85° | 27km/h | 23910m | 4.9m/s | -49.2°C | 0.2% | 31.5hPa | 2.5V | 18:12:15 | 01:50:00 | 00:00:00 | |
| DJ2DS-15 | 2026-09-02 12:36:27 | 56.37547 | 4.84919 | 77° | 24km/h | 23901m | 5.4m/s | -49.2°C | 0.8% | 31.6hPa | 2.6V | 00:00:00 | 00:00:00 | 00:00:00 | |
| GOEST3-10 | 2026-09-02 12:36:26 | 56.37546 | 4.84908 | 70° | 24km/h | 23896m | 4.9m/s | -49.2°C | 3.3% | 31.6hPa | 2.6V | 00:00:00 | 00:00:00 | 00:00:00 | |
| DM0DOS-11 | 2026-09-02 12:36:23 | 56.37537 | 4.84867 | 69° | 26km/h | 23875m | 4.9m/s | -49.4°C | 3.3% | 31.7hPa | 2.5V | 08:30:00 | 01:49:53 | 00:00:00 | |
| BIOWL1-15 | 2026-09-02 12:36:21 | 56.37512 | 4.84686 | 61° | 26km/h | 23806m | 4.5m/s | -49.7°C | 0.2% | 32hPa | 2.6V | 18:12:15 | 01:49:39 | 00:00:00 | |
| DL1XH-west | 2026-09-02 12:36:19 | 56.37525 | 4.84787 | 83° | 35km/h | 23845m | 5.6m/s | -49.5°C | 0.1% | 31.8hPa | 2.6V | 18:12:15 | 01:49:47 | 00:00:00 | |
| BIOWL9-15 | 2026-09-02 12:36:17 | 56.37525 | 4.84787 | 82° | 35km/h | 23845m | 5.6m/s | -49.5°C | 0.8% | 31.8hPa | 2.5V | 00:00:00 | 00:00:00 | 00:00:00 | |
| DM0DOS-11 | 2026-09-02 12:36:16 | 56.37521 | 4.84729 | 83° | 29km/h | 23826m | 3.7m/s | -49.5°C | 3.4% | 32hPa | 2.5V | 08:30:00 | 01:49:43 | 00:00:00 | |
| BIOWL1-15 | 2026-09-02 12:36:11 | 56.37509 | 4.84675 | 65° | 26km/h | 23802m | 5.5m/s | -49.8°C | 0.2% | 32.1hPa | 2.5V | 18:12:15 | 01:49:38 | 00:00:00 | |
| DL1XH-west | 2026-09-02 12:36:07 | 56.37505 | 4.84652 | 74° | 29km/h | 23792m | 4.4m/s | -49.8°C | 0.2% | 32.1hPa | 2.5V | 18:12:15 | 01:49:36 | 00:00:00 | |
| GOEST3-10 | 2026-09-02 12:36:06 | 56.37507 | 4.84664 | 72° | 31km/h | 23797m | 4.2m/s | -49.8°C | 3.4% | 32.0hPa | 2.6V | 00:00:00 | 00:00:00 | 00:00:00 | |
| DJ2DS-15 | 2026-09-02 12:36:04 | 56.37502 | 4.84638 | 73° | 27km/h | 23787m | 5.4m/s | -49.9°C | 3.4% | 32.1hPa | 2.6V | 00:00:00 | 01:49:35 | 00:00:00 | |
| DM0DOS-11 | 2026-09-02 12:36:03 | 56.37498 | 4.84610 | 77° | 33km/h | 23777m | 5m/s | -49.9°C | 3.4% | 32.2hPa | 2.6V | 08:30:00 | 01:49:33 | 00:00:00 | |
| GOEST3-10 | 2026-09-02 12:36:01 | 56.37496 | 4.84595 | 81° | 31km/h | 23773m | 4.9m/s | -49.9°C | 3.4% | 32.2hPa | 2.5V | 00:00:00 | 01:49:32 | 00:00:00 | |
| DM0DOS-11 | 2026-09-02 12:35:57 | 56.37471 | 4.84496 | 66° | 26km/h | 23731m | 4.6m/s | -50.1°C | 3.4% | 32.4hPa | 2.5V | 08:30:00 | 01:49:23 | 00:00:00 | |
| BIOWL1-15 | 2026-09-02 12:35:57 | 56.37459 | 4.84447 | 73° | 27km/h | 23711m | 5m/s | -50.1°C | 0.3% | 32.5hPa | 2.5V | 18:12:15 | 01:49:19 | 00:00:00 | |
| DL1XH-west | 2026-09-02 12:35:55 | 56.37476 | 4.84516 | 59° | 24km/h | 23740m | 4.6m/s | -50°C | 0.2% | 32.4hPa | 2.5V | 18:12:15 | 01:49:25 | 00:00:00 | |
| BIOWL9-15 | 2026-09-02 12:35:46 | 56.37452 | 4.84417 | 55° | 20km/h | 23697m | 5.2m/s | -50.2°C | 0.9% | 32.6hPa | 2.6V | 00:00:00 | 00:00:00 | 00:00:00 | |
| DM0DOS-11 | 2026-09-02 12:35:46 | 56.37443 | 4.84400 | 44° | 15km/h | 23683m | 4.6m/s | -50.2°C | 3.5% | 32.7hPa | 2.6V | 08:30:00 | 01:49:13 | 00:00:00 | |
| DL1XH-west | 2026-09-02 12:35:44 | 56.37438 | 4.84389 | 55° | 20km/h | 23674m | 5.7m/s | -50.3°C | 0.2% | 32.7hPa | 2.6V | 18:12:15 | 01:49:11 | 00:00:00 | |
| BIOWL1-15 | 2026-09-02 12:35:43 | 56.37443 | 4.84400 | 45° | 15km/h | 23683m | 4.6m/s | -50.3°C | 0.3% | 32.7hPa | 2.6V | 18:12:15 | 01:49:13 | 00:00:00 | |
| GOEST3-10 | 2026-09-02 12:35:42 | 56.37440 | 4.84395 | 52° | 22km/h | 23679m | 3.9m/s | -50.3°C | 3.6% | 32.6hPa | 2.6V | 00:00:00 | 01:49:12 | 00:00:00 | |
| GOEST3-10 | 2026-09-02 12:35:36 | 56.37428 | 4.84349 | 77° | 22km/h | 23654m | 4.2m/s | -50.4°C | 3.5% | 32.8hPa | 2.5V | 00:00:00 | 00:00:00 | 00:00:00 | |
| DM0DOS-11 | 2026-09-02 12:35:35 | 56.37421 | 4.84311 | 65° | 16km/h | 23635m | 4m/s | -50.4°C | 3.5% | 32.9hPa | 2.5V | 08:30:00 | 01:49:03 | 00:00:00 | |
| BIOWL1-15 | 2026-09-02 12:35:34 | 56.37402 | 4.84162 | 91° | 20km/h | 23537m | 5.3m/s | -50.5°C | 0.3% | 33.4hPa | 2.5V | 18:12:15 | 01:48:42 | 00:00:00 | |
| DL1XH-west | 2026-09-02 12:35:32 | 56.37418 | 4.84296 | 76° | 7km/h | 23620m | 4.9m/s | -50.4°C | 0.3% | 33hPa | 2.6V | 18:12:15 | 01:49:00 | 00:00:00 | |
| GOEST3-10 | 2026-09-02 12:35:31 | 56.37420 | 4.84305 | 71° | 9km/h | 23631m | 5.6m/s | -50.3°C | 3.5% | 32.9hPa | 2.5V | 00:00:00 | 01:49:02 | 00:00:00 | |
| GOEST3-10 | 2026-09-02 12:35:26 | 56.37416 | 4.84284 | 74° | 18km/h | 23608m | 4.9m/s | -50.4°C | 3.6% | 33.0hPa | 2.5V | 00:00:00 | 00:00:00 | 00:00:00 | |
| DJ2DS-15 | 2026-09-02 12:35:24 | 56.37414 | 4.84271 | 80° | 20km/h | 23598m | 4.4m/s | -50.4°C | 3.6% | 33.1hPa | 2.5V | 00:00:00 | 01:48:55 | 00:00:00 | |
| DM0DOS-11 | 2026-09-02 12:35:23 | 56.37411 | 4.84252 | 70° | 24km/h | 23588m | 4.1m/s | -50.5°C | 3.6% | 33.1hPa | 2.5V | 08:30:00 | 01:48:53 | 00:00:00 | |
| DL1XH-west | 2026-09-02 12:35:20 | 56.37405 | 4.84217 | 78° | 16km/h | 23570m | 4.5m/s | -50.5°C | 0.4% | 33.2hPa | 2.6V | 18:12:15 | 01:48:49 | 00:00:00 | |
| BIOWL1-15 | 2026-09-02 12:35:19 | 56.37401 | 4.84152 | 85° | 22km/h | 23532m | 4.2m/s | -50.5°C | 0.3% | 33.4hPa | 2.5V | 18:12:15 | 01:48:41 | 00:00:00 | |
| DL1XH-west | 2026-09-02 12:35:08 | 56.37400 | 4.84134 | 85° | 20km/h | 23523m | 5.7m/s | -50.5°C | 0.2% | 33.5hPa | 2.6V | 18:12:15 | 01:48:39 | 00:00:00 | |
| BIOWL1-15 | 2026-09-02 12:35:02 | 56.37399 | 4.84086 | 98° | 15km/h | 23494m | 4.3m/s | -50.3°C | 0.3% | 33.7hPa | 2.6V | 18:12:15 | 01:48:33 | 00:00:00 | |
| DL1XH-west | 2026-09-02 12:34:58 | 56.37401 | 4.84041 | 105° | 18km/h | 23467m | 4.5m/s | -50.2°C | 0.2% | 33.8hPa | 2.5V | 18:12:15 | 01:48:27 | 00:00:00 | |
| GOEST3-10 | 2026-09-02 12:34:56 | 56.37401 | 4.84041 | 105° | 20km/h | 23467m | 4.4m/s | -50.1°C | 3.5% | 33.7hPa | 2.5V | 00:00:00 | 00:00:00 | 00:00:00 | |
| DM0DOS-11 | 2026-09-02 12:34:53 | 56.37405 | 4.84007 | 94° | 20km/h | 23448m | 4.6m/s | -50.4°C | 3.6% | 33.9hPa | 2.6V | 08:30:00 | 01:48:23 | 00:00:00 | |
| BIOWL1-15 | 2026-09-02 12:34:52 | 56.37405 | 4.83903 | 89° | 24km/h | 23395m | 5m/s | -50.4°C | 0.3% | 34.1hPa | 2.6V | 18:12:15 | 01:48:12 | 00:00:00 | |
| DL1XH-west | 2026-09-02 12:34:48 | 56.37406 | 4.83952 | 86° | 20km/h | 23419m | 5.4m/s | -50.5°C | 0.4% | 34hPa | 2.6V | 18:12:15 | 01:48:17 | 00:00:00 | |
| GOEST3-10 | 2026-09-02 12:34:46 | 56.37406 | 4.83952 | 86° | 22km/h | 23419m | 5.4m/s | -50.5°C | 3.6% | 34.0hPa | 2.6V | 00:00:00 | 00:00:00 | 00:00:00 | |
| DM0DOS-11 | 2026-09-02 12:34:45 | 56.37405 | 4.83914 | 84° | 24km/h | 23399m | 4.6m/s | -50.4°C | 3.6% | 34.1hPa | 2.6V | 08:30:00 | 01:48:13 | 00:00:00 | |
| BIOWL1-15 | 2026-09-02 12:34:44 | 56.37405 | 4.83892 | 96° | 26km/h | 23390m | 5.2m/s | -50.4°C | 0.4% | 34.2hPa | 2.5V | 18:12:15 | 01:48:11 | 00:00:00 | |
| DL1XH-west | 2026-09-02 12:34:36 | 56.37407 | 4.83840 | 86° | 18km/h | 23366m | 5m/s | -50.3°C | 0.3% | 34.3hPa | 2.6V | 18:12:15 | 01:48:06 | 00:00:00 | |
| GOEST3-10 | 2026-09-02 12:34:36 | 56.37408 | 4.83849 | 86° | 15km/h | 23371m | 4.2m/s | -50.2°C | 3.5% | 34.2hPa | 2.6V | 00:00:00 | 00:00:00 | 00:00:00 | |
| DM0DOS-11 | 2026-09-02 12:34:33 | 56.37405 | 4.83822 | 61° | 11km/h | 23352m | 5.6m/s | -50.3°C | 3.5% | 34.4hPa | 2.6V | 08:30:00 | 01:48:03 | 00:00:00 | |
| BIOWL1-15 | 2026-09-02 12:34:30 | 56.37402 | 4.83813 | 56° | 13km/h | 23342m | 4.2m/s | -50.2°C | 0.2% | 34.4hPa | 2.6V | 18:12:15 | 01:48:01 | 00:00:00 | |
| DM0DOS-11 | 2026-09-02 12:34:26 | 56.37393 | 4.83748 | 85° | 22km/h | 23306m | 4.4m/s | -50.1°C | 3.5% | 34.6hPa | 2.5V | 08:30:00 | 01:47:53 | 00:00:00 | |
| DL1XH-west | 2026-09-02 12:34:25 | 56.37397 | 4.83779 | 73° | 24km/h | 23319m | 4.7m/s | -50.1°C | 0.2% | 34.5hPa | 2.6V | 18:12:15 | 01:47:56 | 00:00:00 | |
| BIOWL1-15 | 2026-09-02 12:34:20 | 56.37391 | 4.83724 | 73° | 15km/h | 23292m | 4.5m/s | -50.1°C | 0.3% | 34.7hPa | 2.6V | 18:12:15 | 01:47:50 | 00:00:00 | |
| DL1XH-west | 2026-09-02 12:34:15 | 56.37385 | 4.83698 | 52° | 16km/h | 23269m | 5.4m/s | -50.2°C | 0.3% | 34.8hPa | 2.6V | 18:12:15 | 01:47:45 | 00:00:00 | |
| DM0DOS-11 | 2026-09-02 12:34:13 | 56.37378 | 4.83684 | 48° | 22km/h | 23260m | 4.4m/s | -50.3°C | 3.5% | 34.9hPa | 2.5V | 08:30:00 | 01:47:43 | 00:00:00 | |
| BIOWL1-15 | 2026-09-02 12:34:09 | 56.37361 | 4.83627 | 78° | 15km/h | 23226m | 4.8m/s | -50.1°C | 0.2% | 35.1hPa | 2.6V | 18:12:15 | 01:47:36 | 00:00:00 | |
| DM0DOS-11 | 2026-09-02 12:34:07 | 56.37358 | 4.83609 | 64° | 15km/h | 23211m | 4m/s | -50.1°C | 3.5% | 35.1hPa | 2.5V | 08:30:00 | 01:47:33 | 00:00:00 | |
| DL1XH-west | 2026-09-02 12:34:03 | 56.37359 | 4.83615 | 72° | 15km/h | 23216m | 5.5m/s | -50.1°C | 0.2% | 35.1hPa | 2.5V | 18:12:15 | 01:47:34 | 00:00:00 | |
| BIOWL1-15 | 2026-09-02 12:33:58 | 56.37353 | 4.83572 | 83° | 20km/h | 23187m | 4.9m/s | -50°C | 0.2% | 35.3hPa | 2.6V | 18:12:15 | 01:47:28 | 00:00:00 | |
| DL1XH-west | 2026-09-02 12:33:53 | 56.37352 | 4.83518 | 108° | 16km/h | 23159m | 4.5m/s | -50.3°C | 0.3% | 35.4hPa | 2.6V | 18:12:15 | 01:47:22 | 00:00:00 | |
| BIOWL1-15 | 2026-09-02 12:33:48 | 56.37354 | 4.83490 | 94° | 16km/h | 23140m | 5.2m/s | -50.4°C | 0.2% | 35.5hPa | 2.6V | 18:12:15 | 01:47:18 | 00:00:00 | |
| DM0DOS-11 | 2026-09-02 12:33:47 | 56.37355 | 4.83439 | 90° | 31km/h | 23117m | 4.2m/s | -50.6°C | 3.6% | 35.6hPa | 2.5V | 08:30:00 | 01:47:13 | 00:00:00 | |
| DL1XH-west | 2026-09-02 12:33:41 | 56.37355 | 4.83425 | 97° | 31km/h | 23112m | 4.9m/s | -50.7°C | 0.3% | 35.7hPa | 2.5V | 18:12:15 | 01:47:12 | 00:00:00 | |
| GOEST3-10 | 2026-09-02 12:33:41 | 56.37355 | 4.83425 | 98° | 29km/h | 23112m | 4.8m/s | -50.6°C | 3.6% | 35.6hPa | 2.5V | 00:00:00 | 01:47:12 | 08:30:00 | |
| BIOWL7-15 | 2026-09-02 12:33:38 | 56.37358 | 4.83399 | 110° | 29km/h | 23103m | 4.9m/s | 0°C | 0% | 0hPa | 2.6V | 00:00:00 | 00:00:00 | 00:00:00 | |
| DM0DOS-11 | 2026-09-02 12:33:37 | 56.37376 | 4.83323 | 101° | 24km/h | 23068m | 5.4m/s | -50.7°C | 3.6% | 35.9hPa | 2.6V | 08:30:00 | 01:47:03 | 00:00:00 | |
| BIOWL1-15 | 2026-09-02 12:33:37 | 56.37366 | 4.83365 | 114° | 26km/h | 23087m | 4.5m/s | -50.7°C | 0.3% | 35.8hPa | 2.5V | 18:12:15 | 01:47:07 | 00:00:00 | |
| DL1XH-west | 2026-09-02 12:33:30 | 56.37377 | 4.83301 | 91° | 24km/h | 23058m | 5.5m/s | -50.7°C | 0.4% | 36hPa | 2.5V | 18:12:15 | 01:47:01 | 00:00:00 | |
| DM0DOS-11 | 2026-09-02 12:33:27 | 56.37376 | 4.83211 | 96° | 22km/h | 23018m | 3.7m/s | -50.7°C | 3.6% | 36.2hPa | 2.5V | 08:30:00 | 01:46:53 | 00:00:00 | |
| BIOWL1-15 | 2026-09-02 12:33:25 | 56.37374 | 4.83161 | 88° | 24km/h | 22994m | 5.7m/s | -50.8°C | 0.4% | 36.4hPa | 2.5V | 18:12:15 | 01:46:48 | 00:00:00 | |
| DL1XH-west | 2026-09-02 12:33:20 | 56.37375 | 4.83181 | 80° | 22km/h | 23003m | 4.3m/s | -50.8°C | 0.3% | 36.3hPa | 2.6V | 18:12:15 | 01:46:50 | 00:00:00 | |
| BIOWL1-15 | 2026-09-02 12:33:12 | 56.37369 | 4.83090 | 75° | 27km/h | 22963m | 5.5m/s | -50.8°C | 0.4% | 36.5hPa | 2.5V | 18:12:15 | 01:46:42 | 00:00:00 | |
| DL1XH-west | 2026-09-02 12:33:09 | 56.37363 | 4.83055 | 70° | 27km/h | 22949m | 5.7m/s | -50.7°C | 0.3% | 36.6hPa | 2.6V | 18:12:15 | 01:46:39 | 00:00:00 | |
| BIOWL1-15 | 2026-09-02 12:33:01 | 56.37345 | 4.82898 | 77° | 27km/h | 22887m | 4.7m/s | -50.6°C | 0.3% | 37hPa | 2.5V | 18:12:15 | 01:46:27 | 00:00:00 | |
| DL1XH-west | 2026-09-02 12:32:58 | 56.37346 | 4.82911 | 81° | 29km/h | 22893m | 5.7m/s | -50.7°C | 0.4% | 37hPa | 2.5V | 18:12:15 | 01:46:28 | 00:00:00 | |
| DM0DOS-11 | 2026-09-02 12:32:57 | 56.37339 | 4.82854 | 68° | 24km/h | 22867m | 5.7m/s | -50.6°C | 3.6% | 37.1hPa | 2.6V | 08:30:00 | 01:46:23 | 00:00:00 | |
| DJ2DS-15 | 2026-09-02 12:32:51 | 56.37333 | 4.82834 | 64° | 24km/h | 22857m | 4.2m/s | -50.6°C | 0.9% | 37.1hPa | 2.5V | 00:00:00 | 00:00:00 | 00:00:00 | |
| BIOWL1-15 | 2026-09-02 12:32:48 | 56.37307 | 4.82699 | 53° | 26km/h | 22796m | 5.2m/s | -50.5°C | 0.4% | 37.5hPa | 2.5V | 18:12:15 | 01:46:09 | 00:00:00 | |
| DL1XH-west | 2026-09-02 12:32:46 | 56.37326 | 4.82789 | 76° | 27km/h | 22836m | 5.9m/s | -50.5°C | 0.3% | 37.3hPa | 2.6V | 18:12:15 | 01:46:17 | 00:00:00 | |
| BIOWL1-15 | 2026-09-02 12:32:35 | 56.37299 | 4.82668 | 71° | 26km/h | 22782m | 4.5m/s | -50.6°C | 0.3% | 37.6hPa | 2.6V | 18:12:15 | 01:46:06 | 00:00:00 | |
| DL1XH-west | 2026-09-02 12:32:26 | 56.37269 | 4.82551 | 54° | 31km/h | 22738m | 4.5m/s | -50.5°C | 0.4% | 37.8hPa | 2.6V | 18:12:15 | 01:45:57 | 00:00:00 | |
| DM0DOS-11 | 2026-09-02 12:32:25 | 56.37253 | 4.82513 | 46° | 22km/h | 22717m | 5.7m/s | -50.3°C | 3.6% | 38hPa | 2.6V | 08:30:00 | 01:45:53 | 00:00:00 | |
| BIOWL1-15 | 2026-09-02 12:32:25 | 56.37261 | 4.82530 | 55° | 26km/h | 22727m | 5.1m/s | -50.4°C | 0.4% | 37.9hPa | 2.5V | 18:12:15 | 01:45:55 | 00:00:00 | |
| BIOWL1-15 | 2026-09-02 12:32:16 | 56.37217 | 4.82427 | 50° | 22km/h | 22664m | 5.9m/s | -50.2°C | 0.4% | 38.2hPa | 2.5V | 18:12:15 | 01:45:43 | 00:00:00 | |
| DL1XH-west | 2026-09-02 12:32:16 | 56.37231 | 4.82464 | 54° | 26km/h | 22685m | 4.7m/s | -50.2°C | 0.3% | 38.1hPa | 2.6V | 18:12:15 | 01:45:47 | 00:00:00 | |
| GOEST3-10 | 2026-09-02 12:32:15 | 56.37227 | 4.82454 | 56° | 24km/h | 22680m | 5.5m/s | -50.2°C | 3.6% | 38.1hPa | 2.5V | 00:00:00 | 00:00:00 | 00:00:00 | |
| DM0DOS-11 | 2026-09-02 12:32:14 | 56.37217 | 4.82427 | 49° | 22km/h | 22664m | 5.8m/s | -50.1°C | 3.6% | 38.2hPa | 2.5V | 08:30:00 | 01:45:43 | 00:00:00 | |
| DL1XH-west | 2026-09-02 12:32:05 | 56.37189 | 4.82386 | 37° | 22km/h | 22627m | 5m/s | -50°C | 0.3% | 38.5hPa | 2.5V | 18:12:15 | 01:45:36 | 00:00:00 | |
| DM0DOS-11 | 2026-09-02 12:32:04 | 56.37178 | 4.82365 | 50° | 20km/h | 22612m | 4.2m/s | -49.8°C | 3.5% | 38.6hPa | 2.6V | 08:30:00 | 01:45:33 | 00:00:00 | |
| BIOWL1-15 | 2026-09-02 12:32:02 | 56.37170 | 4.82352 | 38° | 20km/h | 22601m | 4.9m/s | -49.8°C | 0.3% | 38.6hPa | 2.6V | 18:12:15 | 01:45:31 | 00:00:00 | |
| DL1XH-west | 2026-09-02 12:31:55 | 56.37153 | 4.82328 | 28° | 15km/h | 22575m | 5.8m/s | -49.7°C | 0.2% | 38.8hPa | 2.6V | 18:12:15 | 01:45:26 | 00:00:00 | |
| DM0DOS-11 | 2026-09-02 12:31:54 | 56.37139 | 4.82317 | 35° | 16km/h | 22555m | 4.7m/s | -49.6°C | 3.4% | 38.9hPa | 2.5V | 08:30:00 | 01:45:22 | 00:00:00 | |
| BIOWL1-15 | 2026-09-02 12:31:52 | 56.37130 | 4.82304 | 44° | 15km/h | 22539m | 4.9m/s | -49.5°C | 0.2% | 39hPa | 2.6V | 18:12:15 | 01:45:19 | 00:00:00 | |
| DL1XH-west | 2026-09-02 12:31:45 | 56.37123 | 4.82285 | 48° | 9km/h | 22518m | 5.8m/s | -49.6°C | 0.2% | 39.1hPa | 2.6V | 18:12:15 | 01:45:15 | 00:00:00 | |
| DM0DOS-11 | 2026-09-02 12:31:44 | 56.37117 | 4.82280 | 30° | 11km/h | 22503m | 5.9m/s | -49.6°C | 3.4% | 39.2hPa | 2.5V | 08:30:00 | 01:45:12 | 00:00:00 | |
| DL1XH-west | 2026-09-02 12:31:34 | 56.37103 | 4.82255 | 85° | 7km/h | 22465m | 3.8m/s | -49.9°C | 0.3% | 39.4hPa | 2.6V | 18:12:15 | 01:45:05 | 00:00:00 | |
| BIOWL1-15 | 2026-09-02 12:31:34 | 56.37107 | 4.82182 | 115° | 16km/h | 22379m | 5.3m/s | -49.7°C | 0.3% | 40hPa | 2.6V | 18:12:15 | 01:44:48 | 00:00:00 | |
| DM0DOS-11 | 2026-09-02 12:31:33 | 56.37105 | 4.82250 | 88° | 7km/h | 22435m | 5m/s | -49.9°C | 3.5% | 39.6hPa | 2.6V | 08:30:00 | 01:44:59 | 00:00:00 | |
| DL1XH-west | 2026-09-02 12:31:23 | 56.37100 | 4.82223 | 76° | 15km/h | 22410m | 4.4m/s | -49.8°C | 0.3% | 39.8hPa | 2.6V | 18:12:15 | 01:44:54 | 00:00:00 | |
| BIOWL1-15 | 2026-09-02 12:31:19 | 56.37109 | 4.82174 | 111° | 18km/h | 22374m | 5.6m/s | -49.7°C | 0.3% | 40hPa | 2.5V | 18:12:15 | 01:44:47 | 00:00:00 | |
| DM0DOS-11 | 2026-09-02 12:31:14 | 56.37112 | 4.82129 | 87° | 18km/h | 22350m | 4.2m/s | -49.6°C | 3.4% | 40.1hPa | 2.6V | 08:30:00 | 01:44:42 | 00:00:00 | |
| DL1XH-west | 2026-09-02 12:31:13 | 56.37112 | 4.82146 | 96° | 20km/h | 22360m | 5.9m/s | -49.7°C | 0.3% | 40.1hPa | 2.6V | 18:12:15 | 01:44:44 | 00:00:00 | |
| BIOWL1-15 | 2026-09-02 12:31:06 | 56.37122 | 4.82046 | 108° | 27km/h | 22311m | 5.5m/s | -49.7°C | 0.3% | 40.4hPa | 2.5V | 18:12:15 | 01:44:34 | 00:00:00 | |
| DJ2DS-15 | 2026-09-02 12:31:04 | 56.37120 | 4.82057 | 107° | 33km/h | 22316m | 4.4m/s | -49.7°C | 3.5% | 40.3hPa | 2.5V | 00:00:00 | 01:44:35 | 00:00:00 | |
| DM0DOS-11 | 2026-09-02 12:31:03 | 56.37126 | 4.82021 | 104° | 29km/h | 22301m | 4.4m/s | -49.8°C | 3.5% | 40.5hPa | 2.5V | 08:30:00 | 01:44:32 | 00:00:00 | |
| DL1XH-west | 2026-09-02 12:31:03 | 56.37124 | 4.82034 | 108° | 29km/h | 22306m | 4.3m/s | -49.8°C | 0.3% | 40.4hPa | 2.5V | 18:12:15 | 01:44:33 | 00:00:00 | |
| DL1XH-west | 2026-09-02 12:30:53 | 56.37130 | 4.81901 | 98° | 37km/h | 22255m | 5.6m/s | -50°C | 0.3% | 40.8hPa | 2.6V | 18:12:15 | 01:44:23 | 00:00:00 | |
| DM0DOS-11 | 2026-09-02 12:30:52 | 56.37132 | 4.81884 | 102° | 40km/h | 22250m | 4.3m/s | -50°C | 3.5% | 40.8hPa | 2.6V | 08:30:00 | 01:44:22 | 00:00:00 | |
| BIOWL1-15 | 2026-09-02 12:30:51 | 56.37132 | 4.81884 | 102° | 40km/h | 22250m | 4.3m/s | -50°C | 0.3% | 40.8hPa | 2.6V | 18:12:15 | 01:44:22 | 00:00:00 | |
| GOEST3-10 | 2026-09-02 12:30:49 | 56.37136 | 4.81849 | 101° | 38km/h | 22241m | 5.0m/s | -49.9°C | 3.5% | 40.8hPa | 2.6V | 00:00:00 | 01:44:20 | 00:00:00 | |
| DM0DOS-11 | 2026-09-02 12:30:47 | 56.37132 | 4.81709 | 79° | 40km/h | 22202m | 4.6m/s | -49.8°C | 3.4% | 41.1hPa | 2.6V | 08:30:00 | 01:44:12 | 00:00:00 | |
| DL1XH-west | 2026-09-02 12:30:42 | 56.37134 | 4.81727 | 77° | 38km/h | 22207m | 4.1m/s | -49.9°C | 0.2% | 41.1hPa | 2.5V | 18:12:15 | 01:44:13 | 00:00:00 | |
| GOEST3-10 | 2026-09-02 12:30:39 | 56.37130 | 4.81672 | 87° | 40km/h | 22193m | 4.0m/s | -49.7°C | 3.4% | 41.1hPa | 2.6V | 00:00:00 | 01:44:10 | 08:30:00 | |
| DM0DOS-11 | 2026-09-02 12:30:36 | 56.37122 | 4.81518 | 75° | 37km/h | 22150m | 4.8m/s | -49.9°C | 3.4% | 41.4hPa | 2.5V | 08:30:00 | 01:44:01 | 00:00:00 | |
| BIOWL1-15 | 2026-09-02 12:30:35 | 56.37122 | 4.81518 | 75° | 37km/h | 22150m | 4.8m/s | -49.9°C | 0.2% | 41.4hPa | 2.5V | 18:12:15 | 01:44:01 | 00:00:00 | |
| DL1XH-west | 2026-09-02 12:30:31 | 56.37124 | 4.81534 | 78° | 37km/h | 22155m | 5.8m/s | -50°C | 0.2% | 41.4hPa | 2.5V | 18:12:15 | 01:44:02 | 00:00:00 | |
| GOEST3-10 | 2026-09-02 12:30:29 | 56.37120 | 4.81502 | 76° | 38km/h | 22145m | 5.3m/s | -50.0°C | 3.4% | 41.4hPa | 2.5V | 00:00:00 | 01:44:00 | 00:00:00 | |
| DM0DOS-11 | 2026-09-02 12:30:25 | 56.37101 | 4.81346 | 73° | 38km/h | 22102m | 5.1m/s | -50°C | 3.5% | 41.7hPa | 2.5V | 08:30:00 | 01:43:51 | 00:00:00 | |
| BIOWL1-15 | 2026-09-02 12:30:25 | 56.37058 | 4.81171 | 69° | 40km/h | 22056m | 5.3m/s | -50.1°C | 0.3% | 42hPa | 2.5V | 18:12:15 | 01:43:41 | 00:00:00 | |
| DL1XH-west | 2026-09-02 12:30:21 | 56.37086 | 4.81280 | 67° | 44km/h | 22084m | 4.3m/s | -50.1°C | 0.3% | 41.8hPa | 2.6V | 18:12:15 | 01:43:47 | 00:00:00 | |
| GOEST3-10 | 2026-09-02 12:30:19 | 56.37098 | 4.81330 | 68° | 40km/h | 22097m | 4.3m/s | -50.0°C | 3.5% | 41.7hPa | 2.5V | 00:00:00 | 01:43:50 | 00:00:00 | |
| DM0DOS-11 | 2026-09-02 12:30:15 | 56.37057 | 4.81171 | 68° | 40km/h | 22056m | 5.3m/s | -50.1°C | 3.5% | 42hPa | 2.5V | 08:30:00 | 01:43:41 | 00:00:00 | |
| BIOWL1-15 | 2026-09-02 12:30:13 | 56.37054 | 4.81154 | 72° | 38km/h | 22051m | 3.5m/s | -50.1°C | 0.3% | 42hPa | 2.5V | 18:12:15 | 01:43:40 | 00:00:00 | |
| DL1XH-west | 2026-09-02 12:30:08 | 56.37051 | 4.81137 | 71° | 37km/h | 22047m | 4.4m/s | -50.2°C | 0.3% | 42.1hPa | 2.6V | 18:12:15 | 01:43:39 | 00:00:00 | |
| DJ2DS-15 | 2026-09-02 12:30:04 | 56.37036 | 4.81077 | 63° | 38km/h | 22028m | 4.9m/s | -50.1°C | 3.6% | 42.2hPa | 2.6V | 00:00:00 | 01:43:35 | 00:00:00 | |
| DM0DOS-11 | 2026-09-02 12:30:03 | 56.37014 | 4.81015 | 54° | 42km/h | 22009m | 3.9m/s | -50.1°C | 3.5% | 42.3hPa | 2.6V | 08:30:00 | 01:43:31 | 00:00:00 | |
| BIOWL1-15 | 2026-09-02 12:30:01 | 56.37008 | 4.80999 | 58° | 40km/h | 22004m | 5.4m/s | -50.2°C | 0.3% | 42.4hPa | 2.5V | 18:12:15 | 01:43:30 | 00:00:00 | |
| DL1XH-west | 2026-09-02 12:29:57 | 56.36998 | 4.80969 | 60° | 38km/h | 21995m | 4.3m/s | -50.1°C | 0.3% | 42.4hPa | 2.6V | 18:12:15 | 01:43:28 | 00:00:00 | |
| GOEST3-10 | 2026-09-02 12:29:54 | 56.36983 | 4.80929 | 52° | 37km/h | 21981m | 3.8m/s | -50.0°C | 3.5% | 42.5hPa | 2.5V | 00:00:00 | 00:00:00 | 08:30:00 | |
| DM0DOS-11 | 2026-09-02 12:29:52 | 56.36938 | 4.80840 | 46° | 42km/h | 21948m | 4.9m/s | -49.9°C | 3.5% | 42.7hPa | 2.6V | 08:30:00 | 01:43:18 | 00:00:00 | |
| BIOWL1-15 | 2026-09-02 12:29:49 | 56.36953 | 4.80866 | 43° | 40km/h | 21957m | 4m/s | -50°C | 0.3% | 42.6hPa | 2.5V | 18:12:15 | 01:43:20 | 00:00:00 | |
| DL1XH-west | 2026-09-02 12:29:46 | 56.36931 | 4.80826 | 49° | 42km/h | 21944m | 4.3m/s | -49.9°C | 0.3% | 42.7hPa | 2.6V | 18:12:15 | 01:43:17 | 00:00:00 | |
| DJ2DS-15 | 2026-09-02 12:29:44 | 56.36917 | 4.80799 | 46° | 35km/h | 21935m | 5.1m/s | -49.7°C | 3.5% | 42.8hPa | 2.5V | 00:00:00 | 01:43:15 | 08:30:00 | |
| BIOWL1-15 | 2026-09-02 12:29:39 | 56.36757 | 4.80549 | 51° | 26km/h | 21818m | 4.8m/s | -49.8°C | 0.3% | 43.6hPa | 2.5V | 18:12:15 | 01:42:50 | 00:00:00 | |
| DL1XH-west | 2026-09-02 12:29:36 | 56.36859 | 4.80709 | 44° | 33km/h | 21893m | 4.5m/s | -49.5°C | 0.2% | 43.1hPa | 2.5V | 18:12:15 | 01:43:06 | 00:00:00 | |
| BIOWL1-15 | 2026-09-02 12:29:28 | 56.36749 | 4.80531 | 51° | 24km/h | 21809m | 5m/s | -49.7°C | 0.2% | 43.6hPa | 2.6V | 18:12:15 | 01:42:48 | 00:00:00 | |
| DL1XH-west | 2026-09-02 12:29:26 | 56.36792 | 4.80605 | 39° | 38km/h | 21846m | 4.6m/s | -49.8°C | 0.3% | 43.4hPa | 2.5V | 18:12:15 | 01:42:56 | 00:00:00 | |
| DM0DOS-11 | 2026-09-02 12:29:25 | 56.36762 | 4.80558 | 43° | 26km/h | 21823m | 4.5m/s | -49.7°C | 3.5% | 43.5hPa | 2.5V | 08:30:00 | 01:42:51 | 00:00:00 | |
| DL1XH-west | 2026-09-02 12:29:15 | 56.36740 | 4.80516 | 39° | 26km/h | 21800m | 4.1m/s | -49.7°C | 0.3% | 43.7hPa | 2.6V | 18:12:15 | 01:42:46 | 00:00:00 | |
| BIOWL1-15 | 2026-09-02 12:29:11 | 56.36696 | 4.80458 | 46° | 18km/h | 21758m | 4.8m/s | -49.4°C | 0.2% | 44hPa | 2.6V | 18:12:15 | 01:42:37 | 00:00:00 | |
| DL1XH-west | 2026-09-02 12:29:05 | 56.36693 | 4.80452 | 43° | 16km/h | 21753m | 4.4m/s | -49.5°C | 0.2% | 44hPa | 2.5V | 18:12:15 | 01:42:36 | 00:00:00 | |
| BIOWL1-15 | 2026-09-02 12:29:00 | 56.36652 | 4.80379 | 60° | 16km/h | 21688m | 4.7m/s | -49.3°C | 0.2% | 44.4hPa | 2.6V | 18:12:15 | 01:42:22 | 00:00:00 | |
| DL1XH-west | 2026-09-02 12:28:55 | 56.36660 | 4.80396 | 40° | 13km/h | 21707m | 5.2m/s | -49.3°C | 0.2% | 44.3hPa | 2.5V | 18:12:15 | 01:42:26 | 00:00:00 | |
| BIOWL1-15 | 2026-09-02 12:28:54 | 56.36645 | 4.80358 | 62° | 15km/h | 21674m | 4.3m/s | -49.5°C | 0.2% | 44.6hPa | 2.5V | 18:12:15 | 01:42:19 | 00:00:00 | |
| DL1XH-west | 2026-09-02 12:28:44 | 56.36640 | 4.80334 | 79° | 11km/h | 21655m | 4.8m/s | -49.5°C | 0.2% | 44.7hPa | 2.5V | 18:12:15 | 01:42:15 | 00:00:00 | |
| BIOWL1-15 | 2026-09-02 12:28:38 | 56.36642 | 4.80301 | 102° | 16km/h | 21626m | 4.7m/s | -49.5°C | 0.2% | 44.9hPa | 2.6V | 18:12:15 | 01:42:09 | 00:00:00 | |
| DL1XH-west | 2026-09-02 12:28:34 | 56.36642 | 4.80245 | 89° | 20km/h | 21597m | 3.6m/s | -49.4°C | 0.1% | 45.1hPa | 2.6V | 18:12:15 | 01:42:03 | 00:00:00 | |
| DM0DOS-11 | 2026-09-02 12:28:33 | 56.36642 | 4.80236 | 87° | 18km/h | 21593m | 4.1m/s | -49.4°C | 3.3% | 45.1hPa | 2.6V | 08:30:00 | 01:42:02 | 00:00:00 | |
| DL1XH-west | 2026-09-02 12:28:23 | 56.36637 | 4.80168 | 83° | 24km/h | 21555m | 3.9m/s | -49.8°C | 0.2% | 45.4hPa | 2.6V | 18:12:15 | 01:41:54 | 00:00:00 | |
| BIOWL1-15 | 2026-09-02 12:28:15 | 56.36612 | 4.80019 | 62° | 26km/h | 21478m | 3.9m/s | -49.9°C | 0.3% | 45.9hPa | 2.5V | 18:12:15 | 01:41:38 | 00:00:00 | |
| DL1XH-west | 2026-09-02 12:28:13 | 56.36625 | 4.80073 | 67° | 18km/h | 21507m | 4.4m/s | -50°C | 0.3% | 45.7hPa | 2.5V | 18:12:15 | 01:41:44 | 00:00:00 | |
| BIOWL1-15 | 2026-09-02 12:28:03 | 56.36596 | 4.79968 | 60° | 15km/h | 21444m | 5.2m/s | -49.9°C | 0.3% | 46.2hPa | 2.5V | 18:12:15 | 01:41:31 | 00:00:00 | |
| DL1XH-west | 2026-09-02 12:28:02 | 56.36600 | 4.79980 | 61° | 16km/h | 21453m | 5.1m/s | -49.9°C | 0.3% | 46.1hPa | 2.6V | 18:12:15 | 01:41:33 | 00:00:00 | |
| BIOWL9-15 | 2026-09-02 12:28:00 | 56.36596 | 4.79968 | 60° | 13km/h | 21444m | 5.2m/s | -49.9°C | 0.9% | 46.2hPa | 2.5V | 00:00:00 | 00:00:00 | 00:00:00 | |
| GOEST3-10 | 2026-09-02 12:27:59 | 56.36594 | 4.79962 | 57° | 22km/h | 21439m | 3.8m/s | -49.8°C | 3.5% | 46.1hPa | 2.5V | 00:00:00 | 01:41:30 | 00:00:00 | |
| DM0DOS-11 | 2026-09-02 12:27:58 | 56.36583 | 4.79929 | 60° | 26km/h | 21420m | 4.2m/s | -50°C | 3.5% | 46.3hPa | 2.5V | 08:30:00 | 01:41:26 | 00:00:00 | |
| BIOWL1-15 | 2026-09-02 12:27:54 | 56.36574 | 4.79903 | 54° | 20km/h | 21406m | 4.9m/s | -49.9°C | 0.3% | 46.4hPa | 2.6V | 18:12:15 | 01:41:23 | 00:00:00 | |
| DL1XH-west | 2026-09-02 12:27:51 | 56.36566 | 4.79882 | 52° | 16km/h | 21391m | 5m/s | -50°C | 0.4% | 46.5hPa | 2.5V | 18:12:15 | 01:41:20 | 00:00:00 | |
| BIOWL1-15 | 2026-09-02 12:27:44 | 56.36545 | 4.79845 | 48° | 18km/h | 21356m | 4.3m/s | -49.8°C | 0.2% | 46.8hPa | 2.5V | 18:12:15 | 01:41:13 | 00:00:00 | |
| DL1XH-west | 2026-09-02 12:27:41 | 56.36542 | 4.79838 | 50° | 20km/h | 21351m | 5.2m/s | -49.9°C | 0.3% | 46.8hPa | 2.6V | 18:12:15 | 01:41:12 | 00:00:00 | |
| GOEST3-10 | 2026-09-02 12:27:39 | 56.36535 | 4.79823 | 47° | 20km/h | 21343m | 3.6m/s | -49.7°C | 3.5% | 46.9hPa | 2.6V | 00:00:00 | 01:41:10 | 08:30:00 | |
| DM0DOS-11 | 2026-09-02 12:27:37 | 56.36518 | 4.79804 | 21° | 15km/h | 21323m | 5.3m/s | -49.6°C | 3.5% | 47hPa | 2.6V | 08:30:00 | 01:41:06 | 00:00:00 | |
| BIOWL1-15 | 2026-09-02 12:27:31 | 56.36501 | 4.79791 | 42° | 9km/h | 21292m | 5m/s | -49.4°C | 0.3% | 47.3hPa | 2.6V | 18:12:15 | 01:41:00 | 00:00:00 | |
| DL1XH-west | 2026-09-02 12:27:31 | 56.36506 | 4.79795 | 16° | 11km/h | 21302m | 4.5m/s | -49.5°C | 0.3% | 47.2hPa | 2.5V | 18:12:15 | 01:41:02 | 00:00:00 | |
| BIOWL1-15 | 2026-09-02 12:27:21 | 56.36482 | 4.79769 | 13° | 11km/h | 21253m | 5m/s | -49.2°C | 0.2% | 47.5hPa | 2.5V | 18:12:15 | 01:40:52 | 00:00:00 | |
| DL1XH-west | 2026-09-02 12:27:20 | 56.36479 | 4.79769 | 1° | 9km/h | 21248m | 4.2m/s | -49.3°C | 0.3% | 47.6hPa | 2.5V | 18:12:15 | 01:40:51 | 00:00:00 | |
| DM0DOS-11 | 2026-09-02 12:27:20 | 56.36470 | 4.79763 | 24° | 9km/h | 21222m | 4.1m/s | -49°C | 3.4% | 47.8hPa | 2.5V | 08:30:00 | 01:40:46 | 00:00:00 | |
| BIOWL1-15 | 2026-09-02 12:27:11 | 56.36456 | 4.79748 | 344° | 2km/h | 21165m | 4.7m/s | -49°C | 0.1% | 48.2hPa | 2.5V | 18:12:15 | 01:40:34 | 00:00:00 | |
| DL1XH-west | 2026-09-02 12:27:10 | 56.36458 | 4.79747 | 9° | 5km/h | 21194m | 3.8m/s | -49°C | 0.1% | 48hPa | 2.5V | 18:12:15 | 01:40:40 | 00:00:00 | |
| DL1XH-west | 2026-09-02 12:26:59 | 56.36456 | 4.79740 | 47° | 7km/h | 21140m | 4.5m/s | -49.1°C | 0.2% | 48.4hPa | 2.5V | 18:12:15 | 01:40:29 | 00:00:00 | |
| BIOWL1-15 | 2026-09-02 12:26:56 | 56.36453 | 4.79732 | 83° | 7km/h | 21126m | 5.3m/s | -49.2°C | 0.2% | 48.5hPa | 2.6V | 18:12:15 | 01:40:26 | 00:00:00 | |
| DL1XH-west | 2026-09-02 12:26:49 | 56.36461 | 4.79724 | 164° | 11km/h | 21097m | 4.7m/s | -49.4°C | 0.2% | 48.7hPa | 2.6V | 18:12:15 | 01:40:20 | 00:00:00 | |
| BIOWL1-15 | 2026-09-02 12:26:45 | 56.36475 | 4.79716 | 156° | 13km/h | 21069m | 4.3m/s | -49.4°C | 0.2% | 48.9hPa | 2.6V | 18:12:15 | 01:40:14 | 00:00:00 | |
| DL1XH-west | 2026-09-02 12:26:38 | 56.36486 | 4.79688 | 119° | 22km/h | 21043m | 6.1m/s | -49.4°C | 0.2% | 49.1hPa | 2.6V | 18:12:15 | 01:40:09 | 00:00:00 | |
| BIOWL1-15 | 2026-09-02 12:26:32 | 56.36512 | 4.79630 | 133° | 22km/h | 21006m | 5.3m/s | -49.5°C | 0.2% | 49.4hPa | 2.6V | 18:12:15 | 01:40:02 | 00:00:00 | |
| DL1XH-west | 2026-09-02 12:26:28 | 56.36525 | 4.79598 | 122° | 26km/h | 20987m | 4.4m/s | -49.5°C | 0.3% | 49.5hPa | 2.6V | 18:12:15 | 01:39:58 | 00:00:00 | |
| BIOWL1-15 | 2026-09-02 12:26:21 | 56.36569 | 4.79447 | 108° | 31km/h | 20923m | 4.4m/s | -49.7°C | 0.3% | 50hPa | 2.6V | 18:12:15 | 01:39:45 | 00:00:00 | |
| DL1XH-west | 2026-09-02 12:26:16 | 56.36563 | 4.79473 | 118° | 33km/h | 20933m | 5.1m/s | -49.8°C | 0.1% | 49.9hPa | 2.6V | 18:12:15 | 01:39:47 | 00:00:00 | |
| BIOWL1-15 | 2026-09-02 12:26:07 | 56.36580 | 4.79356 | 101° | 31km/h | 20888m | 3.2m/s | -49.5°C | 0.2% | 50.3hPa | 2.6V | 18:12:15 | 01:39:38 | 00:00:00 | |
| DL1XH-west | 2026-09-02 12:26:06 | 56.36582 | 4.79342 | 99° | 33km/h | 20884m | 4.9m/s | -49.5°C | 0.2% | 50.3hPa | 2.6V | 18:12:15 | 01:39:37 | 00:00:00 | |
| BIOWL1-15 | 2026-09-02 12:25:56 | 56.36595 | 4.79159 | 90° | 33km/h | 20818m | 5.1m/s | -50°C | 0.3% | 50.8hPa | 2.6V | 18:12:15 | 01:39:23 | 00:00:00 | |
| DL1XH-west | 2026-09-02 12:25:55 | 56.36594 | 4.79198 | 98° | 24km/h | 20831m | 4.5m/s | -49.9°C | 0.2% | 50.7hPa | 2.6V | 18:12:15 | 01:39:26 | 00:00:00 | |
| BIOWL1-15 | 2026-09-02 12:25:45 | 56.36594 | 4.79053 | 93° | 33km/h | 20786m | 4m/s | -50.2°C | 0.4% | 51.1hPa | 2.5V | 18:12:15 | 01:39:16 | 00:00:00 | |
| DJ2DS-15 | 2026-09-02 12:25:44 | 56.36594 | 4.79038 | 90° | 31km/h | 20782m | 5.5m/s | -50.1°C | 3.5% | 51.0hPa | 2.5V | 00:00:00 | 01:39:15 | 00:00:00 | |
| GOEST3-10 | 2026-09-02 12:25:43 | 56.36593 | 4.79023 | 87° | 33km/h | 20776m | 4.3m/s | -50.1°C | 3.5% | 51.1hPa | 2.6V | 00:00:00 | 00:00:00 | 00:00:00 | |
| DM0DOS-11 | 2026-09-02 12:25:41 | 56.36584 | 4.78926 | 73° | 29km/h | 20741m | 4.1m/s | -50.1°C | 3.5% | 51.4hPa | 2.6V | 08:30:00 | 01:39:07 | 00:00:00 | |
| DL1XH-west | 2026-09-02 12:25:34 | 56.36580 | 4.78901 | 68° | 29km/h | 20733m | 5.1m/s | -50.1°C | 0.2% | 51.5hPa | 2.5V | 18:12:15 | 01:39:05 | 00:00:00 | |
| BIOWL1-15 | 2026-09-02 12:25:25 | 56.36545 | 4.78731 | 60° | 22km/h | 20672m | 4.2m/s | -50.3°C | 0.2% | 52hPa | 2.6V | 18:12:15 | 01:38:52 | 00:00:00 | |
| DL1XH-west | 2026-09-02 12:25:23 | 56.36551 | 4.78751 | 67° | 27km/h | 20681m | 5.1m/s | -50.2°C | 0.3% | 51.9hPa | 2.5V | 18:12:15 | 01:38:54 | 00:00:00 | |
| DL1XH-west | 2026-09-02 12:25:13 | 56.36519 | 4.78658 | 55° | 18km/h | 20630m | 4.6m/s | -50.5°C | 0.4% | 52.3hPa | 2.5V | 18:12:15 | 01:38:43 | 00:00:00 | |
| BIOWL1-15 | 2026-09-02 12:25:12 | 56.36506 | 4.78627 | 56° | 16km/h | 20606m | 4.8m/s | -50.4°C | 0.3% | 52.5hPa | 2.5V | 18:12:15 | 01:38:38 | 00:00:00 | |
| BIOWL1-15 | 2026-09-02 12:25:02 | 56.36494 | 4.78588 | 69° | 22km/h | 20583m | 4m/s | -50.2°C | 0.4% | 52.7hPa | 2.6V | 18:12:15 | 01:38:33 | 00:00:00 | |
| DL1XH-west | 2026-09-02 12:24:52 | 56.36472 | 4.78509 | 65° | 15km/h | 20535m | 4.1m/s | -50°C | 0.4% | 53.1hPa | 2.5V | 18:12:15 | 01:38:23 | 00:00:00 | |
| BIOWL1-15 | 2026-09-02 12:24:52 | 56.36465 | 4.78486 | 64° | 22km/h | 20522m | 4.6m/s | -49.9°C | 0.1% | 53.2hPa | 2.6V | 18:12:15 | 01:38:20 | 00:00:00 | |
| BIOWL1-15 | 2026-09-02 12:24:41 | 56.36452 | 4.78408 | 63° | 16km/h | 20483m | 5.2m/s | -49.7°C | 0.3% | 53.5hPa | 2.6V | 18:12:15 | 01:38:12 | 00:00:00 | |
| BIOWL1-15 | 2026-09-02 12:24:32 | 56.36435 | 4.78255 | 84° | 18km/h | 20401m | 4.5m/s | -49.7°C | 0.2% | 54.2hPa | 2.5V | 18:12:15 | 01:37:54 | 00:00:00 | |
| DL1XH-west | 2026-09-02 12:24:31 | 56.36440 | 4.78328 | 85° | 24km/h | 20437m | 4.3m/s | -49.7°C | 0.2% | 53.9hPa | 2.6V | 18:12:15 | 01:38:02 | 00:00:00 | |
| DL1XH-west | 2026-09-02 12:24:20 | 56.36434 | 4.78228 | 94° | 22km/h | 20387m | 4.8m/s | -49.7°C | 0.3% | 54.3hPa | 2.6V | 18:12:15 | 01:37:51 | 00:00:00 | |
| BIOWL1-15 | 2026-09-02 12:24:16 | 56.36435 | 4.78185 | 89° | 26km/h | 20368m | 4.6m/s | -49.7°C | 0.3% | 54.5hPa | 2.6V | 18:12:15 | 01:37:47 | 00:00:00 | |
| DL1XH-west | 2026-09-02 12:24:10 | 56.36431 | 4.78115 | 79° | 26km/h | 20340m | 4.9m/s | -49.8°C | 0.3% | 54.7hPa | 2.6V | 18:12:15 | 01:37:41 | 00:00:00 | |
| BIOWL1-15 | 2026-09-02 12:24:06 | 56.36429 | 4.78069 | 84° | 26km/h | 20322m | 3.8m/s | -50°C | 0.4% | 54.9hPa | 2.5V | 18:12:15 | 01:37:37 | 00:00:00 | |
| DL1XH-west | 2026-09-02 12:24:00 | 56.36431 | 4.77990 | 88° | 26km/h | 20290m | 4.3m/s | -50.1°C | 0.4% | 55.1hPa | 2.6V | 18:12:15 | 01:37:30 | 00:00:00 | |
| BIOWL1-15 | 2026-09-02 12:23:55 | 56.36430 | 4.77937 | 84° | 31km/h | 20271m | 5.5m/s | -50°C | 0.3% | 55.3hPa | 2.6V | 18:12:15 | 01:37:26 | 00:00:00 | |
| DL1XH-west | 2026-09-02 12:23:50 | 56.36431 | 4.77840 | 96° | 40km/h | 20243m | 4.8m/s | -49.8°C | 0.3% | 55.5hPa | 2.6V | 18:12:15 | 01:37:20 | 00:00:00 | |
| BIOWL1-15 | 2026-09-02 12:23:45 | 56.36438 | 4.77705 | 102° | 29km/h | 20201m | 4.3m/s | -49.5°C | 0.4% | 55.9hPa | 2.5V | 18:12:15 | 01:37:11 | 00:00:00 | |
| DL1XH-west | 2026-09-02 12:23:39 | 56.36440 | 4.77692 | 101° | 31km/h | 20196m | 4.7m/s | -49.5°C | 0.3% | 56hPa | 2.6V | 18:12:15 | 01:37:10 | 00:00:00 | |
| BIOWL1-15 | 2026-09-02 12:23:33 | 56.36443 | 4.77596 | 90° | 35km/h | 20167m | 5.6m/s | -49.4°C | 0.2% | 56.1hPa | 2.6V | 18:12:15 | 01:37:04 | 00:00:00 | |
| DL1XH-west | 2026-09-02 12:23:29 | 56.36441 | 4.77525 | 91° | 29km/h | 20144m | 4.8m/s | -49.2°C | 0.2% | 56.4hPa | 2.6V | 18:12:15 | 01:36:59 | 00:00:00 | |
| BIOWL1-15 | 2026-09-02 12:23:22 | 56.36443 | 4.77435 | 89° | 38km/h | 20116m | 5.5m/s | -49.1°C | 0.1% | 56.6hPa | 2.6V | 18:12:15 | 01:36:53 | 00:00:00 | |
| DL1XH-west | 2026-09-02 12:23:19 | 56.36441 | 4.77362 | 89° | 38km/h | 20098m | 4m/s | -49.2°C | 0.2% | 56.8hPa | 2.6V | 18:12:15 | 01:36:49 | 00:00:00 | |
| BIOWL1-15 | 2026-09-02 12:23:13 | 56.36437 | 4.77219 | 87° | 37km/h | 20055m | 5.2m/s | -49.2°C | 0.2% | 57.2hPa | 2.5V | 18:12:15 | 01:36:40 | 00:00:00 | |
| DL1XH-west | 2026-09-02 12:23:07 | 56.36436 | 4.77184 | 84° | 38km/h | 20045m | 5m/s | -49.5°C | 0.2% | 57.2hPa | 2.6V | 18:12:15 | 01:36:38 | 00:00:00 | |
| BIOWL1-15 | 2026-09-02 12:23:01 | 56.36430 | 4.77082 | 87° | 37km/h | 20016m | 4.7m/s | -50°C | 0.3% | 57.5hPa | 2.6V | 18:12:15 | 01:36:32 | 00:00:00 | |
| DL1XH-west | 2026-09-02 12:22:57 | 56.36431 | 4.77020 | 93° | 33km/h | 19996m | 5.5m/s | -49.9°C | 0.2% | 57.7hPa | 2.6V | 18:12:15 | 01:36:28 | 00:00:00 | |
| DL1XH-west | 2026-09-02 12:22:46 | 56.36425 | 4.76867 | 86° | 27km/h | 19944m | 4.2m/s | -49.9°C | 0.3% | 58.1hPa | 2.6V | 18:12:15 | 01:36:17 | 00:00:00 | |
| DM0DOS-11 | 2026-09-02 12:22:45 | 56.36418 | 4.76801 | 79° | 31km/h | 19920m | 4.3m/s | -49.9°C | 3.5% | 58.4hPa | 2.6V | 08:30:00 | 01:36:12 | 00:00:00 | |
| BIOWL1-15 | 2026-09-02 12:22:37 | 56.36391 | 4.76653 | 64° | 27km/h | 19869m | 5.1m/s | -49.7°C | 0.3% | 58.8hPa | 2.6V | 18:12:15 | 01:36:01 | 00:00:00 | |
| DL1XH-west | 2026-09-02 12:22:36 | 56.36403 | 4.76703 | 75° | 29km/h | 19889m | 3.8m/s | -49.7°C | 0.2% | 58.7hPa | 2.5V | 18:12:15 | 01:36:05 | 00:00:00 | |
| BIOWL1-15 | 2026-09-02 12:22:23 | 56.36368 | 4.76580 | 63° | 27km/h | 19836m | 5.2m/s | -49.6°C | 0.3% | 0hPa | 2.5V | 18:12:15 | 01:35:54 | 00:00:00 | |
| DL1XH-west | 2026-09-02 12:22:14 | 56.36324 | 4.76463 | 49° | 26km/h | 19782m | 4.9m/s | -49.6°C | 0.3% | 59.6hPa | 2.5V | 18:12:15 | 01:35:43 | 00:00:00 | |
| BIOWL1-15 | 2026-09-02 12:22:12 | 56.36310 | 4.76439 | 42° | 24km/h | 19769m | 5.1m/s | -49.5°C | 0.3% | 0hPa | 2.6V | 18:12:15 | 01:35:40 | 00:00:00 | |
| DL1XH-west | 2026-09-02 12:22:03 | 56.36284 | 4.76362 | 64° | 24km/h | 19729m | 4.9m/s | -49.2°C | 0.2% | 60.1hPa | 2.5V | 18:12:15 | 01:35:32 | 00:00:00 | |
| BIOWL1-15 | 2026-09-02 12:22:00 | 56.36272 | 4.76302 | 77° | 22km/h | 19696m | 4.9m/s | -48.9°C | 0.2% | 0hPa | 2.6V | 18:12:15 | 01:35:25 | 00:00:00 | |
| DL1XH-west | 2026-09-02 12:21:53 | 56.36271 | 4.76292 | 80° | 22km/h | 19691m | 4.7m/s | -48.9°C | 0.2% | 60.5hPa | 2.6V | 18:12:15 | 01:35:24 | 00:00:00 | |
| BIOWL1-15 | 2026-09-02 12:21:48 | 56.36262 | 4.76237 | 70° | 27km/h | 19668m | 4.1m/s | -48.8°C | 0% | 0hPa | 2.6V | 18:12:15 | 01:35:19 | 00:00:00 | |
| BIOWL9-15 | 2026-09-02 12:21:47 | 56.36260 | 4.76226 | 74° | 24km/h | 19663m | 5.1m/s | -48.7°C | 0.9% | 60.7hPa | 2.6V | 00:00:00 | 00:00:00 | 00:00:00 | |
| DL1XH-west | 2026-09-02 12:21:42 | 56.36261 | 4.76175 | 100° | 24km/h | 19639m | 5m/s | -48.5°C | 0.2% | 60.9hPa | 2.6V | 18:12:15 | 01:35:13 | 00:00:00 | |
| BIOWL1-15 | 2026-09-02 12:21:38 | 56.36264 | 4.76131 | 91° | 27km/h | 19620m | 4.1m/s | 0°C | 0% | 0hPa | 2.6V | 18:12:15 | 01:35:09 | 00:00:00 | |
| DL1XH-west | 2026-09-02 12:21:32 | 56.36264 | 4.76060 | 95° | 26km/h | 19589m | 5.8m/s | -48.5°C | 0.1% | 61.4hPa | 2.6V | 18:12:15 | 01:35:03 | 00:00:00 | |
| BIOWL1-15 | 2026-09-02 12:21:28 | 56.36269 | 4.75988 | 97° | 27km/h | 19561m | 5.2m/s | 0°C | 0% | 0hPa | 2.6V | 18:12:15 | 01:34:57 | 00:00:00 | |
| DL1XH-west | 2026-09-02 12:21:21 | 56.36274 | 4.75922 | 102° | 35km/h | 19538m | 3.4m/s | -49.2°C | 0.1% | 61.9hPa | 2.6V | 18:12:15 | 01:34:52 | 00:00:00 | |
| BIOWL1-15 | 2026-09-02 12:21:19 | 56.36285 | 4.75864 | 113° | 33km/h | 19519m | 4.8m/s | 0°C | 0% | 0hPa | 2.6V | 18:12:15 | 01:34:48 | 00:00:00 | |
| DL1XH-west | 2026-09-02 12:21:10 | 56.36307 | 4.75751 | 100° | 42km/h | 19486m | 3.9m/s | -50.2°C | 0.3% | 62.4hPa | 2.6V | 18:12:15 | 01:34:41 | 00:00:00 | |
| DL1XH-west | 2026-09-02 12:21:00 | 56.36330 | 4.75564 | 107° | 38km/h | 19441m | 4.9m/s | -50.7°C | 0.4% | 62.8hPa | 2.6V | 18:12:15 | 01:34:31 | 00:00:00 | |
| DL1XH-west | 2026-09-02 12:20:49 | 56.36341 | 4.75349 | 96° | 40km/h | 19389m | 4.8m/s | -50.5°C | 0.3% | 63.3hPa | 2.6V | 18:12:15 | 01:34:20 | 00:00:00 | |
| DL1XH-west | 2026-09-02 12:20:38 | 56.36354 | 4.75150 | 99° | 35km/h | 19339m | 3.7m/s | -50.2°C | 0.4% | 63.9hPa | 2.6V | 18:12:15 | 01:34:09 | 00:00:00 | |
| DM0DOS-11 | 2026-09-02 12:20:32 | 56.36372 | 4.74971 | 101° | 35km/h | 19287m | 3.9m/s | -50°C | 3.5% | 64.3hPa | 2.6V | 08:30:00 | 01:33:58 | 00:00:00 | |
| DL1XH-west | 2026-09-02 12:20:27 | 56.36372 | 4.74971 | 102° | 35km/h | 19287m | 3.9m/s | -50.1°C | 0.3% | 64.3hPa | 2.6V | 18:12:15 | 01:33:58 | 00:00:00 | |
| DL1XH-west | 2026-09-02 12:20:17 | 56.36401 | 4.74827 | 119° | 37km/h | 19241m | 4.1m/s | -50.1°C | 0.3% | 64.8hPa | 2.6V | 18:12:15 | 01:33:48 | 00:00:00 | |
| DL1XH-west | 2026-09-02 12:20:06 | 56.36444 | 4.74642 | 113° | 42km/h | 19191m | 4.7m/s | -50.1°C | 0.3% | 65.3hPa | 2.6V | 18:12:15 | 01:33:37 | 00:00:00 | |
| DL1XH-west | 2026-09-02 12:19:56 | 56.36482 | 4.74459 | 109° | 47km/h | 19144m | 5.3m/s | -50.2°C | 0.3% | 65.8hPa | 2.6V | 18:12:15 | 01:33:27 | 00:00:00 | |
| DL1XH-west | 2026-09-02 12:19:46 | 56.36523 | 4.74254 | 102° | 46km/h | 19097m | 4.6m/s | -50.2°C | 0.3% | 66.2hPa | 2.6V | 18:12:15 | 01:33:17 | 00:00:00 | |
| DL1XH-west | 2026-09-02 12:19:35 | 56.36550 | 4.74021 | 97° | 47km/h | 19048m | 4.7m/s | -50°C | 0.2% | 66.8hPa | 2.6V | 18:12:15 | 01:33:06 | 00:00:00 | |
| BIOWL1-15 | 2026-09-02 12:19:28 | 56.36535 | 4.73105 | 77° | 49km/h | 18850m | 3.5m/s | -50.7°C | 0.3% | 68.8hPa | 2.6V | 18:12:15 | 01:32:23 | 00:00:00 | |
| DL1XH-west | 2026-09-02 12:19:24 | 56.36567 | 4.73787 | 92° | 49km/h | 18998m | 4.8m/s | -50.1°C | 0.3% | 67.3hPa | 2.6V | 18:12:15 | 01:32:55 | 00:00:00 | |
| DL1XH-west | 2026-09-02 12:19:13 | 56.36573 | 4.73551 | 89° | 49km/h | 18949m | 4.1m/s | -50.4°C | 0.3% | 67.8hPa | 2.6V | 18:12:15 | 01:32:44 | 00:00:00 | |
| BIOWL9-15 | 2026-09-02 12:19:13 | 56.36563 | 4.73285 | 78° | 47km/h | 18893m | 4.4m/s | -50.4°C | 1.0% | 68.3hPa | 2.6V | 00:00:00 | 00:00:00 | 00:00:00 | |
| BIOWL1-15 | 2026-09-02 12:19:10 | 56.36487 | 4.72898 | 63° | 42km/h | 18801m | 5.4m/s | -50.7°C | 0.3% | 69.3hPa | 2.6V | 18:12:15 | 01:32:12 | 00:00:00 | |
| DL1XH-west | 2026-09-02 12:19:02 | 56.36565 | 4.73307 | 81° | 49km/h | 18897m | 4.3m/s | -50.4°C | 0.2% | 68.3hPa | 2.6V | 18:12:15 | 01:32:33 | 00:00:00 | |
| BIOWL1-15 | 2026-09-02 12:18:59 | 56.36373 | 4.72345 | 74° | 29km/h | 18625m | 5m/s | -50.1°C | 0.2% | 71.2hPa | 2.6V | 18:12:15 | 01:31:34 | 00:00:00 | |
| DL1XH-west | 2026-09-02 12:18:52 | 56.36532 | 4.73083 | 77° | 49km/h | 18846m | 5.2m/s | -50.8°C | 0.4% | 68.9hPa | 2.6V | 18:12:15 | 01:32:22 | 00:00:00 | |
| BIOWL1-15 | 2026-09-02 12:18:49 | 56.36367 | 4.72306 | 75° | 33km/h | 18612m | 4m/s | -50.1°C | 0.2% | 71.4hPa | 2.5V | 18:12:15 | 01:31:31 | 00:00:00 | |
| DJ2DS-15 | 2026-09-02 12:18:44 | 56.36501 | 4.72950 | 64° | 38km/h | 18815m | 4.0m/s | -50.7°C | 3.6% | 69.1hPa | 2.5V | 00:00:00 | 01:32:15 | 00:00:00 | |
| DM0DOS-11 | 2026-09-02 12:18:43 | 56.36468 | 4.72833 | 58° | 42km/h | 18783m | 3.2m/s | -50.6°C | 3.6% | 69.5hPa | 2.5V | 08:30:00 | 01:32:08 | 00:00:00 | |
| DL1XH-west | 2026-09-02 12:18:41 | 56.36483 | 4.72882 | 64° | 38km/h | 18796m | 4.2m/s | -50.6°C | 0.3% | 69.4hPa | 2.6V | 18:12:15 | 01:32:11 | 00:00:00 | |
| BIOWL1-15 | 2026-09-02 12:18:37 | 56.36358 | 4.72117 | 85° | 33km/h | 18555m | 4.3m/s | -50.7°C | 0.1% | 72hPa | 2.6V | 18:12:15 | 01:31:19 | 00:00:00 | |
| DL1XH-west | 2026-09-02 12:18:30 | 56.36437 | 4.72730 | 71° | 35km/h | 18751m | 5.1m/s | -50.6°C | 0.4% | 69.9hPa | 2.6V | 18:12:15 | 01:32:01 | 00:00:00 | |
| BIOWL1-15 | 2026-09-02 12:18:27 | 56.36353 | 4.72010 | 88° | 42km/h | 18528m | 4.4m/s | -51.2°C | 0.2% | 72.3hPa | 2.6V | 18:12:15 | 01:31:13 | 00:00:00 | |
| DL1XH-west | 2026-09-02 12:18:20 | 56.36405 | 4.72578 | 66° | 31km/h | 18704m | 5.1m/s | -50.3°C | 0.1% | 70.4hPa | 2.6V | 18:12:15 | 01:31:51 | 00:00:00 | |
| BIOWL1-15 | 2026-09-02 12:18:16 | 56.36365 | 4.71832 | 103° | 37km/h | 18484m | 4.1m/s | -51.4°C | 0.4% | 72.8hPa | 2.6V | 18:12:15 | 01:31:03 | 00:00:00 | |
| DL1XH-west | 2026-09-02 12:18:09 | 56.36382 | 4.72427 | 80° | 33km/h | 18653m | 4.9m/s | -50°C | 0.2% | 70.9hPa | 2.5V | 18:12:15 | 01:31:40 | 00:00:00 | |
| BIOWL1-15 | 2026-09-02 12:18:04 | 56.36368 | 4.71799 | 94° | 38km/h | 18474m | 4.3m/s | -51.5°C | 0.4% | 72.9hPa | 2.5V | 18:12:15 | 01:31:01 | 00:00:00 | |
| DL1XH-west | 2026-09-02 12:17:59 | 56.36363 | 4.72277 | 75° | 33km/h | 18602m | 4.2m/s | -50.1°C | 0.2% | 71.5hPa | 2.6V | 18:12:15 | 01:31:29 | 00:00:00 | |
| BIOWL1-15 | 2026-09-02 12:17:49 | 56.36382 | 4.71579 | 94° | 47km/h | 18421m | 4.9m/s | -51.5°C | 0.5% | 73.5hPa | 2.5V | 18:12:15 | 01:30:49 | 00:00:00 | |
| DL1XH-west | 2026-09-02 12:17:49 | 56.36357 | 4.72102 | 84° | 35km/h | 18550m | 4.1m/s | -50.7°C | 0.3% | 72hPa | 2.6V | 18:12:15 | 01:31:18 | 00:00:00 | |
| DL1XH-west | 2026-09-02 12:17:37 | 56.36357 | 4.71900 | 101° | 38km/h | 18501m | 4.8m/s | -51.4°C | 0.4% | 72.6hPa | 2.5V | 18:12:15 | 01:31:07 | 00:00:00 | |
| DL1XH-west | 2026-09-02 12:17:27 | 56.36371 | 4.71713 | 97° | 40km/h | 18451m | 3.9m/s | -51.6°C | 0.4% | 73.2hPa | 2.5V | 18:12:15 | 01:30:56 | 00:00:00 | |
| DJ2DS-15 | 2026-09-02 12:17:24 | 56.36372 | 4.71695 | 100° | 44km/h | 18447m | 4.9m/s | -51.6°C | 3.8% | 73.2hPa | 2.6V | 00:00:00 | 01:30:55 | 00:00:00 | |
| BIOWL1-15 | 2026-09-02 12:17:14 | 56.36367 | 4.70985 | 92° | 38km/h | 18280m | 5.3m/s | -51.2°C | 0.4% | 75.1hPa | 2.6V | 18:12:15 | 01:30:18 | 00:00:00 | |
| DL1XH-west | 2026-09-02 12:17:14 | 56.36379 | 4.71495 | 79° | 47km/h | 18402m | 4.1m/s | -51.4°C | 0.4% | 73.8hPa | 2.6V | 18:12:15 | 01:30:45 | 00:00:00 | |
| DL1XH-west | 2026-09-02 12:17:04 | 56.36369 | 4.71201 | 83° | 44km/h | 18333m | 4.3m/s | -51.4°C | 0.4% | 74.5hPa | 2.6V | 18:12:15 | 01:30:30 | 00:00:00 | |
| BIOWL1-15 | 2026-09-02 12:17:02 | 56.36397 | 4.70550 | 100° | 51km/h | 18171m | 5.5m/s | -51.4°C | 0.4% | 76.4hPa | 2.5V | 18:12:15 | 01:29:55 | 00:00:00 | |
| DL1XH-west | 2026-09-02 12:16:52 | 56.36365 | 4.71057 | 95° | 38km/h | 18299m | 4.3m/s | -51.3°C | 0.4% | 74.9hPa | 2.5V | 18:12:15 | 01:30:22 | 00:00:00 | |
| BIOWL1-15 | 2026-09-02 12:16:50 | 56.36414 | 4.70293 | 96° | 47km/h | 18113m | 3.9m/s | -50.9°C | 0.4% | 77.1hPa | 2.5V | 18:12:15 | 01:29:43 | 00:00:00 | |
| DL1XH-west | 2026-09-02 12:16:41 | 56.36375 | 4.70822 | 95° | 42km/h | 18238m | 4m/s | -51°C | 0.4% | 75.6hPa | 2.6V | 18:12:15 | 01:30:09 | 00:00:00 | |
| DL1XH-west | 2026-09-02 12:16:30 | 56.36386 | 4.70658 | 98° | 46km/h | 18194m | 4m/s | -51.5°C | 0.4% | 76.1hPa | 2.5V | 18:12:15 | 01:30:00 | 00:00:00 | |
| DM0DOS-11 | 2026-09-02 12:16:29 | 56.36392 | 4.70594 | 102° | 49km/h | 18180m | 4.5m/s | -51.4°C | 3.7% | 76.3hPa | 2.6V | 08:30:00 | 01:29:57 | 00:00:00 | |
| DJ2DS-15 | 2026-09-02 12:16:24 | 56.36397 | 4.70549 | 101° | 46km/h | 18171m | 5.4m/s | -51.3°C | 3.7% | 76.3hPa | 2.5V | 00:00:00 | 01:29:55 | 00:00:00 | |
| BIOWL1-15 | 2026-09-02 12:16:19 | 56.36424 | 4.69970 | 85° | 37km/h | 18030m | 5.1m/s | -50.5°C | 0.4% | 78.1hPa | 2.5V | 18:12:15 | 01:29:26 | 00:00:00 | |
| DL1XH-west | 2026-09-02 12:16:19 | 56.36409 | 4.70378 | 96° | 46km/h | 18132m | 5.3m/s | -51.1°C | 0.4% | 76.8hPa | 2.5V | 18:12:15 | 01:29:47 | 00:00:00 | |
| DL1XH-west | 2026-09-02 12:16:08 | 56.36421 | 4.70174 | 92° | 42km/h | 18084m | 5.1m/s | -50.8°C | 0.4% | 77.4hPa | 2.5V | 18:12:15 | 01:29:37 | 00:00:00 | |
| DL1XH-west | 2026-09-02 12:15:57 | 56.36425 | 4.70006 | 89° | 42km/h | 18039m | 4.6m/s | -50.6°C | 0.3% | 78hPa | 2.6V | 18:12:15 | 01:29:28 | 00:00:00 | |
| BIOWL1-15 | 2026-09-02 12:15:53 | 56.36405 | 4.69736 | 72° | 38km/h | 17963m | 4.1m/s | -50.2°C | 0.3% | 78.9hPa | 2.6V | 18:12:15 | 01:29:12 | 00:00:00 | |
| DL1XH-west | 2026-09-02 12:15:47 | 56.36414 | 4.69803 | 83° | 38km/h | 17983m | 5.4m/s | -50.3°C | 0.4% | 78.7hPa | 2.5V | 18:12:15 | 01:29:16 | 00:00:00 | |
| DJ2DS-15 | 2026-09-02 12:15:44 | 56.36412 | 4.69786 | 80° | 37km/h | 17978m | 4.3m/s | -50.2°C | 3.6% | 78.7hPa | 2.5V | 00:00:00 | 01:29:15 | 00:00:00 | |
| BIOWL1-15 | 2026-09-02 12:15:42 | 56.36375 | 4.69491 | 77° | 37km/h | 17892m | 4.2m/s | -49.9°C | 0.2% | 79.8hPa | 2.6V | 18:12:15 | 01:28:57 | 00:00:00 | |
| DL1XH-west | 2026-09-02 12:15:35 | 56.36386 | 4.69604 | 82° | 38km/h | 17925m | 5.4m/s | -50.1°C | 0.3% | 79.4hPa | 2.5V | 18:12:15 | 01:29:04 | 00:00:00 | |
| BIOWL1-15 | 2026-09-02 12:15:29 | 56.36349 | 4.69122 | 80° | 35km/h | 17785m | 4.3m/s | -49.9°C | 0.2% | 81.1hPa | 2.6V | 18:12:15 | 01:28:34 | 00:00:00 | |
| DL1XH-west | 2026-09-02 12:15:24 | 56.36371 | 4.69459 | 80° | 35km/h | 17883m | 5m/s | -49.9°C | 0.3% | 79.9hPa | 2.5V | 18:12:15 | 01:28:55 | 00:00:00 | |
| DL1XH-west | 2026-09-02 12:15:14 | 56.36360 | 4.69268 | 82° | 35km/h | 17826m | 5.4m/s | -49.8°C | 0.2% | 80.6hPa | 2.5V | 18:12:15 | 01:28:43 | 00:00:00 | |
| DL1XH-west | 2026-09-02 12:15:02 | 56.36347 | 4.69107 | 81° | 35km/h | 17781m | 3.9m/s | -50°C | 0.2% | 81.1hPa | 2.5V | 18:12:15 | 01:28:33 | 00:00:00 | |
| BIOWL1-15 | 2026-09-02 12:14:57 | 56.36327 | 4.68980 | 66° | 35km/h | 17744m | 3.5m/s | -50.2°C | 0.3% | 81.6hPa | 2.6V | 18:12:15 | 01:28:25 | 00:00:00 | |
| DL1XH-west | 2026-09-02 12:14:52 | 56.36319 | 4.68936 | 73° | 33km/h | 17731m | 4.6m/s | -50.2°C | 0.3% | 81.8hPa | 2.5V | 18:12:15 | 01:28:22 | 00:00:00 | |
| BIOWL1-15 | 2026-09-02 12:14:47 | 56.36308 | 4.68861 | 80° | 37km/h | 17707m | 5.2m/s | -50.4°C | 0.3% | 82.1hPa | 2.6V | 18:12:15 | 01:28:17 | 00:00:00 | |
| DL1XH-west | 2026-09-02 12:14:41 | 56.36300 | 4.68767 | 84° | 29km/h | 17679m | 3.7m/s | -50.4°C | 0.2% | 82.4hPa | 2.6V | 18:12:15 | 01:28:11 | 00:00:00 | |
| BIOWL1-15 | 2026-09-02 12:14:36 | 56.36305 | 4.68691 | 102° | 27km/h | 17651m | 4.1m/s | -50.4°C | 0.2% | 82.8hPa | 2.6V | 18:12:15 | 01:28:05 | 00:00:00 | |
| DL1XH-west | 2026-09-02 12:14:29 | 56.36315 | 4.68626 | 102° | 29km/h | 17628m | 3.7m/s | -50.3°C | 0.3% | 83.1hPa | 2.5V | 18:12:15 | 01:28:00 | 00:00:00 | |
| BIOWL1-15 | 2026-09-02 12:14:27 | 56.36323 | 4.68570 | 107° | 31km/h | 17611m | 3.8m/s | -50.3°C | 0.3% | 83.3hPa | 2.6V | 18:12:15 | 01:27:56 | 00:00:00 | |
| DL1XH-west | 2026-09-02 12:14:19 | 56.36349 | 4.68462 | 112° | 38km/h | 17573m | 4.8m/s | -50.2°C | 0.3% | 83.8hPa | 2.5V | 18:12:15 | 01:27:48 | 00:00:00 | |
| BIOWL1-15 | 2026-09-02 12:14:15 | 56.36359 | 4.68414 | 107° | 35km/h | 17559m | 4.5m/s | -50.1°C | 0.3% | 84hPa | 2.6V | 18:12:15 | 01:27:45 | 00:00:00 | |
| DL1XH-west | 2026-09-02 12:14:09 | 56.36378 | 4.68316 | 112° | 35km/h | 17526m | 4.7m/s | -49.9°C | 0.2% | 84.4hPa | 2.5V | 18:12:15 | 01:27:38 | 00:00:00 | |
| DM0DOS-11 | 2026-09-02 12:14:05 | 56.36387 | 4.68271 | 104° | 35km/h | 17513m | 4.2m/s | -49.8°C | 3.4% | 84.6hPa | 2.6V | 08:30:00 | 01:27:35 | 00:00:00 | |
| BIOWL1-15 | 2026-09-02 12:14:03 | 56.36389 | 4.68256 | 103° | 35km/h | 17508m | 4.1m/s | -49.8°C | 0.4% | 84.6hPa | 2.6V | 18:12:15 | 01:27:34 | 00:00:00 | |
| DL1XH-west | 2026-09-02 12:13:59 | 56.36401 | 4.68154 | 105° | 40km/h | 17480m | 4.7m/s | -49.6°C | 0.2% | 85hPa | 2.6V | 18:12:15 | 01:27:28 | 00:00:00 | |
| BIOWL1-15 | 2026-09-02 12:13:53 | 56.36419 | 4.68037 | 99° | 38km/h | 17447m | 4.5m/s | -49.7°C | 0.3% | 85.4hPa | 2.6V | 18:12:15 | 01:27:21 | 00:00:00 | |
| DL1XH-west | 2026-09-02 12:13:48 | 56.36424 | 4.67963 | 96° | 40km/h | 17428m | 4.9m/s | -49.8°C | 0.2% | 85.6hPa | 2.6V | 18:12:15 | 01:27:17 | 00:00:00 | |
| BIOWL1-15 | 2026-09-02 12:13:40 | 56.36452 | 4.67713 | 102° | 38km/h | 17364m | 4.4m/s | -49.5°C | 0.4% | 86.5hPa | 2.6V | 18:12:15 | 01:27:03 | 00:00:00 | |
| DL1XH-west | 2026-09-02 12:13:37 | 56.36444 | 4.67781 | 103° | 40km/h | 17382m | 4.4m/s | -49.7°C | 0.4% | 86.3hPa | 2.6V | 18:12:15 | 01:27:07 | 00:00:00 | |
| BIOWL1-15 | 2026-09-02 12:13:29 | 56.36459 | 4.67636 | 95° | 31km/h | 17341m | 4.9m/s | -49.3°C | 0.2% | 86.8hPa | 2.5V | 18:12:15 | 01:26:58 | 00:00:00 | |
| DL1XH-west | 2026-09-02 12:13:27 | 56.36460 | 4.67621 | 94° | 31km/h | 17336m | 3.6m/s | -49.2°C | 0.2% | 86.9hPa | 2.6V | 18:12:15 | 01:26:57 | 00:00:00 | |
| BIOWL1-15 | 2026-09-02 12:13:18 | 56.36473 | 4.67374 | 96° | 31km/h | 17257m | 4.1m/s | -49.1°C | 0.2% | 88hPa | 2.6V | 18:12:15 | 01:26:40 | 00:00:00 | |
| DL1XH-west | 2026-09-02 12:13:16 | 56.36473 | 4.67445 | 88° | 29km/h | 17280m | 4.2m/s | -49.2°C | 0.2% | 87.6hPa | 2.6V | 18:12:15 | 01:26:45 | 00:00:00 | |
| BIOWL1-15 | 2026-09-02 12:13:08 | 56.36475 | 4.67344 | 99° | 35km/h | 17248m | 4.2m/s | -49°C | 0.1% | 88.1hPa | 2.5V | 18:12:15 | 01:26:38 | 00:00:00 | |
| DL1XH-west | 2026-09-02 12:13:04 | 56.36481 | 4.67283 | 101° | 35km/h | 17229m | 4.7m/s | -48.9°C | 0.2% | 88.3hPa | 2.6V | 18:12:15 | 01:26:34 | 00:00:00 | |
| BIOWL1-15 | 2026-09-02 12:12:57 | 56.36488 | 4.67145 | 106° | 37km/h | 17188m | 4.5m/s | -49.3°C | 0.2% | 88.9hPa | 2.6V | 18:12:15 | 01:26:25 | 00:00:00 | |
| DL1XH-west | 2026-09-02 12:12:53 | 56.36491 | 4.67129 | 112° | 38km/h | 17183m | 3.7m/s | -49.4°C | 0.2% | 88.9hPa | 2.6V | 18:12:15 | 01:26:24 | 00:00:00 | |
| DL1XH-west | 2026-09-02 12:12:43 | 56.36514 | 4.66919 | 97° | 40km/h | 17125m | 4.4m/s | -49.4°C | 0.2% | 89.7hPa | 2.5V | 18:12:15 | 01:26:11 | 00:00:00 | |
| BIOWL1-15 | 2026-09-02 12:12:43 | 56.36536 | 4.66741 | 99° | 38km/h | 17081m | 4.6m/s | -49.4°C | 0.3% | 90.3hPa | 2.6V | 18:12:15 | 01:26:01 | 00:00:00 | |
| BIOWL1-15 | 2026-09-02 12:12:37 | 56.36541 | 4.66669 | 96° | 38km/h | 17063m | 3.9m/s | -49.3°C | 0.3% | 90.6hPa | 2.6V | 18:12:15 | 01:25:57 | 00:00:00 | |
| DL1XH-west | 2026-09-02 12:12:33 | 56.36532 | 4.66774 | 102° | 38km/h | 17090m | 5.2m/s | -49.4°C | 0.3% | 90.2hPa | 2.6V | 18:12:15 | 01:26:03 | 00:00:00 | |
| DL1XH-west | 2026-09-02 12:12:22 | 56.36547 | 4.66594 | 102° | 44km/h | 17046m | 3.3m/s | -49.2°C | 0.2% | 90.8hPa | 2.6V | 18:12:15 | 01:25:53 | 00:00:00 | |
| BIOWL1-15 | 2026-09-02 12:12:19 | 56.36594 | 4.66303 | 106° | 55km/h | 16979m | 3.5m/s | -49.1°C | 0.2% | 91.8hPa | 2.5V | 18:12:15 | 01:25:38 | 00:00:00 | |
| DL1XH-west | 2026-09-02 12:12:12 | 56.36575 | 4.66409 | 110° | 46km/h | 17002m | 4.1m/s | -49.1°C | 0.1% | 91.4hPa | 2.6V | 18:12:15 | 01:25:43 | 00:00:00 | |
| BIOWL1-15 | 2026-09-02 12:12:08 | 56.36612 | 4.66174 | 102° | 44km/h | 16954m | 4.4m/s | -49°C | 0.2% | 92.1hPa | 2.6V | 18:12:15 | 01:25:32 | 00:00:00 | |
| DL1XH-west | 2026-09-02 12:12:02 | 56.36609 | 4.66193 | 104° | 44km/h | 16958m | 4.1m/s | -49°C | 0.2% | 92.1hPa | 2.6V | 18:12:15 | 01:25:33 | 00:00:00 | |
| BIOWL1-15 | 2026-09-02 12:11:53 | 56.36643 | 4.65450 | 84° | 49km/h | 16804m | 4.9m/s | 0°C | 0% | 94.2hPa | 2.6V | 18:12:15 | 01:24:58 | 00:00:00 | |
| DL1XH-west | 2026-09-02 12:11:51 | 56.36633 | 4.65957 | 95° | 44km/h | 16910m | 3.6m/s | -48.8°C | 0.1% | 92.8hPa | 2.6V | 18:12:15 | 01:25:22 | 00:00:00 | |
| DJ2DS-15 | 2026-09-02 12:11:49 | 56.36639 | 4.65879 | 96° | 44km/h | 16894m | 4.5m/s | -48.9°C | 0.9% | 93.0hPa | 2.6V | 00:00:00 | 00:00:00 | 00:00:00 | |
| DM0DOS-11 | 2026-09-02 12:11:48 | 56.36639 | 4.65879 | 96° | 46km/h | 16894m | 4.5m/s | -48.9°C | 0% | 93hPa | 2.6V | 08:30:00 | 01:25:18 | 00:00:00 | |
| DJ2DS-15 | 2026-09-02 12:11:44 | 56.36642 | 4.65817 | 99° | 47km/h | 16880m | 3.7m/s | -49.0°C | 3.4% | 93.1hPa | 2.6V | 00:00:00 | 01:25:15 | 08:30:00 | |
| BIOWL1-15 | 2026-09-02 12:11:42 | 56.36637 | 4.65358 | 81° | 53km/h | 16788m | 4.1m/s | 0°C | 0% | 94.5hPa | 2.6V | 18:12:15 | 01:24:54 | 00:00:00 | |
| DL1XH-west | 2026-09-02 12:11:41 | 56.36647 | 4.65730 | 95° | 47km/h | 16862m | 4.6m/s | -49°C | 0.2% | 93.4hPa | 2.5V | 18:12:15 | 01:25:11 | 00:00:00 | |
| BIOWL1-15 | 2026-09-02 12:11:32 | 56.36624 | 4.65050 | 89° | 51km/h | 16725m | 4.3m/s | 0°C | 0% | 0hPa | 2.6V | 18:12:15 | 01:24:40 | 00:00:00 | |
| DL1XH-west | 2026-09-02 12:11:30 | 56.36645 | 4.65495 | 86° | 51km/h | 16813m | 4.3m/s | -48.8°C | 0.2% | 94.1hPa | 2.6V | 18:12:15 | 01:25:00 | 00:00:00 | |
| DL1XH-west | 2026-09-02 12:11:19 | 56.36629 | 4.65244 | 84° | 47km/h | 16766m | 3.6m/s | -48.5°C | 0.2% | 94.8hPa | 2.7V | 18:12:15 | 01:24:49 | 00:00:00 | |
| DL1XH-west | 2026-09-02 12:11:07 | 56.36624 | 4.65004 | 92° | 49km/h | 16717m | 4.2m/s | -48.6°C | 0.2% | 95.5hPa | 2.6V | 18:12:15 | 01:24:38 | 00:00:00 | |
| BIOWL1-15 | 2026-09-02 12:11:06 | 56.36624 | 4.64938 | 89° | 47km/h | 16704m | 3.7m/s | 0°C | 0% | 0hPa | 2.6V | 18:12:15 | 01:24:35 | 00:00:00 | |
| DL1XH-west | 2026-09-02 12:10:56 | 56.36621 | 4.64755 | 91° | 55km/h | 16670m | 5.1m/s | -48.7°C | 0.2% | 96.2hPa | 2.6V | 18:12:15 | 01:24:27 | 00:00:00 | |
| BIOWL1-15 | 2026-09-02 12:10:53 | 56.36627 | 4.64551 | 95° | 55km/h | 16633m | 3.7m/s | 0°C | 0% | 0hPa | 2.6V | 18:12:15 | 01:24:19 | 00:00:00 | |
| DL1XH-west | 2026-09-02 12:10:45 | 56.36628 | 4.64476 | 89° | 55km/h | 16621m | 3.3m/s | -49.3°C | 0.3% | 96.9hPa | 2.7V | 18:12:15 | 01:24:16 | 00:00:00 | |
| DL1XH-west | 2026-09-02 12:10:35 | 56.36633 | 4.64198 | 96° | 55km/h | 16571m | 4.4m/s | -49.7°C | 0.3% | 97.7hPa | 2.6V | 18:12:15 | 01:24:05 | 00:00:00 | |
| DL1XH-west | 2026-09-02 12:10:25 | 56.36636 | 4.63964 | 93° | 53km/h | 16527m | 4.2m/s | -50°C | 0.3% | 98.3hPa | 2.7V | 18:12:15 | 01:23:55 | 00:00:00 | |
| DL1XH-west | 2026-09-02 12:10:13 | 56.36648 | 4.63724 | 96° | 49km/h | 16477m | 3.8m/s | -50°C | 0.2% | 99.1hPa | 2.6V | 18:12:15 | 01:23:44 | 00:00:00 | |
| DL1XH-west | 2026-09-02 12:10:03 | 56.36669 | 4.63475 | 99° | 51km/h | 16429m | 4m/s | -50.5°C | 0.4% | 99.8hPa | 2.6V | 18:12:15 | 01:23:33 | 00:00:00 | |
| DL1XH-west | 2026-09-02 12:09:52 | 56.36693 | 4.63252 | 95° | 49km/h | 16385m | 3.9m/s | -50.9°C | 0.5% | 100.5hPa | 2.6V | 18:12:15 | 01:23:23 | 00:00:00 | |
| DL1XH-west | 2026-09-02 12:09:41 | 56.36709 | 4.62998 | 101° | 49km/h | 16337m | 5m/s | -50.8°C | 0.5% | 101.2hPa | 2.6V | 18:12:15 | 01:23:12 | 00:00:00 | |
| DL1XH-west | 2026-09-02 12:09:31 | 56.36741 | 4.62739 | 106° | 51km/h | 16289m | 4.3m/s | -50.8°C | 0.5% | 102hPa | 2.7V | 18:12:15 | 01:23:01 | 00:00:00 | |
| DL1XH-west | 2026-09-02 12:09:20 | 56.36778 | 4.62519 | 103° | 53km/h | 16244m | 4.4m/s | -50.6°C | 0.5% | 102.7hPa | 2.6V | 18:12:15 | 01:22:51 | 00:00:00 | |
| DL1XH-west | 2026-09-02 12:09:10 | 56.36812 | 4.62284 | 101° | 55km/h | 16201m | 4.6m/s | -50.6°C | 0.5% | 103.4hPa | 2.6V | 18:12:15 | 01:22:41 | 00:00:00 | |
| DM0DOS-11 | 2026-09-02 12:09:05 | 56.36829 | 4.62107 | 98° | 60km/h | 16170m | 4.3m/s | -50.4°C | 0% | 103.9hPa | 2.7V | 08:30:00 | 01:22:34 | 00:00:00 | |
| DL1XH-west | 2026-09-02 12:09:00 | 56.36838 | 4.62025 | 100° | 60km/h | 16157m | 4.8m/s | -50.4°C | 0.4% | 104.1hPa | 2.6V | 18:12:15 | 01:22:31 | 00:00:00 | |
| DL1XH-west | 2026-09-02 12:08:49 | 56.36873 | 4.61738 | 101° | 66km/h | 16109m | 3.7m/s | -50.4°C | 0.4% | 104.9hPa | 2.6V | 18:12:15 | 01:22:20 | 00:00:00 | |
| DJ2DS-15 | 2026-09-02 12:08:48 | 56.36880 | 4.61679 | 101° | 66km/h | 16100m | 3.9m/s | -50.3°C | 1.2% | 105.0hPa | 2.6V | 00:00:00 | 00:00:00 | 00:00:00 | |
| DJ2DS-15 | 2026-09-02 12:08:44 | 56.36890 | 4.61590 | 102° | 64km/h | 16087m | 4.5m/s | -50.3°C | 3.6% | 105.2hPa | 2.6V | 00:00:00 | 01:22:15 | 08:30:00 | |
| DM0DOS-11 | 2026-09-02 12:08:40 | 56.36913 | 4.61358 | 98° | 68km/h | 16053m | 4.9m/s | -50.4°C | 0% | 105.8hPa | 2.7V | 08:30:00 | 01:22:07 | 00:00:00 | |
| DL1XH-west | 2026-09-02 12:08:39 | 56.36906 | 4.61447 | 98° | 66km/h | 16066m | 3.5m/s | -50.3°C | 0.3% | 105.5hPa | 2.6V | 18:12:15 | 01:22:10 | 00:00:00 | |
| DL1XH-west | 2026-09-02 12:08:28 | 56.36940 | 4.61135 | 104° | 62km/h | 16018m | 4.2m/s | -50.5°C | 0.5% | 106.3hPa | 2.6V | 18:12:15 | 01:21:59 | 00:00:00 | |
| DL1XH-west | 2026-09-02 12:08:18 | 56.36963 | 4.60824 | 98° | 62km/h | 15971m | 3.7m/s | -50.3°C | 0.4% | 107.1hPa | 2.6V | 18:12:15 | 01:21:48 | 00:00:00 | |
| DM0DOS-11 | 2026-09-02 12:08:15 | 56.36970 | 4.60736 | 98° | 68km/h | 15958m | 4.2m/s | -50.2°C | 0% | 107.3hPa | 2.7V | 08:30:00 | 01:21:45 | 00:00:00 | |
| DJ2DS-15 | 2026-09-02 12:08:11 | 56.36977 | 4.60645 | 97° | 66km/h | 15946m | 4.0m/s | -50.1°C | 1.2% | 107.5hPa | 2.7V | 00:00:00 | 00:00:00 | 00:00:00 | |
| DM0DOS-11 | 2026-09-02 12:08:10 | 56.36993 | 4.60426 | 95° | 64km/h | 15912m | 3.9m/s | -49.9°C | 0% | 108.1hPa | 2.7V | 08:30:00 | 01:21:34 | 00:00:00 | |
| DL1XH-west | 2026-09-02 12:08:06 | 56.36987 | 4.60508 | 99° | 58km/h | 15925m | 4.2m/s | -50°C | 0.4% | 107.9hPa | 2.6V | 18:12:15 | 01:21:37 | 00:00:00 | |
| DL1XH-west | 2026-09-02 12:07:55 | 56.37007 | 4.60186 | 98° | 64km/h | 15880m | 3.3m/s | -49.8°C | 0.3% | 108.6hPa | 2.7V | 18:12:15 | 01:21:26 | 00:00:00 | |
| DM0DOS-11 | 2026-09-02 12:07:48 | 56.37019 | 4.59960 | 91° | 68km/h | 15848m | 3.9m/s | -50°C | 0% | 109.2hPa | 2.7V | 08:30:00 | 01:21:18 | 00:00:00 | |
| DL1XH-west | 2026-09-02 12:07:45 | 56.37021 | 4.59867 | 93° | 69km/h | 15836m | 2.8m/s | -50°C | 0.4% | 109.4hPa | 2.6V | 18:12:15 | 01:21:15 | 00:00:00 | |
| DL1XH-west | 2026-09-02 12:07:34 | 56.37028 | 4.59532 | 91° | 66km/h | 15790m | 3.6m/s | -49.8°C | 0.3% | 110.1hPa | 2.6V | 18:12:15 | 01:21:04 | 00:00:00 | |
| DL1XH-west | 2026-09-02 12:07:23 | 56.37040 | 4.59207 | 98° | 66km/h | 15744m | 3.5m/s | -49.8°C | 0.4% | 110.9hPa | 2.6V | 18:12:15 | 01:20:53 | 00:00:00 | |
| DL1XH-west | 2026-09-02 12:07:13 | 56.37059 | 4.58924 | 96° | 62km/h | 15702m | 4.6m/s | -49.6°C | 0.3% | 111.6hPa | 2.6V | 18:12:15 | 01:20:43 | 00:00:00 | |
| DL1XH-west | 2026-09-02 12:07:03 | 56.37074 | 4.58616 | 95° | 66km/h | 15657m | 2.7m/s | -50.5°C | 0.4% | 112.4hPa | 2.6V | 18:12:15 | 01:20:32 | 00:00:00 | |
| DL1XH-west | 2026-09-02 12:06:52 | 56.37080 | 4.58344 | 91° | 68km/h | 15622m | 3.2m/s | -50.7°C | 0.4% | 113hPa | 2.7V | 18:12:15 | 01:20:23 | 00:00:00 | |
| DL1XH-west | 2026-09-02 12:06:42 | 56.37085 | 4.57986 | 93° | 62km/h | 15571m | 4.9m/s | -50.5°C | 0.4% | 113.9hPa | 2.7V | 18:12:15 | 01:20:11 | 00:00:00 | |
| DM0DOS-11 | 2026-09-02 12:06:41 | 56.37090 | 4.57873 | 94° | 62km/h | 15554m | 4.4m/s | -50.4°C | 0% | 114.2hPa | 2.7V | 08:30:00 | 01:20:07 | 00:00:00 | |
| DL1XH-west | 2026-09-02 12:06:31 | 56.37099 | 4.57678 | 97° | 58km/h | 15526m | 4.5m/s | -50.5°C | 0.4% | 114.7hPa | 2.6V | 18:12:15 | 01:20:00 | 00:00:00 | |
| DM0DOS-11 | 2026-09-02 12:06:28 | 56.37104 | 4.57596 | 94° | 62km/h | 15513m | 3.4m/s | -50.6°C | 0% | 114.9hPa | 2.7V | 08:30:00 | 01:19:57 | 00:00:00 | |
| DL1XH-west | 2026-09-02 12:06:20 | 56.37104 | 4.57405 | 84° | 60km/h | 15485m | 4.1m/s | -50.7°C | 0.5% | 115.4hPa | 2.7V | 18:12:15 | 01:19:50 | 00:00:00 | |
| DL1XH-west | 2026-09-02 12:06:10 | 56.37091 | 4.57137 | 84° | 55km/h | 15444m | 3.8m/s | -50.6°C | 0.5% | 116.2hPa | 2.6V | 18:12:15 | 01:19:40 | 00:00:00 | |
| DM0DOS-11 | 2026-09-02 12:06:07 | 56.37083 | 4.57011 | 84° | 57km/h | 15423m | 4.2m/s | -50.6°C | 0% | 0hPa | 2.7V | 08:30:00 | 01:19:35 | 00:00:00 | |
| DL1XH-west | 2026-09-02 12:05:59 | 56.37075 | 4.56855 | 86° | 57km/h | 15399m | 4.4m/s | -50.5°C | 0.4% | 117hPa | 2.7V | 18:12:15 | 01:19:29 | 00:00:00 | |
| DL1XH-west | 2026-09-02 12:05:49 | 56.37062 | 4.56589 | 86° | 53km/h | 15354m | 5m/s | -50.4°C | 0.4% | 117.8hPa | 2.6V | 18:12:15 | 01:19:18 | 00:00:00 | |
| DJ2DS-15 | 2026-09-02 12:05:47 | 56.37062 | 4.56589 | 85° | 53km/h | 15354m | 5.0m/s | -50.4°C | 1.2% | 117.8hPa | 2.7V | 00:00:00 | 00:00:00 | 00:00:00 | |
| DL1XH-west | 2026-09-02 12:05:38 | 56.37054 | 4.56378 | 79° | 49km/h | 15317m | 4.5m/s | -50.4°C | 0.5% | 118.4hPa | 2.7V | 18:12:15 | 01:19:09 | 00:00:00 | |
| DM0DOS-11 | 2026-09-02 12:05:31 | 56.37043 | 4.56118 | 83° | 44km/h | 15269m | 4.2m/s | -50.3°C | 0% | 0hPa | 2.6V | 00:00:00 | 01:18:57 | 00:00:00 | |
| DL1XH-west | 2026-09-02 12:05:28 | 56.37043 | 4.56118 | 83° | 44km/h | 15269m | 4.2m/s | -50.3°C | 0.4% | 119.3hPa | 2.6V | 18:12:15 | 01:18:57 | 00:00:00 | |
| DJ2DS-15 | 2026-09-02 12:05:24 | 56.37041 | 4.56078 | 83° | 47km/h | 15262m | 3.6m/s | -50.2°C | 3.6% | 119.4hPa | 2.7V | 00:00:00 | 01:18:55 | 00:00:00 | |
| DM0DOS-11 | 2026-09-02 12:05:21 | 56.37038 | 4.55915 | 90° | 49km/h | 15229m | 4.3m/s | -50°C | 0% | 0hPa | 2.7V | 00:00:00 | 01:18:47 | 00:00:00 | |
| DL1XH-west | 2026-09-02 12:05:18 | 56.37038 | 4.55893 | 89° | 49km/h | 15225m | 3.6m/s | -50°C | 0.5% | 120.1hPa | 2.6V | 18:12:15 | 01:18:46 | 00:00:00 | |
| DJ2DS-15 | 2026-09-02 12:05:11 | 56.37039 | 4.55782 | 89° | 46km/h | 15203m | 4.6m/s | -49.8°C | 1.2% | 120.5hPa | 2.6V | 00:00:00 | 00:00:00 | 00:00:00 | |
| DM0DOS-11 | 2026-09-02 12:05:10 | 56.37040 | 4.55673 | 96° | 47km/h | 15183m | 4.6m/s | -49.7°C | 0% | 0hPa | 2.6V | 00:00:00 | 01:18:36 | 00:00:00 | |
| DL1XH-west | 2026-09-02 12:05:06 | 56.37039 | 4.55695 | 94° | 49km/h | 15187m | 3.5m/s | -49.7°C | 0.5% | 120.8hPa | 2.6V | 18:12:15 | 01:18:37 | 00:00:00 | |
| DJ2DS-15 | 2026-09-02 12:05:04 | 56.37042 | 4.55651 | 99° | 51km/h | 15179m | 3.2m/s | -49.6°C | 3.7% | 120.9hPa | 2.6V | 00:00:00 | 01:18:35 | 00:00:00 | |
| DM0DOS-11 | 2026-09-02 12:04:59 | 56.37055 | 4.55422 | 96° | 49km/h | 15138m | 3.8m/s | -49.3°C | 0% | 0hPa | 2.6V | 00:00:00 | 01:18:25 | 00:00:00 | |
| DL1XH-west | 2026-09-02 12:04:56 | 56.37054 | 4.55444 | 94° | 47km/h | 15142m | 3.5m/s | -49.3°C | 0.4% | 121.7hPa | 2.7V | 18:12:15 | 01:18:26 | 00:00:00 | |
| DM0DOS-11 | 2026-09-02 12:04:47 | 56.37082 | 4.55161 | 98° | 55km/h | 15091m | 4m/s | 0°C | 0% | 0hPa | 2.6V | 00:00:00 | 01:18:14 | 00:00:00 | |
| DL1XH-west | 2026-09-02 12:04:45 | 56.37080 | 4.55186 | 98° | 55km/h | 15096m | 4.6m/s | -48.9°C | 0.3% | 122.5hPa | 2.6V | 18:12:15 | 01:18:15 | 00:00:00 | |
| DL1XH-west | 2026-09-02 12:04:35 | 56.37103 | 4.54945 | 102° | 55km/h | 15055m | 4.3m/s | -48.6°C | 0.3% | 123.3hPa | 2.7V | 18:12:15 | 01:18:05 | 00:00:00 | |
| DM0DOS-11 | 2026-09-02 12:04:31 | 56.37118 | 4.54828 | 103° | 55km/h | 15034m | 4.2m/s | 0°C | 0% | 0hPa | 2.6V | 00:00:00 | 01:18:00 | 00:00:00 | |
| DL1XH-west | 2026-09-02 12:04:24 | 56.37134 | 4.54676 | 100° | 58km/h | 15010m | 3.4m/s | -48.5°C | 0.3% | 124.2hPa | 2.6V | 18:12:15 | 01:17:54 | 00:00:00 | |
| DL1XH-west | 2026-09-02 12:04:13 | 56.37182 | 4.54383 | 104° | 58km/h | 14962m | 3.8m/s | -48.7°C | 0.3% | 125.1hPa | 2.6V | 18:12:15 | 01:17:42 | 00:00:00 | |
| DL1XH-west | 2026-09-02 12:04:02 | 56.37218 | 4.54147 | 108° | 58km/h | 14925m | 3.5m/s | -48.6°C | 0.3% | 125.8hPa | 2.6V | 18:12:15 | 01:17:33 | 00:00:00 | |
| DL1XH-west | 2026-09-02 12:03:52 | 56.37261 | 4.53865 | 105° | 57km/h | 14882m | 3.4m/s | -48.8°C | 0.4% | 126.6hPa | 2.6V | 18:12:15 | 01:17:22 | 00:00:00 | |
| DL1XH-west | 2026-09-02 12:03:41 | 56.37298 | 4.53610 | 103° | 62km/h | 14842m | 4.6m/s | -48.6°C | 0.4% | 127.4hPa | 2.6V | 18:12:15 | 01:17:12 | 00:00:00 | |
| DM0DOS-11 | 2026-09-02 12:03:40 | 56.37315 | 4.53473 | 101° | 58km/h | 14819m | 3.8m/s | 0°C | 0% | 0hPa | 2.6V | 00:00:00 | 01:17:07 | 00:00:00 | |
| DL1XH-west | 2026-09-02 12:03:31 | 56.37330 | 4.53351 | 101° | 51km/h | 14798m | 3.5m/s | -48.7°C | 0.3% | 128.2hPa | 2.7V | 18:12:15 | 01:17:02 | 00:00:00 | |
| DL1XH-west | 2026-09-02 12:03:21 | 56.37359 | 4.53103 | 103° | 55km/h | 14756m | 5.2m/s | -48.6°C | 0.3% | 129hPa | 2.6V | 18:12:15 | 01:16:52 | 00:00:00 | |
| DL1XH-west | 2026-09-02 12:03:11 | 56.37401 | 4.52862 | 111° | 55km/h | 14711m | 4.4m/s | -48.3°C | 0.3% | 129.9hPa | 2.7V | 18:12:15 | 01:16:41 | 00:00:00 | |
| DL1XH-west | 2026-09-02 12:03:00 | 56.37450 | 4.52620 | 110° | 49km/h | 14664m | 3.6m/s | -48.1°C | 0.3% | 130.9hPa | 2.6V | 18:12:15 | 01:16:30 | 00:00:00 | |
| DL1XH-west | 2026-09-02 12:02:50 | 56.37506 | 4.52383 | 113° | 47km/h | 14619m | 4.2m/s | -48.3°C | 0.3% | 131.8hPa | 2.6V | 18:12:15 | 01:16:19 | 00:00:00 | |
| DM0DOS-11 | 2026-09-02 12:02:46 | 56.37535 | 4.52257 | 110° | 53km/h | 14594m | 4.7m/s | 0°C | 0% | 0hPa | 2.7V | 00:00:00 | 01:16:13 | 00:00:00 | |
| DL1XH-west | 2026-09-02 12:02:38 | 56.37571 | 4.52100 | 113° | 55km/h | 14565m | 4.3m/s | -48.5°C | 0.3% | 132.9hPa | 2.7V | 18:12:15 | 01:16:06 | 00:00:00 | |
| DL1XH-west | 2026-09-02 12:02:28 | 56.37605 | 4.51951 | 113° | 49km/h | 14535m | 3.5m/s | -48.7°C | 0.4% | 133.5hPa | 2.7V | 18:12:15 | 01:15:59 | 00:00:00 | |
| DL1XH-west | 2026-09-02 12:02:18 | 56.37660 | 4.51734 | 118° | 51km/h | 14494m | 3.4m/s | -48.8°C | 0.4% | 134.4hPa | 2.6V | 18:12:15 | 01:15:49 | 00:00:00 | |
| DL1XH-west | 2026-09-02 12:02:07 | 56.37730 | 4.51513 | 121° | 49km/h | 14446m | 4.8m/s | -48.5°C | 0.4% | 135.3hPa | 2.7V | 18:12:15 | 01:15:38 | 00:00:00 | |
| DL1XH-west | 2026-09-02 12:01:57 | 56.37794 | 4.51290 | 118° | 55km/h | 14399m | 4.9m/s | -48.5°C | 0.4% | 136.3hPa | 2.6V | 18:12:15 | 01:15:28 | 00:00:00 | |
| DL1XH-west | 2026-09-02 12:01:47 | 56.37862 | 4.51053 | 114° | 62km/h | 14351m | 6.1m/s | -48.2°C | 0.3% | 137.3hPa | 2.7V | 18:12:15 | 01:15:18 | 00:00:00 | |
| DL1XH-west | 2026-09-02 12:01:37 | 56.37922 | 4.50741 | 106° | 68km/h | 14295m | 3.9m/s | -48.6°C | 0.4% | 138.4hPa | 2.6V | 18:12:15 | 01:15:07 | 00:00:00 | |
| DL1XH-west | 2026-09-02 12:01:26 | 56.37974 | 4.50390 | 106° | 77km/h | 14248m | 4.7m/s | -48.5°C | 0.4% | 139.4hPa | 2.7V | 18:12:15 | 01:14:56 | 00:00:00 | |
| DL1XH-west | 2026-09-02 12:01:15 | 56.38030 | 4.50019 | 104° | 73km/h | 14202m | 4.7m/s | -48.5°C | 0.4% | 140.4hPa | 2.6V | 18:12:15 | 01:14:45 | 00:00:00 | |
| DL1XH-west | 2026-09-02 12:01:05 | 56.38077 | 4.49695 | 105° | 77km/h | 14161m | 3.9m/s | -48.6°C | 0.4% | 141.3hPa | 2.7V | 18:12:15 | 01:14:35 | 00:00:00 | |
| DL1XH-west | 2026-09-02 12:00:55 | 56.38134 | 4.49357 | 106° | 73km/h | 14120m | 4m/s | -48.6°C | 0.4% | 142.2hPa | 2.6V | 18:12:15 | 01:14:25 | 00:00:00 | |
| DL1XH-west | 2026-09-02 12:00:43 | 56.38206 | 4.49012 | 110° | 69km/h | 14073m | 4.1m/s | -49.4°C | 0.5% | 143.2hPa | 2.7V | 18:12:15 | 01:14:14 | 00:00:00 | |
| DL1XH-west | 2026-09-02 12:00:33 | 56.38275 | 4.48715 | 115° | 75km/h | 14031m | 4.2m/s | -49.8°C | 0.6% | 144.1hPa | 2.6V | 18:12:15 | 01:14:04 | 00:00:00 | |
| DL1XH-west | 2026-09-02 12:00:23 | 56.38357 | 4.48401 | 115° | 77km/h | 13989m | 4.1m/s | -49.7°C | 0.6% | 145hPa | 2.7V | 18:12:15 | 01:13:54 | 00:00:00 | |
| DL1XH-west | 2026-09-02 12:00:13 | 56.38435 | 4.48051 | 112° | 73km/h | 13944m | 4.5m/s | -49.8°C | 0.7% | 146hPa | 2.6V | 18:12:15 | 01:13:43 | 00:00:00 | |
| DL1XH-west | 2026-09-02 12:00:02 | 56.38504 | 4.47726 | 109° | 77km/h | 13903m | 3.7m/s | -49.5°C | 0.5% | 146.9hPa | 2.7V | 18:12:15 | 01:13:33 | 00:00:00 | |
| DL1XH-west | 2026-09-02 11:59:52 | 56.38587 | 4.47324 | 112° | 80km/h | 13851m | 2.9m/s | -49.4°C | 0.6% | 148.1hPa | 2.6V | 18:12:15 | 01:13:21 | 00:00:00 | |
| DL1XH-west | 2026-09-02 11:59:39 | 56.38665 | 4.46940 | 111° | 84km/h | 13806m | 3.7m/s | -49.2°C | 0.6% | 149.2hPa | 2.6V | 18:12:15 | 01:13:10 | 00:00:00 | |
| DL1XH-west | 2026-09-02 11:59:29 | 56.38742 | 4.46510 | 109° | 82km/h | 13756m | 3.9m/s | -48.9°C | 0.4% | 150.3hPa | 2.7V | 18:12:15 | 01:12:58 | 00:00:00 | |
| DL1XH-west | 2026-09-02 11:59:17 | 56.38807 | 4.46117 | 106° | 82km/h | 13709m | 4.2m/s | -49.1°C | 0.5% | 151.4hPa | 2.7V | 18:12:15 | 01:12:47 | 00:00:00 | |
| DL1XH-west | 2026-09-02 11:59:07 | 56.38854 | 4.45779 | 103° | 86km/h | 13671m | 3.4m/s | -49°C | 0.5% | 152.3hPa | 2.6V | 18:12:15 | 01:12:38 | 00:00:00 | |
| DL1XH-west | 2026-09-02 11:58:57 | 56.38922 | 4.45330 | 107° | 86km/h | 13623m | 3.5m/s | -48.8°C | 0.6% | 153.4hPa | 2.7V | 18:12:15 | 01:12:26 | 00:00:00 | |
| DL1XH-west | 2026-09-02 11:58:46 | 56.38975 | 4.44987 | 108° | 88km/h | 13586m | 3.1m/s | -48.9°C | 0.6% | 154.3hPa | 2.6V | 18:12:15 | 01:12:17 | 00:00:00 | |
| DL1XH-west | 2026-09-02 11:58:36 | 56.39043 | 4.44594 | 106° | 91km/h | 13545m | 3.8m/s | -49°C | 0.6% | 155.2hPa | 2.6V | 18:12:15 | 01:12:07 | 00:00:00 | |
| DL1XH-west | 2026-09-02 11:58:26 | 56.39118 | 4.44115 | 102° | 93km/h | 13497m | 2.7m/s | -48.9°C | 0.6% | 156.4hPa | 2.6V | 18:12:15 | 01:11:55 | 00:00:00 | |
| DL1XH-west | 2026-09-02 11:58:14 | 56.39176 | 4.43720 | 106° | 88km/h | 13458m | 3.2m/s | -48.6°C | 0.6% | 157.3hPa | 2.6V | 18:12:15 | 01:11:45 | 00:00:00 | |
| DL1XH-west | 2026-09-02 11:58:03 | 56.39249 | 4.43260 | 108° | 88km/h | 13411m | 3.7m/s | -48.5°C | 0.6% | 158.4hPa | 2.6V | 18:12:15 | 01:11:33 | 00:00:00 | |
| DL1XH-west | 2026-09-02 11:57:53 | 56.39302 | 4.42912 | 106° | 91km/h | 13376m | 3.3m/s | -48.4°C | 0.5% | 159.3hPa | 2.6V | 18:12:15 | 01:11:24 | 00:00:00 | |
| DL1XH-west | 2026-09-02 11:57:43 | 56.39360 | 4.42488 | 103° | 84km/h | 13332m | 3.8m/s | -48.2°C | 0.5% | 160.4hPa | 2.6V | 18:12:15 | 01:11:13 | 00:00:00 | |
| DL1XH-west | 2026-09-02 11:57:33 | 56.39415 | 4.42131 | 107° | 82km/h | 13290m | 3.8m/s | -48.3°C | 0.5% | 161.4hPa | 2.6V | 18:12:15 | 01:11:03 | 00:00:00 | |
| DL1XH-west | 2026-09-02 11:57:22 | 56.39480 | 4.41748 | 108° | 80km/h | 13244m | 3.4m/s | -48.3°C | 0.6% | 162.5hPa | 2.6V | 18:12:15 | 01:10:52 | 00:00:00 | |
| DL1XH-west | 2026-09-02 11:57:11 | 56.39547 | 4.41355 | 106° | 80km/h | 13201m | 3.9m/s | -48.3°C | 0.5% | 163.6hPa | 2.7V | 18:12:15 | 01:10:41 | 00:00:00 | |
| DL1XH-west | 2026-09-02 11:57:00 | 56.39608 | 4.40974 | 109° | 82km/h | 13157m | 4.3m/s | -48.1°C | 0.7% | 164.7hPa | 2.6V | 18:12:15 | 01:10:30 | 00:00:00 | |
| DL1XH-west | 2026-09-02 11:56:49 | 56.39677 | 4.40609 | 110° | 77km/h | 13113m | 4.6m/s | -48.4°C | 0.7% | 165.8hPa | 2.7V | 18:12:15 | 01:10:19 | 00:00:00 | |
| DL1XH-west | 2026-09-02 11:56:40 | 56.39749 | 4.40274 | 111° | 84km/h | 13073m | 3.4m/s | -48.3°C | 0.8% | 166.8hPa | 2.6V | 18:12:15 | 01:10:09 | 00:00:00 | |
| DL1XH-west | 2026-09-02 11:56:29 | 56.39820 | 4.39887 | 107° | 78km/h | 13029m | 3.8m/s | -48.2°C | 0.8% | 167.9hPa | 2.7V | 18:12:15 | 01:09:58 | 00:00:00 | |
| DL1XH-west | 2026-09-02 11:56:18 | 56.39890 | 4.39490 | 110° | 84km/h | 12984m | 3.8m/s | -48°C | 0.9% | 169.1hPa | 2.7V | 18:12:15 | 01:09:47 | 00:00:00 | |
| DL1XH-west | 2026-09-02 11:56:06 | 56.39972 | 4.39089 | 111° | 86km/h | 12939m | 4.9m/s | -48°C | 1% | 170.3hPa | 2.7V | 18:12:15 | 01:09:36 | 00:00:00 | |
| DL1XH-west | 2026-09-02 11:55:55 | 56.40058 | 4.38680 | 115° | 89km/h | 12894m | 4.7m/s | -48.3°C | 1.2% | 171.4hPa | 2.7V | 18:12:15 | 01:09:25 | 00:00:00 | |
| DL1XH-west | 2026-09-02 11:55:44 | 56.40151 | 4.38304 | 112° | 91km/h | 12851m | 4.8m/s | -48.9°C | 1.2% | 172.5hPa | 2.7V | 18:12:15 | 01:09:15 | 00:00:00 | |
| DL1XH-west | 2026-09-02 11:55:34 | 56.40239 | 4.37908 | 108° | 100km/h | 12810m | 4m/s | -48.9°C | 1.3% | 173.5hPa | 2.7V | 18:12:15 | 01:09:05 | 00:00:00 | |
| DL1XH-west | 2026-09-02 11:55:24 | 56.40325 | 4.37479 | 112° | 100km/h | 12770m | 3.7m/s | -49.1°C | 1.4% | 174.7hPa | 2.7V | 18:12:15 | 01:08:55 | 00:00:00 | |
| DL1XH-west | 2026-09-02 11:55:14 | 56.40438 | 4.36941 | 111° | 93km/h | 12717m | 4.5m/s | -48.9°C | 1.4% | 176.1hPa | 2.7V | 18:12:15 | 01:08:42 | 00:00:00 | |
| DL1XH-west | 2026-09-02 11:55:03 | 56.40514 | 4.36583 | 112° | 95km/h | 12678m | 3.9m/s | -48.6°C | 1.3% | 177.1hPa | 2.7V | 18:12:15 | 01:08:33 | 00:00:00 | |
| DL1XH-west | 2026-09-02 11:54:52 | 56.40616 | 4.36138 | 112° | 95km/h | 12633m | 4.3m/s | -48.6°C | 1.3% | 178.4hPa | 2.7V | 18:12:15 | 01:08:22 | 00:00:00 | |
| DL1XH-west | 2026-09-02 11:54:42 | 56.40711 | 4.35718 | 112° | 104km/h | 12591m | 4.8m/s | -48.5°C | 1.4% | 179.4hPa | 2.7V | 18:12:15 | 01:08:12 | 00:00:00 | |
| DL1XH-west | 2026-09-02 11:54:31 | 56.40811 | 4.35228 | 108° | 104km/h | 12546m | 2.8m/s | -48.3°C | 1.3% | 180.8hPa | 2.7V | 18:12:15 | 01:08:01 | 00:00:00 | |
| DL1XH-west | 2026-09-02 11:54:19 | 56.40906 | 4.34736 | 109° | 102km/h | 12505m | 3.4m/s | -48.4°C | 1.4% | 181.9hPa | 2.6V | 18:12:15 | 01:07:50 | 00:00:00 | |
| DL1XH-west | 2026-09-02 11:54:08 | 56.40981 | 4.34244 | 104° | 100km/h | 12461m | 3.2m/s | -48.4°C | 1.5% | 183.2hPa | 2.7V | 18:12:15 | 01:07:39 | 00:00:00 | |
| DL1XH-west | 2026-09-02 11:53:57 | 56.41036 | 4.33739 | 98° | 100km/h | 12418m | 3.2m/s | -48.6°C | 1.5% | 184.3hPa | 2.6V | 18:12:15 | 01:07:28 | 00:00:00 | |
| DL1XH-west | 2026-09-02 11:53:46 | 56.41069 | 4.33236 | 99° | 100km/h | 12373m | 4.3m/s | -48.6°C | 1.6% | 185.6hPa | 2.6V | 18:12:15 | 01:07:17 | 00:00:00 | |
| DL1XH-west | 2026-09-02 11:53:35 | 56.41125 | 4.32741 | 102° | 100km/h | 12331m | 4m/s | -48.7°C | 1.8% | 186.8hPa | 2.6V | 18:12:15 | 01:07:06 | 00:00:00 | |
| DL1XH-west | 2026-09-02 11:53:24 | 56.41171 | 4.32255 | 102° | 97km/h | 12291m | 2.5m/s | -49.1°C | 2% | 187.9hPa | 2.6V | 18:12:15 | 01:06:55 | 00:00:00 | |
| DL1XH-west | 2026-09-02 11:53:14 | 56.41221 | 4.31782 | 99° | 91km/h | 12249m | 3.8m/s | -49.7°C | 2.3% | 189.1hPa | 2.6V | 18:12:15 | 01:06:44 | 00:00:00 | |
| DL1XH-west | 2026-09-02 11:53:02 | 56.41248 | 4.31334 | 96° | 89km/h | 12208m | 3.4m/s | -49.8°C | 2.4% | 190.4hPa | 2.7V | 18:12:15 | 01:06:33 | 00:00:00 | |
| DL1XH-west | 2026-09-02 11:52:51 | 56.41273 | 4.30901 | 97° | 86km/h | 12165m | 3.3m/s | -49.7°C | 2.5% | 191.6hPa | 2.6V | 18:12:15 | 01:06:22 | 00:00:00 | |
| DL1XH-west | 2026-09-02 11:52:41 | 56.41302 | 4.30511 | 100° | 82km/h | 12126m | 2.9m/s | -50°C | 2.8% | 192.8hPa | 2.6V | 18:12:15 | 01:06:12 | 00:00:00 | |
| DL1XH-west | 2026-09-02 11:52:31 | 56.41343 | 4.30129 | 102° | 86km/h | 12088m | 3.9m/s | -50.5°C | 3% | 193.9hPa | 2.7V | 18:12:15 | 01:06:02 | 00:00:00 | |
| DL1XH-west | 2026-09-02 11:52:20 | 56.41407 | 4.29727 | 108° | 88km/h | 12046m | 4.2m/s | -50.7°C | 3.1% | 195.1hPa | 2.6V | 18:12:15 | 01:05:51 | 00:00:00 | |
| DL1XH-west | 2026-09-02 11:52:10 | 56.41477 | 4.29341 | 110° | 88km/h | 12008m | 3.8m/s | -50.6°C | 3.1% | 196.4hPa | 2.7V | 18:12:15 | 01:05:41 | 00:00:00 | |
| DL1XH-west | 2026-09-02 11:51:59 | 56.41566 | 4.28909 | 110° | 93km/h | 11960m | 5m/s | -50.4°C | 3% | 197.8hPa | 2.7V | 18:12:15 | 01:05:30 | 00:00:00 | |
| DL1XH-west | 2026-09-02 11:51:49 | 56.41650 | 4.28526 | 113° | 91km/h | 11918m | 4.6m/s | -50°C | 2.9% | 199.1hPa | 2.7V | 18:12:15 | 01:05:20 | 00:00:00 | |
| DL1XH-west | 2026-09-02 11:51:39 | 56.41744 | 4.28111 | 113° | 89km/h | 11872m | 5.4m/s | -49.6°C | 2.8% | 200.5hPa | 2.7V | 18:12:15 | 01:05:09 | 00:00:00 | |
| DL1XH-west | 2026-09-02 11:51:29 | 56.41832 | 4.27733 | 114° | 88km/h | 11832m | 4.2m/s | -49.4°C | 2.9% | 201.8hPa | 2.6V | 18:12:15 | 01:04:59 | 00:00:00 | |
| DL1XH-west | 2026-09-02 11:51:18 | 56.41935 | 4.27317 | 115° | 88km/h | 11785m | 3.9m/s | -48.8°C | 2.8% | 203.2hPa | 2.6V | 18:12:15 | 01:04:48 | 00:00:00 | |
| DL1XH-west | 2026-09-02 11:51:06 | 56.42043 | 4.26899 | 114° | 93km/h | 11740m | 4m/s | -48.7°C | 3.1% | 204.6hPa | 2.7V | 18:12:15 | 01:04:37 | 00:00:00 | |
| DL1XH-west | 2026-09-02 11:50:56 | 56.42144 | 4.26464 | 109° | 93km/h | 11689m | 4.3m/s | -48.5°C | 3.5% | 206.2hPa | 2.7V | 18:12:15 | 01:04:26 | 00:00:00 | |
| DL1XH-west | 2026-09-02 11:50:46 | 56.42228 | 4.26027 | 112° | 104km/h | 11646m | 3.9m/s | -48.7°C | 4.1% | 207.5hPa | 2.7V | 18:12:15 | 01:04:16 | 00:00:00 | |
| DJ2DS-15 | 2026-09-02 11:50:45 | 56.42238 | 4.25983 | 113° | 100km/h | 11642m | 4.3m/s | -48.8°C | 3.5% | 207.6hPa | 2.6V | 00:00:00 | 00:00:00 | 00:00:00 | |
| DL1XH-west | 2026-09-02 11:50:35 | 56.42314 | 4.25577 | 107° | 110km/h | 11602m | 2.9m/s | -49°C | 4.8% | 208.9hPa | 2.6V | 18:12:15 | 01:04:06 | 00:00:00 | |
| DL1XH-west | 2026-09-02 11:50:24 | 56.42408 | 4.25066 | 107° | 104km/h | 11562m | 3.3m/s | -49.4°C | 6% | 210.2hPa | 2.6V | 18:12:15 | 01:03:55 | 00:00:00 | |
| DL1XH-west | 2026-09-02 11:50:13 | 56.42509 | 4.24568 | 107° | 102km/h | 11519m | 3.7m/s | 0°C | 0% | 211.6hPa | 2.7V | 18:12:15 | 01:03:44 | 00:00:00 | |
| DL1XH-west | 2026-09-02 11:50:02 | 56.42591 | 4.24060 | 111° | 108km/h | 11476m | 4.6m/s | 0°C | 0% | 0hPa | 2.7V | 18:12:15 | 01:03:33 | 00:00:00 | |
| DL1XH-west | 2026-09-02 11:49:51 | 56.42686 | 4.23536 | 109° | 113km/h | 11432m | 3.8m/s | 0°C | 0% | 0hPa | 2.7V | 18:12:15 | 01:03:22 | 00:00:00 | |
| DL1XH-west | 2026-09-02 11:49:42 | 56.42768 | 4.23060 | 107° | 108km/h | 11391m | 4m/s | 0°C | 0% | 0hPa | 2.7V | 18:12:15 | 01:03:12 | 00:00:00 | |
| DL1XH-west | 2026-09-02 11:49:31 | 56.42858 | 4.22595 | 111° | 108km/h | 11350m | 4.1m/s | 0°C | 0% | 0hPa | 2.7V | 18:12:15 | 01:03:02 | 00:00:00 | |
| DJ2DS-15 | 2026-09-02 11:49:24 | 56.42927 | 4.22275 | 113° | 111km/h | 11322m | 3.7m/s | -52.4°C | 14.9% | 218.0hPa | 2.6V | 00:00:00 | 01:02:55 | 00:00:00 | |
| DJ2DS-15 | 2026-09-02 11:49:04 | 56.43140 | 4.21334 | 114° | 108km/h | 11243m | 4.2m/s | -52.4°C | 17.1% | 220.7hPa | 2.6V | 00:00:00 | 01:02:35 | 00:00:00 | |
| DJ2DS-15 | 2026-09-02 11:48:57 | 56.43227 | 4.20966 | 113° | 104km/h | 11211m | 4.2m/s | -52.8°C | 14.1% | 221.8hPa | 2.6V | 00:00:00 | 00:00:00 | 00:00:00 | |
| DJ2DS-15 | 2026-09-02 11:48:44 | 56.43358 | 4.20440 | 117° | 108km/h | 11164m | 3.4m/s | -52.8°C | 20.5% | 223.5hPa | 2.6V | 00:00:00 | 01:02:15 | 00:00:00 | |
| DJ2DS-15 | 2026-09-02 11:48:24 | 56.43611 | 4.19573 | 118° | 110km/h | 11088m | 4.4m/s | -52.8°C | 23.0% | 226.3hPa | 2.7V | 00:00:00 | 01:01:55 | 00:00:00 | |
| DJ2DS-15 | 2026-09-02 11:48:04 | 56.43856 | 4.18668 | 115° | 117km/h | 11026m | 4.1m/s | -53.1°C | 25.2% | 229.1hPa | 2.7V | 00:00:00 | 01:01:35 | 00:00:00 | |
| DJ2DS-15 | 2026-09-02 11:47:44 | 56.44114 | 4.17721 | 117° | 119km/h | 10930m | 3.3m/s | -53.7°C | 30.5% | 231.8hPa | 2.7V | 00:00:00 | 01:01:15 | 08:30:00 | |
| DJ2DS-15 | 2026-09-02 11:47:24 | 56.44367 | 4.16745 | 117° | 126km/h | 10857m | 4.0m/s | -54.4°C | 34.4% | 234.4hPa | 2.7V | 00:00:00 | 01:00:55 | 00:00:00 | |
| DL1XH-west | 2026-09-02 11:47:01 | 56.44700 | 4.15501 | 115° | 128km/h | 10769m | 4.3m/s | 0°C | 0% | 0hPa | 2.7V | 18:12:15 | 01:00:31 | 00:00:00 | |
| DL1XH-west | 2026-09-02 11:46:46 | 56.44886 | 4.14752 | 113° | 130km/h | 10719m | 3.7m/s | 0°C | 0% | 0hPa | 2.7V | 18:12:15 | 01:00:17 | 00:00:00 | |
| DL1XH-west | 2026-09-02 11:46:35 | 56.45025 | 4.14151 | 114° | 131km/h | 10681m | 3.2m/s | 0°C | 0% | 0hPa | 2.7V | 18:12:15 | 01:00:06 | 00:00:00 | |
| DJ2DS-15 | 2026-09-02 11:46:32 | 56.45064 | 4.13984 | 112° | 131km/h | 10670m | 4.4m/s | -54.1°C | 33.5% | 241.4hPa | 2.7V | 00:00:00 | 00:00:00 | 00:00:00 | |
| DJ2DS-15 | 2026-09-02 11:46:24 | 56.45166 | 4.13537 | 113° | 133km/h | 10640m | 4.3m/s | -54.2°C | 42.7% | 242.5hPa | 2.7V | 00:00:00 | 00:59:55 | 00:00:00 | |
| DL1XH-west | 2026-09-02 11:46:06 | 56.45390 | 4.12513 | 110° | 133km/h | 10572m | 4.3m/s | 0°C | 0% | 0hPa | 2.7V | 18:12:15 | 00:59:37 | 00:00:00 | |
| DJ2DS-15 | 2026-09-02 11:46:04 | 56.45413 | 4.12399 | 111° | 130km/h | 10564m | 4.6m/s | -54.1°C | 49.1% | 245.4hPa | 2.6V | 00:00:00 | 00:59:35 | 00:00:00 | |
| DJ2DS-15 | 2026-09-02 11:45:56 | 56.45502 | 4.11944 | 109° | 130km/h | 10532m | 3.1m/s | -54.3°C | 47.4% | 246.6hPa | 2.6V | 00:00:00 | 00:00:00 | 00:00:00 | |
| DJ2DS-15 | 2026-09-02 11:45:44 | 56.45621 | 4.11277 | 107° | 122km/h | 10488m | 3.7m/s | -54.5°C | 64.8% | 248.3hPa | 2.6V | 00:00:00 | 00:59:15 | 00:00:00 | |
| DJ2DS-15 | 2026-09-02 11:45:24 | 56.45788 | 4.10206 | 107° | 117km/h | 10413m | 4.3m/s | -54.4°C | 70.5% | 251.3hPa | 2.7V | 00:00:00 | 00:58:55 | 00:00:00 | |
| DJ2DS-15 | 2026-09-02 11:45:04 | 56.45946 | 4.09181 | 103° | 115km/h | 10333m | 4.7m/s | -54.2°C | 73.6% | 254.4hPa | 2.7V | 00:00:00 | 00:58:35 | 00:00:00 | |
| DJ2DS-15 | 2026-09-02 11:44:45 | 56.46098 | 4.08172 | 109° | 111km/h | 10251m | 4.8m/s | -53.9°C | 57.7% | 257.7hPa | 2.7V | 00:00:00 | 00:00:00 | 00:00:00 | |
| DJ2DS-15 | 2026-09-02 11:44:44 | 56.46098 | 4.08172 | 110° | 111km/h | 10252m | 4.7m/s | -53.9°C | 67.6% | 257.6hPa | 2.7V | 00:00:00 | 00:58:15 | 08:30:00 | |
| DJ2DS-15 | 2026-09-02 11:44:24 | 56.46268 | 4.07206 | 107° | 110km/h | 10175m | 3.7m/s | -53.3°C | 66.5% | 260.7hPa | 2.7V | 00:00:00 | 00:57:55 | 00:00:00 | |
| DJ2DS-15 | 2026-09-02 11:44:08 | 56.46388 | 4.06429 | 103° | 108km/h | 10115m | 3.4m/s | -53.2°C | 56.0% | 263.3hPa | 2.7V | 00:00:00 | 00:00:00 | 00:00:00 | |
| DJ2DS-15 | 2026-09-02 11:44:04 | 56.46414 | 4.06238 | 105° | 108km/h | 10097m | 4.1m/s | -53.0°C | 63.6% | 263.8hPa | 2.7V | 00:00:00 | 00:57:35 | 00:00:00 | |
| DJ2DS-15 | 2026-09-02 11:43:44 | 56.46554 | 4.05294 | 107° | 102km/h | 10024m | 3.8m/s | -52.5°C | 66.4% | 266.9hPa | 2.7V | 00:00:00 | 00:57:15 | 00:00:00 | |
| DJ2DS-15 | 2026-09-02 11:43:32 | 56.46638 | 4.04754 | 104° | 102km/h | 9974m | 3.5m/s | -52.1°C | 53.4% | 269.0hPa | 0V | 00:00:00 | 00:00:00 | 00:00:00 | |
| DJ2DS-15 | 2026-09-02 11:43:24 | 56.46692 | 4.04400 | 106° | 102km/h | 9945m | 3.2m/s | -51.8°C | 60.5% | 270.3hPa | 0V | 00:00:00 | 00:56:55 | 00:00:00 | |
| DJ2DS-15 | 2026-09-02 11:43:04 | 56.46821 | 4.03495 | 105° | 106km/h | 9864m | 4.1m/s | -51.0°C | 56.9% | 273.6hPa | 0V | 00:00:00 | 00:56:35 | 00:00:00 | |
| DJ2DS-15 | 2026-09-02 11:42:56 | 56.46884 | 4.03085 | 104° | 108km/h | 9825m | 3.6m/s | -50.8°C | 50.4% | 275.2hPa | 0V | 00:00:00 | 00:00:00 | 00:00:00 | |
| DJ2DS-15 | 2026-09-02 11:42:44 | 56.46959 | 4.02560 | 105° | 108km/h | 9780m | 3.9m/s | 0°C | 0% | 0hPa | 0V | 00:00:00 | 00:56:15 | 00:00:00 | |
| DJ2DS-15 | 2026-09-02 11:42:24 | 56.47095 | 4.01611 | 105° | 106km/h | 9706m | 4.8m/s | 0°C | 0% | 0hPa | 0V | 00:00:00 | 00:55:55 | 00:00:00 | |
| DJ2DS-15 | 2026-09-02 11:42:20 | 56.47127 | 4.01374 | 103° | 104km/h | 9684m | 3.6m/s | -49.5°C | 48.3% | 281.3hPa | 0V | 00:00:00 | 00:00:00 | 00:00:00 | |
| DJ2DS-15 | 2026-09-02 11:42:04 | 56.47217 | 4.00665 | 103° | 106km/h | 9627m | 4.1m/s | 0°C | 0% | 0hPa | 0V | 00:00:00 | 00:55:35 | 00:00:00 |